DEMNG SBFN-GVAC
Flight info
| Callsign | DEMNG |
|---|---|
| Flight time | 8h 54m |
| Altitude | 7000 |
| Route | UTRAM B623 ODMEN W33 SNT DCT GUSAN |
| Aircraft | PA24/L-SDGRY/S |
Departure
| Time | 2026-05-07 07:58 |
|---|---|
| Airport | Fernando de Noronha Airport (SBFN) |
Arrival
| Time | 2026-05-07 16:52 |
|---|---|
| Airport | Amílcar Cabral International Airport (GVAC) |
| Time | Latitude | Longitude | Altitude | Speed | Heading |
|---|---|---|---|---|---|
| 2026-05-07 07:47 | -3.85593 | -32.42912 | 164 ft | 0 kts | 184° |
| 2026-05-07 07:54 | -3.85600 | -32.42907 | 164 ft | 4 kts | 107° |
| 2026-05-07 07:55 | -3.85556 | -32.42913 | 164 ft | 11 kts | 330° |
| 2026-05-07 07:55 | -3.85488 | -32.42956 | 164 ft | 8 kts | 326° |
| 2026-05-07 07:55 | -3.85483 | -32.42960 | 164 ft | 0 kts | 324° |
| 2026-05-07 07:56 | -3.85470 | -32.42968 | 164 ft | 7 kts | 324° |
| 2026-05-07 07:56 | -3.85410 | -32.43008 | 166 ft | 10 kts | 359° |
| 2026-05-07 07:56 | -3.85395 | -32.42985 | 165 ft | 9 kts | 92° |
| 2026-05-07 07:57 | -3.85415 | -32.42708 | 161 ft | 66 kts | 93° |
| 2026-05-07 07:57 | -3.85468 | -32.41975 | 310 ft | 82 kts | 93° |
| 2026-05-07 07:57 | -3.85491 | -32.41408 | 497 ft | 85 kts | 89° |
| 2026-05-07 07:57 | -3.85507 | -32.40801 | 717 ft | 87 kts | 90° |
| 2026-05-07 07:58 | -3.85526 | -32.40398 | 854 ft | 85 kts | 92° |
| 2026-05-07 07:58 | -3.85353 | -32.39818 | 1004 ft | 94 kts | 51° |
| 2026-05-07 07:58 | -3.84794 | -32.39541 | 1244 ft | 95 kts | 7° |
| 2026-05-07 07:58 | -3.84117 | -32.39613 | 1452 ft | 99 kts | 351° |
| 2026-05-07 07:59 | -3.83438 | -32.39782 | 1606 ft | 103 kts | 348° |
| 2026-05-07 07:59 | -3.82767 | -32.39965 | 1816 ft | 98 kts | 346° |
| 2026-05-07 07:59 | -3.82092 | -32.40152 | 1977 ft | 102 kts | 352° |
| 2026-05-07 07:59 | -3.81403 | -32.40205 | 2196 ft | 99 kts | 5° |
| 2026-05-07 08:00 | -3.80718 | -32.40106 | 2359 ft | 99 kts | 18° |
| 2026-05-07 08:00 | -3.80079 | -32.39910 | 2539 ft | 96 kts | 25° |
| 2026-05-07 08:00 | -3.79459 | -32.39643 | 2693 ft | 96 kts | 30° |
| 2026-05-07 08:00 | -3.78868 | -32.39344 | 2851 ft | 96 kts | 31° |
| 2026-05-07 08:01 | -3.78274 | -32.39033 | 3017 ft | 96 kts | 32° |
| 2026-05-07 08:01 | -3.77679 | -32.38719 | 3162 ft | 97 kts | 32° |
| 2026-05-07 08:01 | -3.77085 | -32.38402 | 3328 ft | 96 kts | 31° |
| 2026-05-07 08:01 | -3.76484 | -32.38089 | 3474 ft | 98 kts | 32° |
| 2026-05-07 08:02 | -3.75887 | -32.37770 | 3632 ft | 97 kts | 32° |
| 2026-05-07 08:02 | -3.75289 | -32.37450 | 3782 ft | 98 kts | 31° |
| 2026-05-07 08:02 | -3.74689 | -32.37146 | 3975 ft | 96 kts | 30° |
| 2026-05-07 08:02 | -3.74081 | -32.36832 | 4131 ft | 98 kts | 31° |
| 2026-05-07 08:03 | -3.73484 | -32.36516 | 4312 ft | 97 kts | 31° |
| 2026-05-07 08:03 | -3.72878 | -32.36196 | 4470 ft | 99 kts | 32° |
| 2026-05-07 08:03 | -3.72275 | -32.35873 | 4641 ft | 98 kts | 31° |
| 2026-05-07 08:03 | -3.71665 | -32.35552 | 4800 ft | 98 kts | 32° |
| 2026-05-07 08:04 | -3.71061 | -32.35231 | 4966 ft | 99 kts | 31° |
| 2026-05-07 08:04 | -3.70448 | -32.34905 | 5124 ft | 99 kts | 31° |
| 2026-05-07 08:04 | -3.69840 | -32.34588 | 5283 ft | 99 kts | 31° |
| 2026-05-07 08:04 | -3.69231 | -32.34270 | 5439 ft | 98 kts | 32° |
| 2026-05-07 08:05 | -3.68641 | -32.33956 | 5588 ft | 98 kts | 31° |
| 2026-05-07 08:05 | -3.68036 | -32.33635 | 5751 ft | 98 kts | 31° |
| 2026-05-07 08:05 | -3.67427 | -32.33318 | 5896 ft | 99 kts | 31° |
| 2026-05-07 08:05 | -3.66817 | -32.32997 | 6062 ft | 99 kts | 32° |
| 2026-05-07 08:06 | -3.66207 | -32.32674 | 6208 ft | 100 kts | 32° |
| 2026-05-07 08:06 | -3.65594 | -32.32351 | 6360 ft | 99 kts | 32° |
| 2026-05-07 08:06 | -3.64981 | -32.32025 | 6510 ft | 100 kts | 32° |
| 2026-05-07 08:06 | -3.64368 | -32.31699 | 6656 ft | 100 kts | 31° |
| 2026-05-07 08:07 | -3.63747 | -32.31374 | 6789 ft | 101 kts | 31° |
| 2026-05-07 08:07 | -3.63128 | -32.31049 | 6934 ft | 101 kts | 31° |
| 2026-05-07 08:07 | -3.62474 | -32.30700 | 6960 ft | 113 kts | 33° |
| 2026-05-07 08:07 | -3.61748 | -32.30289 | 6962 ft | 126 kts | 33° |
| 2026-05-07 08:08 | -3.60952 | -32.29847 | 6971 ft | 135 kts | 32° |
| 2026-05-07 08:08 | -3.60107 | -32.29395 | 6989 ft | 140 kts | 31° |
| 2026-05-07 08:08 | -3.59227 | -32.28939 | 7014 ft | 144 kts | 30° |
| 2026-05-07 08:08 | -3.58328 | -32.28478 | 7046 ft | 146 kts | 30° |
| 2026-05-07 08:09 | -3.57415 | -32.28013 | 7063 ft | 148 kts | 30° |
| 2026-05-07 08:09 | -3.56464 | -32.27525 | 6954 ft | 159 kts | 30° |
| 2026-05-07 08:09 | -3.55485 | -32.27015 | 6928 ft | 158 kts | 30° |
| 2026-05-07 08:09 | -3.54520 | -32.26513 | 6930 ft | 155 kts | 31° |
| 2026-05-07 08:10 | -3.53560 | -32.26007 | 6933 ft | 156 kts | 31° |
| 2026-05-07 08:10 | -3.52597 | -32.25494 | 6935 ft | 157 kts | 31° |
| 2026-05-07 08:10 | -3.51628 | -32.24983 | 6936 ft | 158 kts | 30° |
| 2026-05-07 08:10 | -3.50650 | -32.24478 | 6936 ft | 158 kts | 30° |
| 2026-05-07 08:11 | -3.49676 | -32.23969 | 6938 ft | 158 kts | 31° |
| 2026-05-07 08:11 | -3.48700 | -32.23454 | 6939 ft | 159 kts | 31° |
| 2026-05-07 08:11 | -3.47722 | -32.22933 | 6938 ft | 159 kts | 31° |
| 2026-05-07 08:11 | -3.46743 | -32.22419 | 6938 ft | 159 kts | 30° |
| 2026-05-07 08:12 | -3.45774 | -32.21910 | 6935 ft | 159 kts | 31° |
| 2026-05-07 08:12 | -3.44795 | -32.21396 | 6935 ft | 159 kts | 30° |
| 2026-05-07 08:12 | -3.43815 | -32.20881 | 6935 ft | 159 kts | 31° |
| 2026-05-07 08:12 | -3.42834 | -32.20362 | 6935 ft | 159 kts | 31° |
| 2026-05-07 08:13 | -3.41854 | -32.19847 | 6938 ft | 159 kts | 31° |
| 2026-05-07 08:13 | -3.40875 | -32.19329 | 6938 ft | 159 kts | 31° |
| 2026-05-07 08:13 | -3.39898 | -32.18807 | 6938 ft | 159 kts | 31° |
| 2026-05-07 08:13 | -3.38919 | -32.18291 | 6935 ft | 159 kts | 31° |
| 2026-05-07 08:14 | -3.37937 | -32.17776 | 6932 ft | 159 kts | 31° |
| 2026-05-07 08:14 | -3.36953 | -32.17262 | 6933 ft | 160 kts | 31° |
| 2026-05-07 08:14 | -3.35968 | -32.16750 | 6933 ft | 160 kts | 30° |
| 2026-05-07 08:14 | -3.34985 | -32.16233 | 6933 ft | 159 kts | 31° |
| 2026-05-07 08:15 | -3.34002 | -32.15714 | 6935 ft | 160 kts | 31° |
| 2026-05-07 08:15 | -3.33017 | -32.15200 | 6936 ft | 160 kts | 31° |
| 2026-05-07 08:15 | -3.32047 | -32.14684 | 6935 ft | 160 kts | 31° |
| 2026-05-07 08:15 | -3.31066 | -32.14156 | 6935 ft | 160 kts | 31° |
| 2026-05-07 08:16 | -3.30084 | -32.13638 | 6938 ft | 159 kts | 30° |
| 2026-05-07 08:16 | -3.29099 | -32.13127 | 6938 ft | 159 kts | 31° |
| 2026-05-07 08:16 | -3.28119 | -32.12610 | 6938 ft | 159 kts | 31° |
| 2026-05-07 08:16 | -3.27140 | -32.12091 | 6938 ft | 159 kts | 31° |
| 2026-05-07 08:17 | -3.26151 | -32.11592 | 6936 ft | 159 kts | 28° |
| 2026-05-07 08:17 | -3.25137 | -32.11139 | 6935 ft | 160 kts | 26° |
| 2026-05-07 08:17 | -3.24114 | -32.10704 | 6937 ft | 160 kts | 26° |
| 2026-05-07 08:17 | -3.23093 | -32.10259 | 6933 ft | 160 kts | 26° |
| 2026-05-07 08:18 | -3.22074 | -32.09808 | 6934 ft | 160 kts | 26° |
| 2026-05-07 08:18 | -3.21051 | -32.09359 | 6935 ft | 160 kts | 26° |
| 2026-05-07 08:18 | -3.20042 | -32.08919 | 6935 ft | 161 kts | 26° |
| 2026-05-07 08:18 | -3.19008 | -32.08458 | 6935 ft | 161 kts | 27° |
| 2026-05-07 08:19 | -3.18003 | -32.08007 | 6935 ft | 160 kts | 26° |
| 2026-05-07 08:19 | -3.16977 | -32.07559 | 6935 ft | 161 kts | 26° |
| 2026-05-07 08:19 | -3.15961 | -32.07105 | 6935 ft | 159 kts | 27° |
| 2026-05-07 08:19 | -3.14949 | -32.06656 | 6935 ft | 159 kts | 27° |
| 2026-05-07 08:20 | -3.13942 | -32.06202 | 6938 ft | 159 kts | 26° |
| 2026-05-07 08:20 | -3.12927 | -32.05755 | 6937 ft | 158 kts | 26° |
| 2026-05-07 08:20 | -3.11918 | -32.05310 | 6937 ft | 158 kts | 26° |
| 2026-05-07 08:20 | -3.10923 | -32.04872 | 6938 ft | 158 kts | 27° |
| 2026-05-07 08:21 | -3.09919 | -32.04417 | 6935 ft | 158 kts | 27° |
| 2026-05-07 08:21 | -3.08914 | -32.03958 | 6935 ft | 158 kts | 27° |
| 2026-05-07 08:21 | -3.07909 | -32.03507 | 6935 ft | 158 kts | 27° |
| 2026-05-07 08:21 | -3.06902 | -32.03054 | 6935 ft | 158 kts | 27° |
| 2026-05-07 08:22 | -3.05893 | -32.02611 | 6937 ft | 158 kts | 26° |
| 2026-05-07 08:22 | -3.04886 | -32.02159 | 6938 ft | 159 kts | 27° |
| 2026-05-07 08:22 | -3.03877 | -32.01710 | 6938 ft | 159 kts | 26° |
| 2026-05-07 08:22 | -3.02865 | -32.01262 | 6938 ft | 159 kts | 26° |
| 2026-05-07 08:23 | -3.01859 | -32.00816 | 6941 ft | 159 kts | 26° |
| 2026-05-07 08:23 | -3.00848 | -32.00372 | 6940 ft | 159 kts | 26° |
| 2026-05-07 08:23 | -2.99839 | -31.99918 | 6941 ft | 159 kts | 27° |
| 2026-05-07 08:23 | -2.98833 | -31.99465 | 6940 ft | 159 kts | 26° |
| 2026-05-07 08:24 | -2.97826 | -31.99020 | 6937 ft | 158 kts | 27° |
| 2026-05-07 08:24 | -2.96824 | -31.98568 | 6937 ft | 158 kts | 26° |
| 2026-05-07 08:24 | -2.95819 | -31.98121 | 6938 ft | 158 kts | 27° |
| 2026-05-07 08:24 | -2.94814 | -31.97678 | 6938 ft | 158 kts | 27° |
| 2026-05-07 08:25 | -2.93812 | -31.97226 | 6941 ft | 158 kts | 27° |
| 2026-05-07 08:25 | -2.92807 | -31.96774 | 6940 ft | 158 kts | 27° |
| 2026-05-07 08:25 | -2.91801 | -31.96330 | 6941 ft | 158 kts | 26° |
| 2026-05-07 08:25 | -2.90797 | -31.95876 | 6940 ft | 158 kts | 27° |
| 2026-05-07 08:26 | -2.88788 | -31.94973 | 6938 ft | 158 kts | 26° |
| 2026-05-07 08:26 | -2.87794 | -31.94532 | 6938 ft | 158 kts | 26° |
| 2026-05-07 08:26 | -2.86779 | -31.94070 | 6937 ft | 158 kts | 27° |
| 2026-05-07 08:27 | -2.85778 | -31.93622 | 6941 ft | 158 kts | 26° |
| 2026-05-07 08:27 | -2.84771 | -31.93181 | 6941 ft | 157 kts | 26° |
| 2026-05-07 08:27 | -2.83765 | -31.92743 | 6940 ft | 158 kts | 26° |
| 2026-05-07 08:27 | -2.82773 | -31.92309 | 6940 ft | 158 kts | 26° |
| 2026-05-07 08:28 | -2.81772 | -31.91860 | 6938 ft | 157 kts | 26° |
| 2026-05-07 08:28 | -2.80773 | -31.91406 | 6938 ft | 158 kts | 27° |
| 2026-05-07 08:28 | -2.79772 | -31.90959 | 6938 ft | 158 kts | 26° |
| 2026-05-07 08:28 | -2.78770 | -31.90509 | 6938 ft | 158 kts | 27° |
| 2026-05-07 08:29 | -2.77767 | -31.90059 | 6941 ft | 158 kts | 26° |
| 2026-05-07 08:29 | -2.76757 | -31.89615 | 6941 ft | 158 kts | 26° |
| 2026-05-07 08:29 | -2.75750 | -31.89171 | 6941 ft | 158 kts | 26° |
| 2026-05-07 08:29 | -2.74745 | -31.88718 | 6941 ft | 159 kts | 26° |
| 2026-05-07 08:30 | -2.73738 | -31.88266 | 6942 ft | 159 kts | 26° |
| 2026-05-07 08:30 | -2.72730 | -31.87818 | 6943 ft | 158 kts | 27° |
| 2026-05-07 08:30 | -2.71724 | -31.87371 | 6943 ft | 158 kts | 26° |
| 2026-05-07 08:30 | -2.70720 | -31.86920 | 6943 ft | 158 kts | 26° |
| 2026-05-07 08:31 | -2.69718 | -31.86473 | 6940 ft | 158 kts | 26° |
| 2026-05-07 08:31 | -2.68713 | -31.86029 | 6940 ft | 158 kts | 26° |
| 2026-05-07 08:31 | -2.67707 | -31.85589 | 6940 ft | 158 kts | 26° |
| 2026-05-07 08:31 | -2.66707 | -31.85141 | 6941 ft | 158 kts | 27° |
| 2026-05-07 08:32 | -2.65709 | -31.84689 | 6941 ft | 158 kts | 27° |
| 2026-05-07 08:32 | -2.64710 | -31.84236 | 6940 ft | 157 kts | 26° |
| 2026-05-07 08:32 | -2.63709 | -31.83790 | 6940 ft | 157 kts | 26° |
| 2026-05-07 08:32 | -2.62708 | -31.83347 | 6941 ft | 157 kts | 26° |
| 2026-05-07 08:33 | -2.61704 | -31.82901 | 6941 ft | 158 kts | 26° |
| 2026-05-07 08:33 | -2.60702 | -31.82452 | 6940 ft | 158 kts | 26° |
| 2026-05-07 08:33 | -2.59713 | -31.82007 | 6940 ft | 158 kts | 26° |
| 2026-05-07 08:33 | -2.58707 | -31.81564 | 6943 ft | 158 kts | 26° |
| 2026-05-07 08:34 | -2.57705 | -31.81112 | 6944 ft | 158 kts | 26° |
| 2026-05-07 08:34 | -2.56698 | -31.80661 | 6943 ft | 158 kts | 26° |
| 2026-05-07 08:34 | -2.55690 | -31.80213 | 6943 ft | 158 kts | 26° |
| 2026-05-07 08:34 | -2.54683 | -31.79767 | 6943 ft | 158 kts | 26° |
| 2026-05-07 08:35 | -2.53683 | -31.79321 | 6943 ft | 157 kts | 26° |
| 2026-05-07 08:35 | -2.52684 | -31.78875 | 6943 ft | 157 kts | 26° |
| 2026-05-07 08:35 | -2.51681 | -31.78428 | 6943 ft | 158 kts | 26° |
| 2026-05-07 08:35 | -2.50676 | -31.77982 | 6944 ft | 158 kts | 26° |
| 2026-05-07 08:36 | -2.49675 | -31.77535 | 6942 ft | 158 kts | 26° |
| 2026-05-07 08:36 | -2.48670 | -31.77091 | 6943 ft | 158 kts | 26° |
| 2026-05-07 08:36 | -2.47667 | -31.76642 | 6943 ft | 158 kts | 26° |
| 2026-05-07 08:36 | -2.46664 | -31.76194 | 6946 ft | 158 kts | 26° |
| 2026-05-07 08:37 | -2.45658 | -31.75749 | 6943 ft | 158 kts | 26° |
| 2026-05-07 08:37 | -2.44652 | -31.75305 | 6943 ft | 158 kts | 26° |
| 2026-05-07 08:37 | -2.43651 | -31.74855 | 6943 ft | 158 kts | 26° |
| 2026-05-07 08:37 | -2.42651 | -31.74403 | 6943 ft | 158 kts | 26° |
| 2026-05-07 08:38 | -2.41650 | -31.73955 | 6946 ft | 157 kts | 26° |
| 2026-05-07 08:38 | -2.40650 | -31.73511 | 6946 ft | 157 kts | 26° |
| 2026-05-07 08:38 | -2.39648 | -31.73065 | 6946 ft | 157 kts | 26° |
| 2026-05-07 08:38 | -2.38661 | -31.72625 | 6946 ft | 157 kts | 26° |
| 2026-05-07 08:39 | -2.37664 | -31.72182 | 6945 ft | 157 kts | 26° |
| 2026-05-07 08:39 | -2.36663 | -31.71736 | 6946 ft | 157 kts | 26° |
| 2026-05-07 08:39 | -2.35662 | -31.71290 | 6946 ft | 158 kts | 26° |
| 2026-05-07 08:39 | -2.34658 | -31.70841 | 6947 ft | 158 kts | 26° |
| 2026-05-07 08:40 | -2.33651 | -31.70394 | 6948 ft | 158 kts | 26° |
| 2026-05-07 08:40 | -2.32644 | -31.69947 | 6946 ft | 158 kts | 26° |
| 2026-05-07 08:40 | -2.31640 | -31.69499 | 6946 ft | 158 kts | 26° |
| 2026-05-07 08:40 | -2.30637 | -31.69048 | 6946 ft | 158 kts | 26° |
| 2026-05-07 08:41 | -2.29629 | -31.68599 | 6945 ft | 158 kts | 26° |
| 2026-05-07 08:41 | -2.28622 | -31.68151 | 6946 ft | 158 kts | 26° |
| 2026-05-07 08:41 | -2.27620 | -31.67704 | 6946 ft | 158 kts | 26° |
| 2026-05-07 08:41 | -2.26616 | -31.67255 | 6945 ft | 158 kts | 26° |
| 2026-05-07 08:42 | -2.25615 | -31.66807 | 6945 ft | 158 kts | 26° |
| 2026-05-07 08:42 | -2.24625 | -31.66368 | 6946 ft | 158 kts | 26° |
| 2026-05-07 08:42 | -2.23621 | -31.65919 | 6946 ft | 158 kts | 26° |
| 2026-05-07 08:42 | -2.22619 | -31.65474 | 6946 ft | 158 kts | 26° |
| 2026-05-07 08:43 | -2.21615 | -31.65030 | 6946 ft | 158 kts | 26° |
| 2026-05-07 08:43 | -2.20614 | -31.64584 | 6946 ft | 158 kts | 26° |
| 2026-05-07 08:43 | -2.19610 | -31.64139 | 6946 ft | 158 kts | 26° |
| 2026-05-07 08:43 | -2.18603 | -31.63692 | 6946 ft | 158 kts | 26° |
| 2026-05-07 08:44 | -2.17597 | -31.63243 | 6945 ft | 158 kts | 26° |
| 2026-05-07 08:44 | -2.16596 | -31.62794 | 6946 ft | 158 kts | 26° |
| 2026-05-07 08:44 | -2.15920 | -31.62491 | 6946 ft | 158 kts | 26° |
| 2026-05-07 08:44 | -2.14595 | -31.61899 | 6946 ft | 158 kts | 26° |
| 2026-05-07 08:45 | -2.13917 | -31.61596 | 6943 ft | 158 kts | 26° |
| 2026-05-07 08:45 | -2.12930 | -31.61156 | 6943 ft | 158 kts | 26° |
| 2026-05-07 08:45 | -2.11926 | -31.60708 | 6943 ft | 158 kts | 26° |
| 2026-05-07 08:45 | -2.10923 | -31.60261 | 6943 ft | 158 kts | 26° |
| 2026-05-07 08:46 | -2.09917 | -31.59819 | 6946 ft | 158 kts | 26° |
| 2026-05-07 08:46 | -2.08913 | -31.59373 | 6946 ft | 158 kts | 26° |
| 2026-05-07 08:46 | -2.07911 | -31.58927 | 6949 ft | 158 kts | 26° |
| 2026-05-07 08:46 | -2.06906 | -31.58477 | 6949 ft | 158 kts | 26° |
| 2026-05-07 08:47 | -2.05900 | -31.58029 | 6948 ft | 158 kts | 26° |
| 2026-05-07 08:47 | -2.04891 | -31.57581 | 6949 ft | 158 kts | 26° |
| 2026-05-07 08:47 | -2.03887 | -31.57131 | 6949 ft | 158 kts | 26° |
| 2026-05-07 08:47 | -2.02881 | -31.56680 | 6949 ft | 158 kts | 26° |
| 2026-05-07 08:48 | -2.01876 | -31.56230 | 6949 ft | 158 kts | 26° |
| 2026-05-07 08:48 | -2.00869 | -31.55784 | 6949 ft | 158 kts | 26° |
| 2026-05-07 08:48 | -1.99861 | -31.55339 | 6948 ft | 158 kts | 26° |
| 2026-05-07 08:48 | -1.98859 | -31.54892 | 6948 ft | 158 kts | 26° |
| 2026-05-07 08:49 | -1.97858 | -31.54444 | 6948 ft | 158 kts | 26° |
| 2026-05-07 08:49 | -1.96857 | -31.53996 | 6949 ft | 157 kts | 26° |
| 2026-05-07 08:49 | -1.95858 | -31.53549 | 6949 ft | 158 kts | 26° |
| 2026-05-07 08:49 | -1.94857 | -31.53102 | 6948 ft | 157 kts | 26° |
| 2026-05-07 08:50 | -1.93856 | -31.52657 | 6949 ft | 157 kts | 26° |
| 2026-05-07 08:50 | -1.92856 | -31.52213 | 6947 ft | 158 kts | 26° |
| 2026-05-07 08:50 | -1.91855 | -31.51770 | 6948 ft | 157 kts | 26° |
| 2026-05-07 08:50 | -1.90871 | -31.51334 | 6949 ft | 157 kts | 26° |
| 2026-05-07 08:51 | -1.89869 | -31.50889 | 6949 ft | 157 kts | 26° |
| 2026-05-07 08:51 | -1.88871 | -31.50443 | 6949 ft | 157 kts | 26° |
| 2026-05-07 08:51 | -1.87872 | -31.49995 | 6949 ft | 157 kts | 26° |
| 2026-05-07 08:51 | -1.86873 | -31.49548 | 6949 ft | 157 kts | 26° |
| 2026-05-07 08:52 | -1.85873 | -31.49103 | 6950 ft | 158 kts | 26° |
| 2026-05-07 08:52 | -1.84870 | -31.48656 | 6949 ft | 158 kts | 26° |
| 2026-05-07 08:52 | -1.83871 | -31.48211 | 6948 ft | 157 kts | 26° |
| 2026-05-07 08:52 | -1.82874 | -31.47767 | 6948 ft | 157 kts | 26° |
| 2026-05-07 08:53 | -1.81877 | -31.47322 | 6951 ft | 157 kts | 26° |
| 2026-05-07 08:53 | -1.80878 | -31.46880 | 6951 ft | 157 kts | 26° |
| 2026-05-07 08:53 | -1.79879 | -31.46436 | 6951 ft | 157 kts | 26° |
| 2026-05-07 08:53 | -1.78880 | -31.45991 | 6952 ft | 157 kts | 26° |
| 2026-05-07 08:54 | -1.77883 | -31.45546 | 6949 ft | 157 kts | 26° |
| 2026-05-07 08:54 | -1.76884 | -31.45102 | 6949 ft | 157 kts | 26° |
| 2026-05-07 08:54 | -1.75886 | -31.44657 | 6949 ft | 157 kts | 26° |
| 2026-05-07 08:54 | -1.74885 | -31.44213 | 6949 ft | 157 kts | 26° |
| 2026-05-07 08:55 | -1.73889 | -31.43766 | 6950 ft | 157 kts | 26° |
| 2026-05-07 08:55 | -1.72895 | -31.43321 | 6951 ft | 156 kts | 26° |
| 2026-05-07 08:55 | -1.71901 | -31.42878 | 6951 ft | 156 kts | 26° |
| 2026-05-07 08:55 | -1.70906 | -31.42440 | 6951 ft | 156 kts | 26° |
| 2026-05-07 08:56 | -1.69927 | -31.42004 | 6949 ft | 156 kts | 26° |
| 2026-05-07 08:56 | -1.68934 | -31.41560 | 6949 ft | 156 kts | 26° |
| 2026-05-07 08:56 | -1.67940 | -31.41118 | 6948 ft | 156 kts | 26° |
| 2026-05-07 08:56 | -1.66944 | -31.40675 | 6949 ft | 157 kts | 26° |
| 2026-05-07 08:57 | -1.65950 | -31.40233 | 6952 ft | 156 kts | 26° |
| 2026-05-07 08:57 | -1.64954 | -31.39790 | 6951 ft | 157 kts | 26° |
| 2026-05-07 08:57 | -1.63955 | -31.39345 | 6951 ft | 157 kts | 26° |
| 2026-05-07 08:57 | -1.62959 | -31.38897 | 6951 ft | 157 kts | 26° |
| 2026-05-07 08:58 | -1.61962 | -31.38451 | 6949 ft | 157 kts | 26° |
| 2026-05-07 08:58 | -1.60960 | -31.38007 | 6949 ft | 158 kts | 26° |
| 2026-05-07 08:58 | -1.59960 | -31.37562 | 6949 ft | 157 kts | 26° |
| 2026-05-07 08:58 | -1.58960 | -31.37115 | 6949 ft | 157 kts | 26° |
| 2026-05-07 08:59 | -1.57958 | -31.36671 | 6951 ft | 157 kts | 26° |
| 2026-05-07 08:59 | -1.56956 | -31.36228 | 6952 ft | 158 kts | 26° |
| 2026-05-07 08:59 | -1.55956 | -31.35783 | 6952 ft | 157 kts | 26° |
| 2026-05-07 08:59 | -1.54956 | -31.35337 | 6952 ft | 157 kts | 26° |
| 2026-05-07 09:00 | -1.53959 | -31.34893 | 6952 ft | 156 kts | 26° |
| 2026-05-07 09:00 | -1.52965 | -31.34453 | 6953 ft | 156 kts | 26° |
| 2026-05-07 09:00 | -1.51973 | -31.34010 | 6954 ft | 156 kts | 26° |
| 2026-05-07 09:00 | -1.50981 | -31.33564 | 6954 ft | 156 kts | 26° |
| 2026-05-07 09:01 | -1.49994 | -31.33125 | 6951 ft | 155 kts | 26° |
| 2026-05-07 09:01 | -1.49007 | -31.32689 | 6951 ft | 155 kts | 26° |
| 2026-05-07 09:01 | -1.48024 | -31.32251 | 6949 ft | 155 kts | 26° |
| 2026-05-07 09:01 | -1.47045 | -31.31813 | 6959 ft | 154 kts | 26° |
| 2026-05-07 09:02 | -1.46078 | -31.31383 | 6954 ft | 154 kts | 26° |
| 2026-05-07 09:02 | -1.45099 | -31.30948 | 6951 ft | 154 kts | 26° |
| 2026-05-07 09:02 | -1.44124 | -31.30513 | 6952 ft | 154 kts | 26° |
| 2026-05-07 09:02 | -1.43148 | -31.30077 | 6954 ft | 153 kts | 26° |
| 2026-05-07 09:03 | -1.42173 | -31.29643 | 6956 ft | 153 kts | 26° |
| 2026-05-07 09:03 | -1.41200 | -31.29214 | 6956 ft | 153 kts | 26° |
| 2026-05-07 09:03 | -1.40230 | -31.28779 | 6956 ft | 153 kts | 26° |
| 2026-05-07 09:03 | -1.39259 | -31.28346 | 6956 ft | 153 kts | 26° |
| 2026-05-07 09:04 | -1.38291 | -31.27916 | 6952 ft | 152 kts | 26° |
| 2026-05-07 09:04 | -1.37324 | -31.27482 | 6954 ft | 152 kts | 26° |
| 2026-05-07 09:04 | -1.36356 | -31.27052 | 6954 ft | 152 kts | 26° |
| 2026-05-07 09:04 | -1.35382 | -31.26622 | 6953 ft | 153 kts | 26° |
| 2026-05-07 09:05 | -1.34412 | -31.26191 | 6957 ft | 153 kts | 26° |
| 2026-05-07 09:05 | -1.33440 | -31.25759 | 6957 ft | 153 kts | 26° |
| 2026-05-07 09:05 | -1.32468 | -31.25327 | 6957 ft | 153 kts | 26° |
| 2026-05-07 09:05 | -1.31497 | -31.24895 | 6957 ft | 153 kts | 26° |
| 2026-05-07 09:06 | -1.30528 | -31.24462 | 6958 ft | 153 kts | 26° |
| 2026-05-07 09:06 | -1.29556 | -31.24021 | 6958 ft | 153 kts | 26° |
| 2026-05-07 09:06 | -1.28582 | -31.23588 | 6957 ft | 153 kts | 26° |
| 2026-05-07 09:06 | -1.27610 | -31.23157 | 6956 ft | 153 kts | 26° |
| 2026-05-07 09:07 | -1.26638 | -31.22726 | 6952 ft | 153 kts | 26° |
| 2026-05-07 09:07 | -1.25667 | -31.22297 | 6953 ft | 153 kts | 26° |
| 2026-05-07 09:07 | -1.24694 | -31.21863 | 6954 ft | 153 kts | 26° |
| 2026-05-07 09:07 | -1.23724 | -31.21432 | 6955 ft | 153 kts | 26° |
| 2026-05-07 09:08 | -1.22752 | -31.20999 | 6957 ft | 153 kts | 26° |
| 2026-05-07 09:08 | -1.21794 | -31.20572 | 6957 ft | 153 kts | 26° |
| 2026-05-07 09:08 | -1.20809 | -31.20133 | 6957 ft | 153 kts | 26° |
| 2026-05-07 09:08 | -1.19835 | -31.19698 | 6957 ft | 153 kts | 26° |
| 2026-05-07 09:09 | -1.18874 | -31.19270 | 6958 ft | 153 kts | 25° |
| 2026-05-07 09:09 | -1.17897 | -31.18838 | 6957 ft | 153 kts | 26° |
| 2026-05-07 09:09 | -1.16922 | -31.18404 | 6957 ft | 153 kts | 26° |
| 2026-05-07 09:09 | -1.15947 | -31.17970 | 6957 ft | 154 kts | 26° |
| 2026-05-07 09:10 | -1.14972 | -31.17537 | 6956 ft | 153 kts | 26° |
| 2026-05-07 09:10 | -1.13998 | -31.17104 | 6956 ft | 153 kts | 26° |
| 2026-05-07 09:10 | -1.13025 | -31.16670 | 6957 ft | 153 kts | 26° |
| 2026-05-07 09:10 | -1.12053 | -31.16238 | 6956 ft | 153 kts | 26° |
| 2026-05-07 09:11 | -1.11081 | -31.15806 | 6957 ft | 153 kts | 26° |
| 2026-05-07 09:11 | -1.10108 | -31.15371 | 6957 ft | 153 kts | 26° |
| 2026-05-07 09:11 | -1.09136 | -31.14938 | 6956 ft | 153 kts | 26° |
| 2026-05-07 09:11 | -1.08164 | -31.14507 | 6957 ft | 153 kts | 26° |
| 2026-05-07 09:12 | -1.07191 | -31.14073 | 6957 ft | 153 kts | 26° |
| 2026-05-07 09:12 | -1.06222 | -31.13639 | 6957 ft | 153 kts | 26° |
| 2026-05-07 09:12 | -1.05251 | -31.13207 | 6957 ft | 153 kts | 26° |
| 2026-05-07 09:12 | -1.04279 | -31.12776 | 6957 ft | 153 kts | 26° |
| 2026-05-07 09:13 | -1.03306 | -31.12345 | 6957 ft | 153 kts | 26° |
| 2026-05-07 09:13 | -1.02333 | -31.11912 | 6957 ft | 153 kts | 26° |
| 2026-05-07 09:13 | -1.01360 | -31.11479 | 6957 ft | 153 kts | 26° |
| 2026-05-07 09:13 | -1.00387 | -31.11044 | 6957 ft | 153 kts | 26° |
| 2026-05-07 09:14 | -0.99426 | -31.10618 | 6956 ft | 153 kts | 26° |
| 2026-05-07 09:14 | -0.98452 | -31.10183 | 6956 ft | 153 kts | 26° |
| 2026-05-07 09:14 | -0.97479 | -31.09748 | 6956 ft | 153 kts | 26° |
| 2026-05-07 09:14 | -0.96508 | -31.09313 | 6956 ft | 153 kts | 25° |
| 2026-05-07 09:15 | -0.95520 | -31.08875 | 6959 ft | 154 kts | 25° |
| 2026-05-07 09:15 | -0.94558 | -31.08444 | 6959 ft | 154 kts | 25° |
| 2026-05-07 09:15 | -0.93582 | -31.08010 | 6960 ft | 153 kts | 25° |
| 2026-05-07 09:15 | -0.92607 | -31.07576 | 6960 ft | 153 kts | 25° |
| 2026-05-07 09:16 | -0.91631 | -31.07145 | 6958 ft | 153 kts | 25° |
| 2026-05-07 09:16 | -0.90656 | -31.06711 | 6957 ft | 153 kts | 25° |
| 2026-05-07 09:16 | -0.89681 | -31.06280 | 6956 ft | 153 kts | 25° |
| 2026-05-07 09:16 | -0.88706 | -31.05852 | 6957 ft | 153 kts | 25° |
| 2026-05-07 09:17 | -0.87733 | -31.05417 | 6959 ft | 153 kts | 25° |
| 2026-05-07 09:17 | -0.86762 | -31.04983 | 6959 ft | 153 kts | 25° |
| 2026-05-07 09:17 | -0.85788 | -31.04548 | 6959 ft | 153 kts | 25° |
| 2026-05-07 09:17 | -0.84812 | -31.04115 | 6959 ft | 153 kts | 25° |
| 2026-05-07 09:18 | -0.83839 | -31.03680 | 6959 ft | 153 kts | 25° |
| 2026-05-07 09:18 | -0.82867 | -31.03246 | 6959 ft | 153 kts | 25° |
| 2026-05-07 09:18 | -0.81892 | -31.02812 | 6959 ft | 154 kts | 25° |
| 2026-05-07 09:18 | -0.80915 | -31.02378 | 6960 ft | 153 kts | 25° |
| 2026-05-07 09:19 | -0.79941 | -31.01947 | 6957 ft | 153 kts | 25° |
| 2026-05-07 09:19 | -0.78967 | -31.01514 | 6957 ft | 153 kts | 26° |
| 2026-05-07 09:19 | -0.77995 | -31.01079 | 6956 ft | 153 kts | 25° |
| 2026-05-07 09:19 | -0.77021 | -31.00645 | 6957 ft | 153 kts | 25° |
| 2026-05-07 09:20 | -0.76048 | -31.00211 | 6960 ft | 153 kts | 25° |
| 2026-05-07 09:20 | -0.75076 | -30.99773 | 6959 ft | 153 kts | 25° |
| 2026-05-07 09:20 | -0.74103 | -30.99341 | 6959 ft | 153 kts | 25° |
| 2026-05-07 09:20 | -0.73126 | -30.98913 | 6960 ft | 154 kts | 25° |
| 2026-05-07 09:21 | -0.72149 | -30.98483 | 6960 ft | 153 kts | 25° |
| 2026-05-07 09:21 | -0.71177 | -30.98048 | 6959 ft | 153 kts | 25° |
| 2026-05-07 09:21 | -0.70203 | -30.97614 | 6960 ft | 153 kts | 25° |
| 2026-05-07 09:21 | -0.69229 | -30.97184 | 6961 ft | 153 kts | 25° |
| 2026-05-07 09:22 | -0.68254 | -30.96747 | 6961 ft | 153 kts | 25° |
| 2026-05-07 09:22 | -0.67282 | -30.96318 | 6959 ft | 152 kts | 26° |
| 2026-05-07 09:22 | -0.66321 | -30.95887 | 6961 ft | 152 kts | 26° |
| 2026-05-07 09:22 | -0.65369 | -30.95458 | 6959 ft | 152 kts | 25° |
| 2026-05-07 09:23 | -0.64403 | -30.95029 | 6960 ft | 152 kts | 25° |
| 2026-05-07 09:23 | -0.63440 | -30.94599 | 6961 ft | 152 kts | 25° |
| 2026-05-07 09:23 | -0.62477 | -30.94174 | 6962 ft | 151 kts | 25° |
| 2026-05-07 09:23 | -0.61517 | -30.93745 | 6962 ft | 152 kts | 26° |
| 2026-05-07 09:24 | -0.60554 | -30.93312 | 6961 ft | 152 kts | 25° |
| 2026-05-07 09:24 | -0.59581 | -30.92886 | 6960 ft | 152 kts | 25° |
| 2026-05-07 09:24 | -0.58614 | -30.92460 | 6961 ft | 152 kts | 25° |
| 2026-05-07 09:24 | -0.57654 | -30.92024 | 6960 ft | 151 kts | 25° |
| 2026-05-07 09:25 | -0.56688 | -30.91597 | 6962 ft | 152 kts | 25° |
| 2026-05-07 09:25 | -0.55719 | -30.91174 | 6962 ft | 152 kts | 25° |
| 2026-05-07 09:25 | -0.54756 | -30.90738 | 6962 ft | 152 kts | 26° |
| 2026-05-07 09:25 | -0.53792 | -30.90312 | 6962 ft | 151 kts | 25° |
| 2026-05-07 09:26 | -0.52828 | -30.89881 | 6961 ft | 152 kts | 25° |
| 2026-05-07 09:26 | -0.51862 | -30.89455 | 6966 ft | 152 kts | 25° |
| 2026-05-07 09:26 | -0.50898 | -30.89017 | 6965 ft | 152 kts | 25° |
| 2026-05-07 09:26 | -0.49933 | -30.88588 | 6965 ft | 151 kts | 25° |
| 2026-05-07 09:27 | -0.48969 | -30.88164 | 6965 ft | 152 kts | 25° |
| 2026-05-07 09:27 | -0.48019 | -30.87738 | 6964 ft | 152 kts | 26° |
| 2026-05-07 09:27 | -0.46084 | -30.86875 | 6965 ft | 152 kts | 25° |
| 2026-05-07 09:28 | -0.45119 | -30.86452 | 6968 ft | 151 kts | 25° |
| 2026-05-07 09:28 | -0.44159 | -30.86024 | 6968 ft | 151 kts | 26° |
| 2026-05-07 09:28 | -0.43200 | -30.85585 | 6968 ft | 152 kts | 25° |
| 2026-05-07 09:28 | -0.42233 | -30.85155 | 6968 ft | 151 kts | 25° |
| 2026-05-07 09:29 | -0.41268 | -30.84732 | 6963 ft | 151 kts | 24° |
| 2026-05-07 09:29 | -0.40304 | -30.84314 | 6964 ft | 152 kts | 25° |
| 2026-05-07 09:29 | -0.39340 | -30.83885 | 6964 ft | 152 kts | 25° |
| 2026-05-07 09:29 | -0.38374 | -30.83449 | 6965 ft | 152 kts | 25° |
| 2026-05-07 09:30 | -0.37406 | -30.83024 | 6968 ft | 152 kts | 25° |
| 2026-05-07 09:30 | -0.36444 | -30.82597 | 6968 ft | 151 kts | 25° |
| 2026-05-07 09:30 | -0.35806 | -30.82313 | 6968 ft | 152 kts | 25° |
| 2026-05-07 09:30 | -0.34521 | -30.81733 | 6967 ft | 152 kts | 25° |
| 2026-05-07 09:31 | -0.33558 | -30.81307 | 6967 ft | 151 kts | 25° |
| 2026-05-07 09:31 | -0.32922 | -30.81019 | 6967 ft | 151 kts | 25° |
| 2026-05-07 09:31 | -0.31963 | -30.80591 | 6968 ft | 151 kts | 25° |
| 2026-05-07 09:31 | -0.30687 | -30.80021 | 6968 ft | 152 kts | 26° |
| 2026-05-07 09:32 | -0.29716 | -30.79589 | 6965 ft | 152 kts | 25° |
| 2026-05-07 09:32 | -0.28746 | -30.79166 | 6966 ft | 152 kts | 25° |
| 2026-05-07 09:32 | -0.28093 | -30.78881 | 6965 ft | 152 kts | 25° |
| 2026-05-07 09:32 | -0.27129 | -30.78453 | 6965 ft | 152 kts | 26° |
| 2026-05-07 09:33 | -0.26177 | -30.78025 | 6969 ft | 152 kts | 25° |
| 2026-05-07 09:33 | -0.25196 | -30.77586 | 6968 ft | 152 kts | 25° |
| 2026-05-07 09:33 | -0.24243 | -30.77163 | 6968 ft | 152 kts | 25° |
| 2026-05-07 09:33 | -0.23283 | -30.76735 | 6968 ft | 152 kts | 25° |
| 2026-05-07 09:34 | -0.22316 | -30.76311 | 6968 ft | 151 kts | 25° |
| 2026-05-07 09:34 | -0.21349 | -30.75882 | 6967 ft | 152 kts | 25° |
| 2026-05-07 09:34 | -0.20385 | -30.75450 | 6967 ft | 152 kts | 25° |
| 2026-05-07 09:34 | -0.19421 | -30.75025 | 6967 ft | 151 kts | 25° |
| 2026-05-07 09:35 | -0.18461 | -30.74594 | 6965 ft | 152 kts | 25° |
| 2026-05-07 09:35 | -0.17497 | -30.74163 | 6967 ft | 152 kts | 25° |
| 2026-05-07 09:35 | -0.16529 | -30.73729 | 6968 ft | 152 kts | 25° |
| 2026-05-07 09:35 | -0.15565 | -30.73297 | 6968 ft | 151 kts | 25° |
| 2026-05-07 09:36 | -0.14601 | -30.72873 | 6968 ft | 151 kts | 25° |
| 2026-05-07 09:36 | -0.13640 | -30.72438 | 6968 ft | 152 kts | 26° |
| 2026-05-07 09:36 | -0.12677 | -30.72004 | 6967 ft | 152 kts | 25° |
| 2026-05-07 09:36 | -0.11714 | -30.71577 | 6967 ft | 151 kts | 25° |
| 2026-05-07 09:37 | -0.10750 | -30.71163 | 6969 ft | 150 kts | 25° |
| 2026-05-07 09:37 | -0.09787 | -30.70735 | 6969 ft | 152 kts | 25° |
| 2026-05-07 09:37 | -0.08825 | -30.70300 | 6968 ft | 152 kts | 25° |
| 2026-05-07 09:37 | -0.07858 | -30.69870 | 6968 ft | 152 kts | 25° |
| 2026-05-07 09:38 | -0.06894 | -30.69439 | 6970 ft | 152 kts | 25° |
| 2026-05-07 09:38 | -0.05933 | -30.69012 | 6969 ft | 151 kts | 25° |
| 2026-05-07 09:38 | -0.04971 | -30.68584 | 6970 ft | 152 kts | 25° |
| 2026-05-07 09:38 | -0.04017 | -30.68154 | 6971 ft | 152 kts | 25° |
| 2026-05-07 09:39 | -0.03054 | -30.67733 | 6967 ft | 151 kts | 25° |
| 2026-05-07 09:39 | -0.02098 | -30.67315 | 6967 ft | 150 kts | 25° |
| 2026-05-07 09:39 | -0.01141 | -30.66887 | 6970 ft | 150 kts | 25° |
| 2026-05-07 09:39 | -0.00184 | -30.66455 | 6967 ft | 151 kts | 25° |
| 2026-05-07 09:40 | 0.00773 | -30.66024 | 6967 ft | 150 kts | 24° |
| 2026-05-07 09:40 | 0.01731 | -30.65606 | 6967 ft | 149 kts | 25° |
| 2026-05-07 09:40 | 0.02682 | -30.65189 | 6966 ft | 150 kts | 25° |
| 2026-05-07 09:40 | 0.03636 | -30.64768 | 6967 ft | 150 kts | 24° |
| 2026-05-07 09:41 | 0.04589 | -30.64343 | 6971 ft | 150 kts | 25° |
| 2026-05-07 09:41 | 0.05538 | -30.63914 | 6971 ft | 150 kts | 25° |
| 2026-05-07 09:41 | 0.06484 | -30.63486 | 6971 ft | 148 kts | 25° |
| 2026-05-07 09:41 | 0.07436 | -30.63063 | 6971 ft | 150 kts | 25° |
| 2026-05-07 09:42 | 0.08394 | -30.62642 | 6974 ft | 151 kts | 25° |
| 2026-05-07 09:42 | 0.09348 | -30.62214 | 6974 ft | 150 kts | 25° |
| 2026-05-07 09:42 | 0.10302 | -30.61784 | 6972 ft | 150 kts | 25° |
| 2026-05-07 09:42 | 0.11257 | -30.61361 | 6972 ft | 151 kts | 25° |
| 2026-05-07 09:43 | 0.12216 | -30.60934 | 6972 ft | 151 kts | 25° |
| 2026-05-07 09:43 | 0.13179 | -30.60509 | 6971 ft | 151 kts | 24° |
| 2026-05-07 09:43 | 0.14144 | -30.60093 | 6970 ft | 151 kts | 24° |
| 2026-05-07 09:43 | 0.15100 | -30.59671 | 6970 ft | 150 kts | 25° |
| 2026-05-07 09:44 | 0.16044 | -30.59246 | 6969 ft | 150 kts | 25° |
| 2026-05-07 09:44 | 0.16998 | -30.58814 | 6970 ft | 151 kts | 25° |
| 2026-05-07 09:44 | 0.17955 | -30.58386 | 6967 ft | 151 kts | 25° |
| 2026-05-07 09:44 | 0.18912 | -30.57966 | 6967 ft | 149 kts | 25° |
| 2026-05-07 09:45 | 0.19858 | -30.57541 | 6966 ft | 150 kts | 25° |
| 2026-05-07 09:45 | 0.20806 | -30.57116 | 6969 ft | 150 kts | 25° |
| 2026-05-07 09:45 | 0.21760 | -30.56684 | 6970 ft | 150 kts | 25° |
| 2026-05-07 09:45 | 0.22713 | -30.56259 | 6971 ft | 150 kts | 25° |
| 2026-05-07 09:46 | 0.23670 | -30.55840 | 6974 ft | 150 kts | 24° |
| 2026-05-07 09:46 | 0.24626 | -30.55418 | 6973 ft | 150 kts | 25° |
| 2026-05-07 09:46 | 0.25588 | -30.54992 | 6973 ft | 152 kts | 25° |
| 2026-05-07 09:46 | 0.26550 | -30.54565 | 6974 ft | 151 kts | 25° |
| 2026-05-07 09:47 | 0.27506 | -30.54140 | 6977 ft | 150 kts | 25° |
| 2026-05-07 09:47 | 0.28461 | -30.53712 | 6976 ft | 151 kts | 25° |
| 2026-05-07 09:47 | 0.29422 | -30.53291 | 6977 ft | 151 kts | 24° |
| 2026-05-07 09:47 | 0.30383 | -30.52866 | 6974 ft | 150 kts | 25° |
| 2026-05-07 09:48 | 0.31337 | -30.52441 | 6972 ft | 150 kts | 25° |
| 2026-05-07 09:48 | 0.32281 | -30.52017 | 6973 ft | 149 kts | 25° |
| 2026-05-07 09:48 | 0.33228 | -30.51588 | 6973 ft | 149 kts | 25° |
| 2026-05-07 09:48 | 0.34181 | -30.51159 | 6974 ft | 151 kts | 25° |
| 2026-05-07 09:49 | 0.35137 | -30.50733 | 6973 ft | 150 kts | 25° |
| 2026-05-07 09:49 | 0.36091 | -30.50310 | 6975 ft | 150 kts | 24° |
| 2026-05-07 09:49 | 0.37033 | -30.49893 | 6976 ft | 151 kts | 24° |
| 2026-05-07 09:49 | 0.37995 | -30.49476 | 6974 ft | 151 kts | 24° |
| 2026-05-07 09:50 | 0.38959 | -30.49049 | 6971 ft | 151 kts | 25° |
| 2026-05-07 09:50 | 0.39919 | -30.48616 | 6976 ft | 151 kts | 25° |
| 2026-05-07 09:50 | 0.40873 | -30.48187 | 6976 ft | 151 kts | 24° |
| 2026-05-07 09:50 | 0.41833 | -30.47762 | 6975 ft | 151 kts | 24° |
| 2026-05-07 09:51 | 0.42792 | -30.47334 | 6973 ft | 151 kts | 25° |
| 2026-05-07 09:51 | 0.43751 | -30.46907 | 6973 ft | 151 kts | 25° |
| 2026-05-07 09:51 | 0.44706 | -30.46484 | 6976 ft | 149 kts | 24° |
| 2026-05-07 09:51 | 0.45661 | -30.46062 | 6973 ft | 150 kts | 24° |
| 2026-05-07 09:52 | 0.46615 | -30.45639 | 6981 ft | 151 kts | 24° |
| 2026-05-07 09:52 | 0.47573 | -30.45211 | 6981 ft | 150 kts | 25° |
| 2026-05-07 09:52 | 0.48527 | -30.44787 | 6980 ft | 150 kts | 24° |
| 2026-05-07 09:52 | 0.49482 | -30.44371 | 6980 ft | 150 kts | 25° |
| 2026-05-07 09:53 | 0.50436 | -30.43944 | 6977 ft | 150 kts | 25° |
| 2026-05-07 09:53 | 0.51392 | -30.43510 | 6977 ft | 151 kts | 25° |
| 2026-05-07 09:53 | 0.52350 | -30.43082 | 6976 ft | 151 kts | 24° |
| 2026-05-07 09:53 | 0.53306 | -30.42658 | 6976 ft | 150 kts | 25° |
| 2026-05-07 09:54 | 0.54262 | -30.42232 | 6975 ft | 151 kts | 25° |
| 2026-05-07 09:54 | 0.55218 | -30.41796 | 6976 ft | 151 kts | 25° |
| 2026-05-07 09:54 | 0.56181 | -30.41371 | 6975 ft | 151 kts | 24° |
| 2026-05-07 09:54 | 0.57143 | -30.40947 | 6975 ft | 151 kts | 24° |
| 2026-05-07 09:55 | 0.58101 | -30.40529 | 6978 ft | 150 kts | 24° |
| 2026-05-07 09:55 | 0.59058 | -30.40102 | 6979 ft | 151 kts | 25° |
| 2026-05-07 09:55 | 0.60016 | -30.39670 | 6977 ft | 151 kts | 24° |
| 2026-05-07 09:55 | 0.60965 | -30.39253 | 6978 ft | 151 kts | 24° |
| 2026-05-07 09:56 | 0.61919 | -30.38827 | 6979 ft | 150 kts | 24° |
| 2026-05-07 09:56 | 0.62871 | -30.38402 | 6978 ft | 150 kts | 24° |
| 2026-05-07 09:56 | 0.63824 | -30.37983 | 6978 ft | 151 kts | 25° |
| 2026-05-07 09:56 | 0.64782 | -30.37558 | 6978 ft | 150 kts | 25° |
| 2026-05-07 09:57 | 0.65736 | -30.37138 | 6974 ft | 149 kts | 25° |
| 2026-05-07 09:57 | 0.66680 | -30.36708 | 6975 ft | 150 kts | 25° |
| 2026-05-07 09:57 | 0.67632 | -30.36284 | 6977 ft | 150 kts | 24° |
| 2026-05-07 09:57 | 0.68590 | -30.35860 | 6974 ft | 151 kts | 24° |
| 2026-05-07 09:58 | 0.69542 | -30.35433 | 6976 ft | 150 kts | 24° |
| 2026-05-07 09:58 | 0.70492 | -30.35012 | 6978 ft | 149 kts | 25° |
| 2026-05-07 09:58 | 0.71442 | -30.34586 | 6981 ft | 150 kts | 24° |
| 2026-05-07 09:58 | 0.72396 | -30.34158 | 6980 ft | 151 kts | 25° |
| 2026-05-07 09:59 | 0.73351 | -30.33731 | 6977 ft | 149 kts | 25° |
| 2026-05-07 09:59 | 0.74304 | -30.33316 | 6980 ft | 149 kts | 24° |
| 2026-05-07 09:59 | 0.75251 | -30.32898 | 6977 ft | 149 kts | 25° |
| 2026-05-07 09:59 | 0.76198 | -30.32474 | 6978 ft | 149 kts | 25° |
| 2026-05-07 10:00 | 0.77152 | -30.32045 | 6981 ft | 150 kts | 24° |
| 2026-05-07 10:00 | 0.78103 | -30.31623 | 6981 ft | 150 kts | 24° |
| 2026-05-07 10:00 | 0.79050 | -30.31201 | 6981 ft | 149 kts | 24° |
| 2026-05-07 10:00 | 0.79901 | -30.30820 | 6983 ft | 149 kts | 24° |
| 2026-05-07 10:01 | 0.80851 | -30.30400 | 6984 ft | 150 kts | 24° |
| 2026-05-07 10:01 | 0.81811 | -30.29977 | 6982 ft | 150 kts | 24° |
| 2026-05-07 10:01 | 0.82769 | -30.29554 | 6983 ft | 150 kts | 25° |
| 2026-05-07 10:01 | 0.83720 | -30.29130 | 6982 ft | 150 kts | 25° |
| 2026-05-07 10:02 | 0.84676 | -30.28703 | 6981 ft | 151 kts | 24° |
| 2026-05-07 10:02 | 0.85632 | -30.28272 | 6982 ft | 151 kts | 25° |
| 2026-05-07 10:02 | 0.86573 | -30.27849 | 6980 ft | 150 kts | 25° |
| 2026-05-07 10:02 | 0.87523 | -30.27421 | 6981 ft | 149 kts | 24° |
| 2026-05-07 10:03 | 0.88474 | -30.27003 | 6980 ft | 149 kts | 24° |
| 2026-05-07 10:03 | 0.89425 | -30.26576 | 6981 ft | 151 kts | 24° |
| 2026-05-07 10:03 | 0.90381 | -30.26158 | 6981 ft | 149 kts | 24° |
| 2026-05-07 10:03 | 0.91330 | -30.25736 | 6981 ft | 149 kts | 24° |
| 2026-05-07 10:04 | 0.92281 | -30.25320 | 6986 ft | 150 kts | 24° |
| 2026-05-07 10:04 | 0.93235 | -30.24897 | 6986 ft | 150 kts | 25° |
| 2026-05-07 10:04 | 0.94190 | -30.24468 | 6985 ft | 150 kts | 25° |
| 2026-05-07 10:04 | 0.95146 | -30.24045 | 6984 ft | 150 kts | 24° |
| 2026-05-07 10:05 | 0.96097 | -30.23626 | 6983 ft | 149 kts | 24° |
| 2026-05-07 10:05 | 0.97051 | -30.23201 | 6982 ft | 150 kts | 24° |
| 2026-05-07 10:05 | 0.98005 | -30.22771 | 6980 ft | 151 kts | 25° |
| 2026-05-07 10:05 | 0.98964 | -30.22341 | 6984 ft | 150 kts | 24° |
| 2026-05-07 10:06 | 0.99921 | -30.21915 | 6980 ft | 150 kts | 24° |
| 2026-05-07 10:06 | 1.00860 | -30.21500 | 6980 ft | 150 kts | 24° |
| 2026-05-07 10:06 | 1.01810 | -30.21074 | 6982 ft | 150 kts | 24° |
| 2026-05-07 10:06 | 1.02769 | -30.20645 | 6980 ft | 151 kts | 24° |
| 2026-05-07 10:07 | 1.03731 | -30.20229 | 6984 ft | 151 kts | 24° |
| 2026-05-07 10:07 | 1.04687 | -30.19812 | 6981 ft | 150 kts | 25° |
| 2026-05-07 10:07 | 1.05633 | -30.19376 | 6983 ft | 149 kts | 25° |
| 2026-05-07 10:07 | 1.06588 | -30.18949 | 6981 ft | 151 kts | 24° |
| 2026-05-07 10:08 | 1.07543 | -30.18521 | 6984 ft | 151 kts | 24° |
| 2026-05-07 10:08 | 1.08500 | -30.18100 | 6984 ft | 149 kts | 25° |
| 2026-05-07 10:08 | 1.09452 | -30.17672 | 6985 ft | 151 kts | 25° |
| 2026-05-07 10:08 | 1.10407 | -30.17240 | 6986 ft | 151 kts | 24° |
| 2026-05-07 10:09 | 1.11365 | -30.16812 | 6982 ft | 150 kts | 24° |
| 2026-05-07 10:09 | 1.12326 | -30.16392 | 6983 ft | 150 kts | 24° |
| 2026-05-07 10:09 | 1.13280 | -30.15968 | 6982 ft | 150 kts | 24° |
| 2026-05-07 10:09 | 1.14236 | -30.15541 | 6981 ft | 151 kts | 24° |
| 2026-05-07 10:10 | 1.15197 | -30.15109 | 6982 ft | 152 kts | 25° |
| 2026-05-07 10:10 | 1.16155 | -30.14680 | 6983 ft | 151 kts | 24° |
| 2026-05-07 10:10 | 1.17108 | -30.14256 | 6983 ft | 150 kts | 24° |
| 2026-05-07 10:10 | 1.18062 | -30.13832 | 6981 ft | 150 kts | 24° |
| 2026-05-07 10:11 | 1.19022 | -30.13419 | 6982 ft | 151 kts | 24° |
| 2026-05-07 10:11 | 1.19986 | -30.12998 | 6983 ft | 151 kts | 24° |
| 2026-05-07 10:11 | 1.20928 | -30.12576 | 6982 ft | 150 kts | 25° |
| 2026-05-07 10:11 | 1.21886 | -30.12138 | 6982 ft | 150 kts | 25° |
| 2026-05-07 10:12 | 1.22839 | -30.11708 | 6981 ft | 150 kts | 25° |
| 2026-05-07 10:12 | 1.23787 | -30.11284 | 6982 ft | 151 kts | 24° |
| 2026-05-07 10:12 | 1.24761 | -30.10858 | 6981 ft | 151 kts | 24° |
| 2026-05-07 10:12 | 1.25720 | -30.10440 | 6980 ft | 149 kts | 24° |
| 2026-05-07 10:13 | 1.26659 | -30.10021 | 6981 ft | 151 kts | 25° |
| 2026-05-07 10:13 | 1.27612 | -30.09584 | 6982 ft | 151 kts | 25° |
| 2026-05-07 10:13 | 1.28571 | -30.09153 | 6982 ft | 151 kts | 24° |
| 2026-05-07 10:13 | 1.29534 | -30.08738 | 6982 ft | 149 kts | 24° |
| 2026-05-07 10:14 | 1.30484 | -30.08317 | 6983 ft | 150 kts | 25° |
| 2026-05-07 10:14 | 1.31435 | -30.07887 | 6979 ft | 150 kts | 24° |
| 2026-05-07 10:14 | 1.32391 | -30.07465 | 6980 ft | 151 kts | 24° |
| 2026-05-07 10:14 | 1.33343 | -30.07034 | 6981 ft | 150 kts | 25° |
| 2026-05-07 10:15 | 1.34295 | -30.06602 | 6983 ft | 150 kts | 25° |
| 2026-05-07 10:15 | 1.35252 | -30.06171 | 6983 ft | 151 kts | 24° |
| 2026-05-07 10:15 | 1.36219 | -30.05761 | 6981 ft | 152 kts | 24° |
| 2026-05-07 10:15 | 1.37184 | -30.05340 | 6980 ft | 150 kts | 24° |
| 2026-05-07 10:16 | 1.38142 | -30.04914 | 6985 ft | 151 kts | 24° |
| 2026-05-07 10:16 | 1.39098 | -30.04487 | 6983 ft | 151 kts | 25° |
| 2026-05-07 10:16 | 1.40058 | -30.04057 | 6984 ft | 151 kts | 25° |
| 2026-05-07 10:16 | 1.41021 | -30.03626 | 6984 ft | 152 kts | 25° |
| 2026-05-07 10:17 | 1.41969 | -30.03201 | 6982 ft | 151 kts | 24° |
| 2026-05-07 10:17 | 1.42938 | -30.02776 | 6984 ft | 150 kts | 25° |
| 2026-05-07 10:17 | 1.43890 | -30.02344 | 6985 ft | 150 kts | 25° |
| 2026-05-07 10:17 | 1.44832 | -30.01918 | 6983 ft | 151 kts | 25° |
| 2026-05-07 10:18 | 1.45789 | -30.01486 | 6981 ft | 151 kts | 25° |
| 2026-05-07 10:18 | 1.46743 | -30.01056 | 6981 ft | 149 kts | 24° |
| 2026-05-07 10:18 | 1.47697 | -30.00640 | 6982 ft | 150 kts | 24° |
| 2026-05-07 10:18 | 1.48654 | -30.00220 | 6982 ft | 150 kts | 24° |
| 2026-05-07 10:19 | 1.49612 | -29.99801 | 6981 ft | 151 kts | 25° |
| 2026-05-07 10:19 | 1.50567 | -29.99374 | 6983 ft | 150 kts | 24° |
| 2026-05-07 10:19 | 1.51523 | -29.98953 | 6982 ft | 150 kts | 25° |
| 2026-05-07 10:19 | 1.52477 | -29.98519 | 6984 ft | 151 kts | 25° |
| 2026-05-07 10:20 | 1.53112 | -29.98237 | 6982 ft | 151 kts | 24° |
| 2026-05-07 10:20 | 1.54394 | -29.97667 | 6980 ft | 151 kts | 24° |
| 2026-05-07 10:20 | 1.55028 | -29.97388 | 6981 ft | 150 kts | 24° |
| 2026-05-07 10:20 | 1.55981 | -29.96965 | 6980 ft | 150 kts | 24° |
| 2026-05-07 10:21 | 1.56939 | -29.96539 | 6984 ft | 151 kts | 25° |
| 2026-05-07 10:21 | 1.57895 | -29.96111 | 6986 ft | 151 kts | 25° |
| 2026-05-07 10:21 | 1.58848 | -29.95679 | 6985 ft | 150 kts | 25° |
| 2026-05-07 10:21 | 1.59797 | -29.95256 | 6985 ft | 149 kts | 24° |
| 2026-05-07 10:22 | 1.60751 | -29.94834 | 6981 ft | 150 kts | 24° |
| 2026-05-07 10:22 | 1.61707 | -29.94406 | 6980 ft | 151 kts | 24° |
| 2026-05-07 10:22 | 1.62665 | -29.93980 | 6980 ft | 150 kts | 24° |
| 2026-05-07 10:22 | 1.63621 | -29.93553 | 6979 ft | 150 kts | 24° |
| 2026-05-07 10:23 | 1.64580 | -29.93133 | 6981 ft | 151 kts | 25° |
| 2026-05-07 10:23 | 1.65537 | -29.92706 | 6982 ft | 151 kts | 24° |
| 2026-05-07 10:23 | 1.66500 | -29.92276 | 6981 ft | 152 kts | 24° |
| 2026-05-07 10:23 | 1.67463 | -29.91847 | 6981 ft | 152 kts | 25° |
| 2026-05-07 10:24 | 1.68422 | -29.91414 | 6981 ft | 151 kts | 25° |
| 2026-05-07 10:24 | 1.69381 | -29.90990 | 6982 ft | 151 kts | 24° |
| 2026-05-07 10:24 | 1.70342 | -29.90561 | 6980 ft | 151 kts | 25° |
| 2026-05-07 10:24 | 1.71302 | -29.90134 | 6980 ft | 151 kts | 24° |
| 2026-05-07 10:25 | 1.72258 | -29.89703 | 6983 ft | 150 kts | 24° |
| 2026-05-07 10:25 | 1.73217 | -29.89282 | 6985 ft | 151 kts | 24° |
| 2026-05-07 10:25 | 1.74175 | -29.88856 | 6984 ft | 151 kts | 25° |
| 2026-05-07 10:25 | 1.75136 | -29.88426 | 6983 ft | 151 kts | 24° |
| 2026-05-07 10:26 | 1.76095 | -29.88000 | 6982 ft | 151 kts | 24° |
| 2026-05-07 10:26 | 1.77051 | -29.87576 | 6981 ft | 150 kts | 24° |
| 2026-05-07 10:26 | 1.78008 | -29.87153 | 6981 ft | 151 kts | 24° |
| 2026-05-07 10:26 | 1.78969 | -29.86727 | 6985 ft | 151 kts | 24° |
| 2026-05-07 10:27 | 1.79929 | -29.86302 | 6981 ft | 151 kts | 24° |
| 2026-05-07 10:27 | 1.80885 | -29.85870 | 6983 ft | 151 kts | 25° |
| 2026-05-07 10:27 | 1.81842 | -29.85443 | 6981 ft | 151 kts | 24° |
| 2026-05-07 10:27 | 1.82800 | -29.85012 | 6983 ft | 151 kts | 25° |
| 2026-05-07 10:28 | 1.83763 | -29.84582 | 6983 ft | 151 kts | 24° |
| 2026-05-07 10:28 | 1.84725 | -29.84154 | 6981 ft | 151 kts | 24° |
| 2026-05-07 10:28 | 1.85682 | -29.83730 | 6982 ft | 151 kts | 24° |
| 2026-05-07 10:28 | 1.86631 | -29.83313 | 6982 ft | 151 kts | 24° |
| 2026-05-07 10:29 | 1.87592 | -29.82890 | 6983 ft | 151 kts | 25° |
| 2026-05-07 10:29 | 1.88549 | -29.82461 | 6985 ft | 151 kts | 25° |
| 2026-05-07 10:29 | 1.89500 | -29.82031 | 6985 ft | 150 kts | 25° |
| 2026-05-07 10:30 | 1.91409 | -29.81179 | 6983 ft | 151 kts | 24° |
| 2026-05-07 10:30 | 1.92369 | -29.80754 | 6984 ft | 150 kts | 24° |
| 2026-05-07 10:30 | 1.93324 | -29.80333 | 6983 ft | 150 kts | 24° |
| 2026-05-07 10:30 | 1.94278 | -29.79909 | 6984 ft | 150 kts | 25° |
| 2026-05-07 10:31 | 1.95236 | -29.79479 | 6983 ft | 151 kts | 25° |
| 2026-05-07 10:31 | 1.96195 | -29.79045 | 6980 ft | 151 kts | 25° |
| 2026-05-07 10:31 | 1.97155 | -29.78617 | 6980 ft | 151 kts | 24° |
| 2026-05-07 10:31 | 1.98111 | -29.78197 | 6981 ft | 150 kts | 24° |
| 2026-05-07 10:32 | 1.99066 | -29.77774 | 6980 ft | 150 kts | 24° |
| 2026-05-07 10:32 | 2.00021 | -29.77347 | 6980 ft | 150 kts | 25° |
| 2026-05-07 10:32 | 2.00972 | -29.76920 | 6980 ft | 150 kts | 25° |
| 2026-05-07 10:32 | 2.01924 | -29.76496 | 6981 ft | 149 kts | 25° |
| 2026-05-07 10:33 | 2.02870 | -29.76074 | 6983 ft | 150 kts | 24° |
| 2026-05-07 10:33 | 2.03818 | -29.75646 | 6985 ft | 150 kts | 25° |
| 2026-05-07 10:33 | 2.04762 | -29.75227 | 6985 ft | 150 kts | 24° |
| 2026-05-07 10:33 | 2.05715 | -29.74801 | 6986 ft | 150 kts | 24° |
| 2026-05-07 10:34 | 2.06671 | -29.74379 | 6985 ft | 150 kts | 24° |
| 2026-05-07 10:34 | 2.07626 | -29.73957 | 6985 ft | 150 kts | 24° |
| 2026-05-07 10:34 | 2.08584 | -29.73532 | 6986 ft | 151 kts | 24° |
| 2026-05-07 10:34 | 2.09543 | -29.73108 | 6983 ft | 150 kts | 25° |
| 2026-05-07 10:35 | 2.10497 | -29.72675 | 6981 ft | 149 kts | 25° |
| 2026-05-07 10:35 | 2.11449 | -29.72255 | 6980 ft | 150 kts | 25° |
| 2026-05-07 10:35 | 2.12401 | -29.71830 | 6984 ft | 150 kts | 25° |
| 2026-05-07 10:35 | 2.13356 | -29.71403 | 6981 ft | 150 kts | 24° |
| 2026-05-07 10:36 | 2.14307 | -29.70981 | 6980 ft | 150 kts | 25° |
| 2026-05-07 10:36 | 2.15254 | -29.70555 | 6980 ft | 149 kts | 25° |
| 2026-05-07 10:36 | 2.16207 | -29.70141 | 6980 ft | 150 kts | 24° |
| 2026-05-07 10:36 | 2.17163 | -29.69716 | 6981 ft | 150 kts | 25° |
| 2026-05-07 10:37 | 2.18114 | -29.69283 | 6981 ft | 150 kts | 25° |
| 2026-05-07 10:37 | 2.19060 | -29.68848 | 6981 ft | 149 kts | 24° |
| 2026-05-07 10:37 | 2.20012 | -29.68428 | 6982 ft | 150 kts | 24° |
| 2026-05-07 10:37 | 2.20968 | -29.68007 | 6980 ft | 151 kts | 24° |
| 2026-05-07 10:38 | 2.21927 | -29.67584 | 6985 ft | 150 kts | 24° |
| 2026-05-07 10:38 | 2.22884 | -29.67164 | 6985 ft | 150 kts | 24° |
| 2026-05-07 10:38 | 2.23835 | -29.66742 | 6982 ft | 149 kts | 25° |
| 2026-05-07 10:38 | 2.24785 | -29.66316 | 6983 ft | 150 kts | 25° |
| 2026-05-07 10:39 | 2.25740 | -29.65889 | 6980 ft | 151 kts | 25° |
| 2026-05-07 10:39 | 2.26693 | -29.65461 | 6981 ft | 151 kts | 25° |
| 2026-05-07 10:39 | 2.27634 | -29.65043 | 6982 ft | 149 kts | 25° |
| 2026-05-07 10:39 | 2.28583 | -29.64617 | 6983 ft | 150 kts | 24° |
| 2026-05-07 10:40 | 2.29539 | -29.64198 | 6980 ft | 151 kts | 24° |
| 2026-05-07 10:40 | 2.30496 | -29.63769 | 6981 ft | 150 kts | 24° |
| 2026-05-07 10:40 | 2.31448 | -29.63340 | 6982 ft | 150 kts | 25° |
| 2026-05-07 10:40 | 2.32396 | -29.62908 | 6982 ft | 150 kts | 25° |
| 2026-05-07 10:41 | 2.33358 | -29.62486 | 6981 ft | 151 kts | 24° |
| 2026-05-07 10:41 | 2.34325 | -29.62060 | 6981 ft | 152 kts | 25° |
| 2026-05-07 10:41 | 2.35286 | -29.61633 | 6982 ft | 151 kts | 25° |
| 2026-05-07 10:41 | 2.36246 | -29.61205 | 6981 ft | 151 kts | 25° |
| 2026-05-07 10:42 | 2.37209 | -29.60778 | 6983 ft | 151 kts | 25° |
| 2026-05-07 10:42 | 2.38171 | -29.60351 | 6986 ft | 152 kts | 25° |
| 2026-05-07 10:42 | 2.39135 | -29.59922 | 6985 ft | 151 kts | 25° |
| 2026-05-07 10:42 | 2.40097 | -29.59492 | 6984 ft | 151 kts | 25° |
| 2026-05-07 10:43 | 2.41054 | -29.59062 | 6980 ft | 151 kts | 25° |
| 2026-05-07 10:43 | 2.42016 | -29.58629 | 6984 ft | 152 kts | 25° |
| 2026-05-07 10:43 | 2.42977 | -29.58197 | 6980 ft | 151 kts | 25° |
| 2026-05-07 10:43 | 2.43938 | -29.57767 | 6982 ft | 151 kts | 25° |
| 2026-05-07 10:44 | 2.44897 | -29.57341 | 6983 ft | 151 kts | 25° |
| 2026-05-07 10:44 | 2.45858 | -29.56916 | 6981 ft | 151 kts | 25° |
| 2026-05-07 10:44 | 2.46820 | -29.56487 | 6981 ft | 152 kts | 25° |
| 2026-05-07 10:44 | 2.47783 | -29.56059 | 6981 ft | 151 kts | 25° |
| 2026-05-07 10:45 | 2.48747 | -29.55633 | 6981 ft | 151 kts | 25° |
| 2026-05-07 10:45 | 2.49711 | -29.55202 | 6982 ft | 152 kts | 25° |
| 2026-05-07 10:45 | 2.50673 | -29.54770 | 6983 ft | 152 kts | 25° |
| 2026-05-07 10:45 | 2.51637 | -29.54336 | 6980 ft | 152 kts | 25° |
| 2026-05-07 10:46 | 2.52601 | -29.53906 | 6982 ft | 151 kts | 25° |
| 2026-05-07 10:46 | 2.53563 | -29.53480 | 6983 ft | 151 kts | 25° |
| 2026-05-07 10:46 | 2.54523 | -29.53054 | 6981 ft | 151 kts | 25° |
| 2026-05-07 10:46 | 2.55486 | -29.52623 | 6980 ft | 151 kts | 25° |
| 2026-05-07 10:47 | 2.56445 | -29.52196 | 6982 ft | 151 kts | 25° |
| 2026-05-07 10:47 | 2.57403 | -29.51770 | 6981 ft | 151 kts | 25° |
| 2026-05-07 10:47 | 2.58360 | -29.51343 | 6982 ft | 151 kts | 25° |
| 2026-05-07 10:47 | 2.59324 | -29.50919 | 6980 ft | 151 kts | 25° |
| 2026-05-07 10:48 | 2.60281 | -29.50486 | 6980 ft | 151 kts | 25° |
| 2026-05-07 10:48 | 2.61238 | -29.50055 | 6981 ft | 151 kts | 25° |
| 2026-05-07 10:48 | 2.62199 | -29.49628 | 6981 ft | 152 kts | 25° |
| 2026-05-07 10:48 | 2.63158 | -29.49199 | 6982 ft | 151 kts | 25° |
| 2026-05-07 10:49 | 2.64120 | -29.48771 | 6979 ft | 151 kts | 25° |
| 2026-05-07 10:49 | 2.65070 | -29.48351 | 6979 ft | 151 kts | 24° |
| 2026-05-07 10:49 | 2.66033 | -29.47926 | 6982 ft | 151 kts | 25° |
| 2026-05-07 10:49 | 2.66996 | -29.47497 | 6983 ft | 152 kts | 25° |
| 2026-05-07 10:50 | 2.67960 | -29.47066 | 6983 ft | 152 kts | 25° |
| 2026-05-07 10:50 | 2.68922 | -29.46635 | 6982 ft | 152 kts | 25° |
| 2026-05-07 10:50 | 2.69883 | -29.46204 | 6985 ft | 151 kts | 26° |
| 2026-05-07 10:50 | 2.70840 | -29.45771 | 6987 ft | 151 kts | 25° |
| 2026-05-07 10:51 | 2.71800 | -29.45341 | 6984 ft | 152 kts | 25° |
| 2026-05-07 10:51 | 2.72768 | -29.44916 | 6986 ft | 152 kts | 25° |
| 2026-05-07 10:51 | 2.73732 | -29.44485 | 6984 ft | 151 kts | 25° |
| 2026-05-07 10:51 | 2.74694 | -29.44058 | 6983 ft | 151 kts | 25° |
| 2026-05-07 10:52 | 2.75660 | -29.43632 | 6981 ft | 152 kts | 25° |
| 2026-05-07 10:52 | 2.76628 | -29.43202 | 6981 ft | 153 kts | 25° |
| 2026-05-07 10:52 | 2.77593 | -29.42765 | 6981 ft | 153 kts | 25° |
| 2026-05-07 10:52 | 2.78557 | -29.42331 | 6981 ft | 151 kts | 25° |
| 2026-05-07 10:53 | 2.79525 | -29.41906 | 6980 ft | 152 kts | 25° |
| 2026-05-07 10:53 | 2.80491 | -29.41475 | 6981 ft | 152 kts | 25° |
| 2026-05-07 10:53 | 2.81454 | -29.41046 | 6982 ft | 151 kts | 25° |
| 2026-05-07 10:53 | 2.82401 | -29.40618 | 6984 ft | 151 kts | 25° |
| 2026-05-07 10:54 | 2.83361 | -29.40188 | 6982 ft | 151 kts | 25° |
| 2026-05-07 10:54 | 2.84325 | -29.39755 | 6981 ft | 152 kts | 25° |
| 2026-05-07 10:54 | 2.85290 | -29.39326 | 6982 ft | 151 kts | 25° |
| 2026-05-07 10:54 | 2.86254 | -29.38903 | 6981 ft | 152 kts | 25° |
| 2026-05-07 10:55 | 2.87215 | -29.38478 | 6981 ft | 151 kts | 25° |
| 2026-05-07 10:55 | 2.88176 | -29.38047 | 6982 ft | 151 kts | 25° |
| 2026-05-07 10:55 | 2.89139 | -29.37619 | 6980 ft | 152 kts | 25° |
| 2026-05-07 10:55 | 2.90103 | -29.37186 | 6981 ft | 151 kts | 25° |
| 2026-05-07 10:56 | 2.91066 | -29.36755 | 6982 ft | 151 kts | 25° |
| 2026-05-07 10:56 | 2.92031 | -29.36328 | 6981 ft | 152 kts | 25° |
| 2026-05-07 10:56 | 2.92997 | -29.35899 | 6983 ft | 152 kts | 25° |
| 2026-05-07 10:56 | 2.93962 | -29.35466 | 6983 ft | 152 kts | 25° |
| 2026-05-07 10:57 | 2.94925 | -29.35033 | 6986 ft | 152 kts | 25° |
| 2026-05-07 10:57 | 2.95888 | -29.34604 | 6983 ft | 151 kts | 25° |
| 2026-05-07 10:57 | 2.96849 | -29.34171 | 6984 ft | 152 kts | 25° |
| 2026-05-07 10:57 | 2.97816 | -29.33741 | 6983 ft | 152 kts | 25° |
| 2026-05-07 10:58 | 2.98782 | -29.33315 | 6984 ft | 152 kts | 25° |
| 2026-05-07 10:58 | 2.99743 | -29.32884 | 6984 ft | 151 kts | 25° |
| 2026-05-07 10:58 | 3.00702 | -29.32450 | 6985 ft | 151 kts | 25° |
| 2026-05-07 10:58 | 3.01668 | -29.32019 | 6983 ft | 152 kts | 25° |
| 2026-05-07 10:59 | 3.02631 | -29.31588 | 6985 ft | 151 kts | 25° |
| 2026-05-07 10:59 | 3.03595 | -29.31160 | 6986 ft | 151 kts | 25° |
| 2026-05-07 10:59 | 3.04558 | -29.30736 | 6987 ft | 152 kts | 25° |
| 2026-05-07 10:59 | 3.05525 | -29.30307 | 6986 ft | 152 kts | 25° |
| 2026-05-07 11:00 | 3.06478 | -29.29879 | 6986 ft | 152 kts | 25° |
| 2026-05-07 11:00 | 3.07440 | -29.29447 | 6989 ft | 152 kts | 25° |
| 2026-05-07 11:00 | 3.08401 | -29.29020 | 6988 ft | 151 kts | 25° |
| 2026-05-07 11:00 | 3.09362 | -29.28589 | 6986 ft | 151 kts | 25° |
| 2026-05-07 11:01 | 3.10330 | -29.28166 | 6987 ft | 152 kts | 25° |
| 2026-05-07 11:01 | 3.11297 | -29.27734 | 6984 ft | 152 kts | 25° |
| 2026-05-07 11:01 | 3.12260 | -29.27300 | 6983 ft | 152 kts | 25° |
| 2026-05-07 11:01 | 3.13221 | -29.26869 | 6985 ft | 152 kts | 25° |
| 2026-05-07 11:02 | 3.14180 | -29.26428 | 6985 ft | 152 kts | 25° |
| 2026-05-07 11:02 | 3.15147 | -29.25997 | 6983 ft | 152 kts | 25° |
| 2026-05-07 11:02 | 3.16114 | -29.25571 | 6984 ft | 152 kts | 25° |
| 2026-05-07 11:02 | 3.17081 | -29.25147 | 6986 ft | 152 kts | 25° |
| 2026-05-07 11:03 | 3.18045 | -29.24715 | 6984 ft | 152 kts | 25° |
| 2026-05-07 11:03 | 3.19007 | -29.24276 | 6983 ft | 152 kts | 25° |
| 2026-05-07 11:03 | 3.19970 | -29.23848 | 6982 ft | 152 kts | 25° |
| 2026-05-07 11:03 | 3.20932 | -29.23426 | 6985 ft | 151 kts | 25° |
| 2026-05-07 11:04 | 3.21894 | -29.22998 | 6980 ft | 152 kts | 25° |
| 2026-05-07 11:04 | 3.22856 | -29.22563 | 6980 ft | 152 kts | 26° |
| 2026-05-07 11:04 | 3.23819 | -29.22131 | 6982 ft | 151 kts | 25° |
| 2026-05-07 11:04 | 3.24766 | -29.21708 | 6981 ft | 151 kts | 25° |
| 2026-05-07 11:05 | 3.25728 | -29.21283 | 6984 ft | 151 kts | 25° |
| 2026-05-07 11:05 | 3.26689 | -29.20854 | 6985 ft | 151 kts | 25° |
| 2026-05-07 11:05 | 3.27653 | -29.20422 | 6985 ft | 152 kts | 25° |
| 2026-05-07 11:05 | 3.28618 | -29.19997 | 6984 ft | 152 kts | 25° |
| 2026-05-07 11:06 | 3.29577 | -29.19571 | 6985 ft | 151 kts | 25° |
| 2026-05-07 11:06 | 3.30537 | -29.19143 | 6984 ft | 151 kts | 25° |
| 2026-05-07 11:06 | 3.31498 | -29.18711 | 6984 ft | 152 kts | 25° |
| 2026-05-07 11:06 | 3.32463 | -29.18281 | 6986 ft | 152 kts | 25° |
| 2026-05-07 11:07 | 3.33432 | -29.17848 | 6980 ft | 152 kts | 25° |
| 2026-05-07 11:07 | 3.34404 | -29.17422 | 6982 ft | 153 kts | 25° |
| 2026-05-07 11:07 | 3.35378 | -29.16992 | 6981 ft | 154 kts | 25° |
| 2026-05-07 11:07 | 3.36355 | -29.16551 | 6980 ft | 153 kts | 26° |
| 2026-05-07 11:08 | 3.37325 | -29.16112 | 6980 ft | 153 kts | 26° |
| 2026-05-07 11:08 | 3.37966 | -29.15821 | 6979 ft | 152 kts | 26° |
| 2026-05-07 11:08 | 3.38934 | -29.15384 | 6981 ft | 153 kts | 26° |
| 2026-05-07 11:08 | 3.39907 | -29.14949 | 6980 ft | 153 kts | 26° |
| 2026-05-07 11:09 | 3.40880 | -29.14515 | 6981 ft | 152 kts | 26° |
| 2026-05-07 11:09 | 3.41850 | -29.14083 | 6983 ft | 152 kts | 26° |
| 2026-05-07 11:09 | 3.42814 | -29.13648 | 6985 ft | 153 kts | 26° |
| 2026-05-07 11:09 | 3.43785 | -29.13215 | 6985 ft | 153 kts | 26° |
| 2026-05-07 11:10 | 3.44756 | -29.12778 | 6984 ft | 153 kts | 26° |
| 2026-05-07 11:10 | 3.45729 | -29.12347 | 6982 ft | 153 kts | 25° |
| 2026-05-07 11:10 | 3.46699 | -29.11919 | 6981 ft | 152 kts | 26° |
| 2026-05-07 11:10 | 3.47668 | -29.11482 | 6980 ft | 153 kts | 26° |
| 2026-05-07 11:11 | 3.48639 | -29.11039 | 6981 ft | 153 kts | 26° |
| 2026-05-07 11:11 | 3.49613 | -29.10608 | 6980 ft | 153 kts | 26° |
| 2026-05-07 11:11 | 3.50587 | -29.10180 | 6982 ft | 152 kts | 25° |
| 2026-05-07 11:11 | 3.51559 | -29.09754 | 6982 ft | 153 kts | 26° |
| 2026-05-07 11:12 | 3.52531 | -29.09322 | 6984 ft | 153 kts | 26° |
| 2026-05-07 11:12 | 3.53503 | -29.08877 | 6981 ft | 153 kts | 26° |
| 2026-05-07 11:12 | 3.54474 | -29.08443 | 6980 ft | 152 kts | 26° |
| 2026-05-07 11:12 | 3.55442 | -29.08010 | 6980 ft | 153 kts | 26° |
| 2026-05-07 11:13 | 3.56415 | -29.07578 | 6981 ft | 153 kts | 26° |
| 2026-05-07 11:13 | 3.57376 | -29.07149 | 6980 ft | 154 kts | 25° |
| 2026-05-07 11:13 | 3.58351 | -29.06718 | 6980 ft | 153 kts | 25° |
| 2026-05-07 11:13 | 3.59318 | -29.06284 | 6982 ft | 152 kts | 26° |
| 2026-05-07 11:14 | 3.60286 | -29.05849 | 6981 ft | 152 kts | 26° |
| 2026-05-07 11:14 | 3.61256 | -29.05405 | 6980 ft | 153 kts | 26° |
| 2026-05-07 11:14 | 3.62228 | -29.04968 | 6980 ft | 153 kts | 25° |
| 2026-05-07 11:14 | 3.63199 | -29.04535 | 6983 ft | 153 kts | 26° |
| 2026-05-07 11:15 | 3.64171 | -29.04109 | 6979 ft | 153 kts | 25° |
| 2026-05-07 11:15 | 3.65146 | -29.03681 | 6980 ft | 154 kts | 26° |
| 2026-05-07 11:15 | 3.66126 | -29.03244 | 6982 ft | 153 kts | 25° |
| 2026-05-07 11:15 | 3.67100 | -29.02812 | 6983 ft | 152 kts | 26° |
| 2026-05-07 11:16 | 3.68062 | -29.02382 | 6979 ft | 152 kts | 26° |
| 2026-05-07 11:16 | 3.69031 | -29.01949 | 6979 ft | 152 kts | 26° |
| 2026-05-07 11:16 | 3.69999 | -29.01515 | 6979 ft | 153 kts | 26° |
| 2026-05-07 11:16 | 3.70967 | -29.01081 | 6979 ft | 152 kts | 26° |
| 2026-05-07 11:17 | 3.71932 | -29.00648 | 6979 ft | 151 kts | 26° |
| 2026-05-07 11:17 | 3.72895 | -29.00214 | 6981 ft | 151 kts | 26° |
| 2026-05-07 11:17 | 3.73863 | -28.99778 | 6979 ft | 153 kts | 26° |
| 2026-05-07 11:17 | 3.74831 | -28.99344 | 6978 ft | 152 kts | 26° |
| 2026-05-07 11:18 | 3.75797 | -28.98909 | 6982 ft | 152 kts | 26° |
| 2026-05-07 11:18 | 3.76760 | -28.98477 | 6981 ft | 152 kts | 26° |
| 2026-05-07 11:18 | 3.77726 | -28.98042 | 6983 ft | 153 kts | 26° |
| 2026-05-07 11:18 | 3.78697 | -28.97604 | 6982 ft | 153 kts | 25° |
| 2026-05-07 11:19 | 3.79673 | -28.97185 | 6979 ft | 152 kts | 25° |
| 2026-05-07 11:19 | 3.80631 | -28.96767 | 6979 ft | 152 kts | 26° |
| 2026-05-07 11:19 | 3.81597 | -28.96327 | 6979 ft | 152 kts | 26° |
| 2026-05-07 11:19 | 3.82564 | -28.95883 | 6979 ft | 153 kts | 26° |
| 2026-05-07 11:20 | 3.83539 | -28.95454 | 6978 ft | 153 kts | 25° |
| 2026-05-07 11:20 | 3.84512 | -28.95026 | 6978 ft | 152 kts | 26° |
| 2026-05-07 11:20 | 3.85478 | -28.94589 | 6979 ft | 153 kts | 26° |
| 2026-05-07 11:20 | 3.86448 | -28.94150 | 6978 ft | 154 kts | 26° |
| 2026-05-07 11:21 | 3.87423 | -28.93712 | 6978 ft | 153 kts | 26° |
| 2026-05-07 11:21 | 3.88394 | -28.93277 | 6980 ft | 153 kts | 26° |
| 2026-05-07 11:21 | 3.89365 | -28.92856 | 6978 ft | 152 kts | 26° |
| 2026-05-07 11:21 | 3.90335 | -28.92424 | 6977 ft | 153 kts | 26° |
| 2026-05-07 11:22 | 3.91309 | -28.91986 | 6982 ft | 154 kts | 26° |
| 2026-05-07 11:22 | 3.92281 | -28.91544 | 6981 ft | 153 kts | 26° |
| 2026-05-07 11:22 | 3.93249 | -28.91110 | 6983 ft | 153 kts | 26° |
| 2026-05-07 11:22 | 3.94221 | -28.90676 | 6981 ft | 152 kts | 26° |
| 2026-05-07 11:23 | 3.95194 | -28.90240 | 6980 ft | 154 kts | 26° |
| 2026-05-07 11:23 | 3.96165 | -28.89802 | 6979 ft | 153 kts | 26° |
| 2026-05-07 11:23 | 3.97136 | -28.89367 | 6979 ft | 152 kts | 26° |
| 2026-05-07 11:23 | 3.98106 | -28.88934 | 6979 ft | 153 kts | 26° |
| 2026-05-07 11:24 | 3.99082 | -28.88502 | 6979 ft | 154 kts | 26° |
| 2026-05-07 11:24 | 4.00057 | -28.88070 | 6978 ft | 153 kts | 26° |
| 2026-05-07 11:24 | 4.01030 | -28.87642 | 6980 ft | 152 kts | 26° |
| 2026-05-07 11:24 | 4.01997 | -28.87220 | 6980 ft | 152 kts | 27° |
| 2026-05-07 11:25 | 4.02960 | -28.86780 | 6979 ft | 152 kts | 27° |
| 2026-05-07 11:25 | 4.03928 | -28.86335 | 6978 ft | 153 kts | 26° |
| 2026-05-07 11:25 | 4.04892 | -28.85896 | 6978 ft | 153 kts | 26° |
| 2026-05-07 11:25 | 4.05856 | -28.85470 | 6978 ft | 151 kts | 26° |
| 2026-05-07 11:26 | 4.06822 | -28.85045 | 6978 ft | 151 kts | 26° |
| 2026-05-07 11:26 | 4.07785 | -28.84614 | 6979 ft | 152 kts | 26° |
| 2026-05-07 11:26 | 4.08740 | -28.84185 | 6979 ft | 152 kts | 27° |
| 2026-05-07 11:26 | 4.09702 | -28.83750 | 6979 ft | 151 kts | 26° |
| 2026-05-07 11:27 | 4.10665 | -28.83325 | 6978 ft | 152 kts | 27° |
| 2026-05-07 11:27 | 4.11631 | -28.82894 | 6978 ft | 152 kts | 27° |
| 2026-05-07 11:27 | 4.12595 | -28.82456 | 6978 ft | 152 kts | 26° |
| 2026-05-07 11:27 | 4.13563 | -28.82028 | 6979 ft | 152 kts | 27° |
| 2026-05-07 11:28 | 4.14525 | -28.81595 | 6979 ft | 151 kts | 27° |
| 2026-05-07 11:28 | 4.15485 | -28.81159 | 6978 ft | 152 kts | 27° |
| 2026-05-07 11:28 | 4.16450 | -28.80719 | 6979 ft | 153 kts | 26° |
| 2026-05-07 11:28 | 4.17418 | -28.80293 | 6979 ft | 152 kts | 26° |
| 2026-05-07 11:29 | 4.18388 | -28.79864 | 6976 ft | 152 kts | 27° |
| 2026-05-07 11:29 | 4.19354 | -28.79429 | 6975 ft | 153 kts | 27° |
| 2026-05-07 11:29 | 4.20319 | -28.78989 | 6976 ft | 153 kts | 27° |
| 2026-05-07 11:29 | 4.21287 | -28.78556 | 6976 ft | 152 kts | 26° |
| 2026-05-07 11:30 | 4.22255 | -28.78130 | 6978 ft | 152 kts | 26° |
| 2026-05-07 11:30 | 4.23223 | -28.77703 | 6979 ft | 152 kts | 27° |
| 2026-05-07 11:30 | 4.24192 | -28.77272 | 6979 ft | 153 kts | 26° |
| 2026-05-07 11:30 | 4.25164 | -28.76836 | 6978 ft | 153 kts | 26° |
| 2026-05-07 11:31 | 4.26131 | -28.76404 | 6979 ft | 152 kts | 27° |
| 2026-05-07 11:31 | 4.27099 | -28.75977 | 6979 ft | 151 kts | 27° |
| 2026-05-07 11:31 | 4.28063 | -28.75538 | 6979 ft | 152 kts | 27° |
| 2026-05-07 11:31 | 4.29028 | -28.75095 | 6979 ft | 153 kts | 26° |
| 2026-05-07 11:32 | 4.30964 | -28.74231 | 6976 ft | 152 kts | 27° |
| 2026-05-07 11:32 | 4.31930 | -28.73800 | 6976 ft | 152 kts | 26° |
| 2026-05-07 11:32 | 4.32900 | -28.73376 | 6976 ft | 153 kts | 26° |
| 2026-05-07 11:33 | 4.33860 | -28.72950 | 6976 ft | 152 kts | 26° |
| 2026-05-07 11:33 | 4.34828 | -28.72515 | 6976 ft | 152 kts | 26° |
| 2026-05-07 11:33 | 4.35791 | -28.72085 | 6976 ft | 152 kts | 27° |
| 2026-05-07 11:33 | 4.36753 | -28.71649 | 6976 ft | 152 kts | 27° |
| 2026-05-07 11:34 | 4.37715 | -28.71212 | 6975 ft | 152 kts | 27° |
| 2026-05-07 11:34 | 4.38683 | -28.70780 | 6975 ft | 152 kts | 27° |
| 2026-05-07 11:34 | 4.39648 | -28.70350 | 6976 ft | 151 kts | 27° |
| 2026-05-07 11:34 | 4.40611 | -28.69917 | 6977 ft | 152 kts | 27° |
| 2026-05-07 11:35 | 4.41580 | -28.69478 | 6976 ft | 153 kts | 27° |
| 2026-05-07 11:35 | 4.42551 | -28.69043 | 6975 ft | 153 kts | 27° |
| 2026-05-07 11:35 | 4.43521 | -28.68610 | 6976 ft | 152 kts | 27° |
| 2026-05-07 11:35 | 4.44487 | -28.68180 | 6976 ft | 153 kts | 27° |
| 2026-05-07 11:36 | 4.45458 | -28.67746 | 6976 ft | 152 kts | 27° |
| 2026-05-07 11:36 | 4.46424 | -28.67312 | 6976 ft | 152 kts | 27° |
| 2026-05-07 11:36 | 4.47389 | -28.66877 | 6976 ft | 152 kts | 27° |
| 2026-05-07 11:36 | 4.48354 | -28.66449 | 6976 ft | 152 kts | 27° |
| 2026-05-07 11:37 | 4.49324 | -28.66016 | 6976 ft | 153 kts | 27° |
| 2026-05-07 11:37 | 4.50294 | -28.65580 | 6975 ft | 153 kts | 27° |
| 2026-05-07 11:37 | 4.51263 | -28.65149 | 6976 ft | 153 kts | 27° |
| 2026-05-07 11:37 | 4.52232 | -28.64714 | 6976 ft | 152 kts | 27° |
| 2026-05-07 11:38 | 4.53198 | -28.64280 | 6972 ft | 152 kts | 27° |
| 2026-05-07 11:38 | 4.54167 | -28.63850 | 6973 ft | 152 kts | 27° |
| 2026-05-07 11:38 | 4.55131 | -28.63415 | 6973 ft | 152 kts | 27° |
| 2026-05-07 11:38 | 4.56088 | -28.62985 | 6973 ft | 152 kts | 27° |
| 2026-05-07 11:39 | 4.57053 | -28.62550 | 6976 ft | 152 kts | 27° |
| 2026-05-07 11:39 | 4.58025 | -28.62113 | 6976 ft | 153 kts | 27° |
| 2026-05-07 11:39 | 4.58999 | -28.61678 | 6976 ft | 153 kts | 27° |
| 2026-05-07 11:39 | 4.59973 | -28.61245 | 6977 ft | 153 kts | 27° |
| 2026-05-07 11:40 | 4.60943 | -28.60811 | 6977 ft | 153 kts | 27° |
| 2026-05-07 11:40 | 4.61913 | -28.60371 | 6976 ft | 153 kts | 27° |
| 2026-05-07 11:40 | 4.62883 | -28.59936 | 6975 ft | 153 kts | 27° |
| 2026-05-07 11:40 | 4.63856 | -28.59499 | 6976 ft | 153 kts | 27° |
| 2026-05-07 11:41 | 4.64829 | -28.59065 | 6976 ft | 153 kts | 27° |
| 2026-05-07 11:41 | 4.65799 | -28.58631 | 6976 ft | 153 kts | 27° |
| 2026-05-07 11:41 | 4.66768 | -28.58196 | 6976 ft | 153 kts | 27° |
| 2026-05-07 11:41 | 4.67737 | -28.57759 | 6976 ft | 152 kts | 27° |
| 2026-05-07 11:42 | 4.68705 | -28.57326 | 6975 ft | 152 kts | 27° |
| 2026-05-07 11:42 | 4.69673 | -28.56894 | 6973 ft | 152 kts | 27° |
| 2026-05-07 11:42 | 4.70641 | -28.56463 | 6973 ft | 152 kts | 27° |
| 2026-05-07 11:42 | 4.71609 | -28.56028 | 6973 ft | 152 kts | 27° |
| 2026-05-07 11:43 | 4.72581 | -28.55597 | 6976 ft | 152 kts | 27° |
| 2026-05-07 11:43 | 4.73547 | -28.55164 | 6976 ft | 152 kts | 27° |
| 2026-05-07 11:43 | 4.74516 | -28.54732 | 6976 ft | 152 kts | 27° |
| 2026-05-07 11:43 | 4.75471 | -28.54296 | 6976 ft | 153 kts | 27° |
| 2026-05-07 11:44 | 4.76440 | -28.53860 | 6976 ft | 153 kts | 27° |
| 2026-05-07 11:44 | 4.77408 | -28.53428 | 6976 ft | 152 kts | 27° |
| 2026-05-07 11:44 | 4.78375 | -28.52992 | 6976 ft | 152 kts | 27° |
| 2026-05-07 11:44 | 4.79343 | -28.52556 | 6976 ft | 153 kts | 27° |
| 2026-05-07 11:45 | 4.80313 | -28.52120 | 6973 ft | 152 kts | 27° |
| 2026-05-07 11:45 | 4.81283 | -28.51692 | 6973 ft | 153 kts | 27° |
| 2026-05-07 11:45 | 4.82253 | -28.51258 | 6979 ft | 153 kts | 27° |
| 2026-05-07 11:45 | 4.83221 | -28.50822 | 6979 ft | 153 kts | 27° |
| 2026-05-07 11:46 | 4.84190 | -28.50384 | 6975 ft | 152 kts | 27° |
| 2026-05-07 11:46 | 4.85158 | -28.49950 | 6976 ft | 153 kts | 27° |
| 2026-05-07 11:46 | 4.86126 | -28.49517 | 6976 ft | 152 kts | 27° |
| 2026-05-07 11:46 | 4.87093 | -28.49082 | 6975 ft | 152 kts | 27° |
| 2026-05-07 11:47 | 4.88062 | -28.48649 | 6975 ft | 152 kts | 27° |
| 2026-05-07 11:47 | 4.89030 | -28.48215 | 6976 ft | 152 kts | 27° |
| 2026-05-07 11:47 | 4.89999 | -28.47784 | 6976 ft | 152 kts | 27° |
| 2026-05-07 11:47 | 4.90970 | -28.47349 | 6976 ft | 152 kts | 27° |
| 2026-05-07 11:48 | 4.91922 | -28.46919 | 6979 ft | 153 kts | 27° |
| 2026-05-07 11:48 | 4.92893 | -28.46480 | 6979 ft | 153 kts | 27° |
| 2026-05-07 11:48 | 4.93861 | -28.46044 | 6979 ft | 153 kts | 27° |
| 2026-05-07 11:48 | 4.94831 | -28.45613 | 6979 ft | 152 kts | 27° |
| 2026-05-07 11:49 | 4.95801 | -28.45181 | 6979 ft | 153 kts | 27° |
| 2026-05-07 11:49 | 4.96772 | -28.44745 | 6979 ft | 153 kts | 27° |
| 2026-05-07 11:49 | 4.97743 | -28.44309 | 6979 ft | 153 kts | 27° |
| 2026-05-07 11:49 | 4.98714 | -28.43877 | 6978 ft | 152 kts | 27° |
| 2026-05-07 11:50 | 4.99683 | -28.43442 | 6976 ft | 153 kts | 27° |
| 2026-05-07 11:50 | 5.00652 | -28.43002 | 6976 ft | 153 kts | 27° |
| 2026-05-07 11:50 | 5.01622 | -28.42565 | 6976 ft | 153 kts | 27° |
| 2026-05-07 11:50 | 5.02589 | -28.42130 | 6975 ft | 152 kts | 27° |
| 2026-05-07 11:51 | 5.03564 | -28.41698 | 6975 ft | 154 kts | 27° |
| 2026-05-07 11:51 | 5.04540 | -28.41256 | 6976 ft | 154 kts | 27° |
| 2026-05-07 11:51 | 5.05514 | -28.40818 | 6976 ft | 154 kts | 27° |
| 2026-05-07 11:51 | 5.06494 | -28.40380 | 6976 ft | 154 kts | 27° |
| 2026-05-07 11:52 | 5.07473 | -28.39944 | 6978 ft | 154 kts | 27° |
| 2026-05-07 11:52 | 5.08452 | -28.39505 | 6979 ft | 154 kts | 27° |
| 2026-05-07 11:52 | 5.09427 | -28.39064 | 6978 ft | 154 kts | 27° |
| 2026-05-07 11:52 | 5.10406 | -28.38625 | 6979 ft | 154 kts | 27° |
| 2026-05-07 11:53 | 5.11384 | -28.38188 | 6976 ft | 154 kts | 27° |
| 2026-05-07 11:53 | 5.12365 | -28.37748 | 6976 ft | 154 kts | 27° |
| 2026-05-07 11:53 | 5.13345 | -28.37308 | 6976 ft | 154 kts | 27° |
| 2026-05-07 11:53 | 5.14323 | -28.36869 | 6976 ft | 154 kts | 27° |
| 2026-05-07 11:54 | 5.15300 | -28.36429 | 6976 ft | 154 kts | 27° |
| 2026-05-07 11:54 | 5.16278 | -28.35992 | 6975 ft | 154 kts | 27° |
| 2026-05-07 11:54 | 5.16924 | -28.35701 | 6975 ft | 154 kts | 27° |
| 2026-05-07 11:54 | 5.17902 | -28.35259 | 6976 ft | 154 kts | 27° |
| 2026-05-07 11:55 | 5.18881 | -28.34821 | 6976 ft | 154 kts | 27° |
| 2026-05-07 11:55 | 5.20177 | -28.34239 | 6976 ft | 154 kts | 27° |
| 2026-05-07 11:55 | 5.21159 | -28.33800 | 6976 ft | 155 kts | 27° |
| 2026-05-07 11:55 | 5.22138 | -28.33357 | 6976 ft | 154 kts | 27° |
| 2026-05-07 11:56 | 5.22800 | -28.33059 | 6978 ft | 154 kts | 27° |
| 2026-05-07 11:56 | 5.23781 | -28.32621 | 6979 ft | 154 kts | 27° |
| 2026-05-07 11:56 | 5.24759 | -28.32182 | 6981 ft | 154 kts | 27° |
| 2026-05-07 11:56 | 5.25725 | -28.31747 | 6979 ft | 155 kts | 27° |
| 2026-05-07 11:57 | 5.26705 | -28.31305 | 6976 ft | 154 kts | 27° |
| 2026-05-07 11:57 | 5.27684 | -28.30868 | 6976 ft | 154 kts | 27° |
| 2026-05-07 11:57 | 5.28667 | -28.30428 | 6976 ft | 154 kts | 27° |
| 2026-05-07 11:57 | 5.29648 | -28.29988 | 6976 ft | 154 kts | 27° |
| 2026-05-07 11:58 | 5.30628 | -28.29544 | 6976 ft | 154 kts | 27° |
| 2026-05-07 11:58 | 5.31604 | -28.29106 | 6975 ft | 154 kts | 27° |
| 2026-05-07 11:58 | 5.32583 | -28.28668 | 6976 ft | 154 kts | 27° |
| 2026-05-07 11:58 | 5.33561 | -28.28231 | 6976 ft | 154 kts | 27° |
| 2026-05-07 11:59 | 5.34537 | -28.27788 | 6976 ft | 154 kts | 27° |
| 2026-05-07 11:59 | 5.35515 | -28.27349 | 6976 ft | 154 kts | 27° |
| 2026-05-07 11:59 | 5.36497 | -28.26913 | 6976 ft | 154 kts | 27° |
| 2026-05-07 11:59 | 5.37474 | -28.26474 | 6976 ft | 154 kts | 27° |
| 2026-05-07 12:00 | 5.38449 | -28.26036 | 6976 ft | 153 kts | 27° |
| 2026-05-07 12:00 | 5.39419 | -28.25598 | 6978 ft | 153 kts | 27° |
| 2026-05-07 12:00 | 5.40389 | -28.25160 | 6982 ft | 153 kts | 27° |
| 2026-05-07 12:00 | 5.41357 | -28.24726 | 6978 ft | 153 kts | 27° |
| 2026-05-07 12:01 | 5.42329 | -28.24288 | 6978 ft | 153 kts | 27° |
| 2026-05-07 12:01 | 5.43304 | -28.23851 | 6976 ft | 154 kts | 27° |
| 2026-05-07 12:01 | 5.44279 | -28.23412 | 6976 ft | 154 kts | 27° |
| 2026-05-07 12:01 | 5.45255 | -28.22973 | 6976 ft | 153 kts | 27° |
| 2026-05-07 12:02 | 5.46228 | -28.22536 | 6976 ft | 153 kts | 27° |
| 2026-05-07 12:02 | 5.47192 | -28.22103 | 6975 ft | 154 kts | 27° |
| 2026-05-07 12:02 | 5.48164 | -28.21664 | 6976 ft | 153 kts | 27° |
| 2026-05-07 12:02 | 5.49138 | -28.21228 | 6976 ft | 153 kts | 27° |
| 2026-05-07 12:03 | 5.50110 | -28.20792 | 6976 ft | 153 kts | 27° |
| 2026-05-07 12:03 | 5.51082 | -28.20356 | 6975 ft | 154 kts | 27° |
| 2026-05-07 12:03 | 5.52058 | -28.19918 | 6976 ft | 153 kts | 27° |
| 2026-05-07 12:03 | 5.53033 | -28.19481 | 6975 ft | 153 kts | 27° |
| 2026-05-07 12:04 | 5.54006 | -28.19045 | 6976 ft | 153 kts | 27° |
| 2026-05-07 12:04 | 5.54979 | -28.18607 | 6976 ft | 154 kts | 27° |
| 2026-05-07 12:04 | 5.55952 | -28.18168 | 6975 ft | 153 kts | 27° |
| 2026-05-07 12:04 | 5.56924 | -28.17729 | 6976 ft | 154 kts | 27° |
| 2026-05-07 12:05 | 5.57901 | -28.17289 | 6977 ft | 154 kts | 27° |
| 2026-05-07 12:05 | 5.58879 | -28.16852 | 6978 ft | 154 kts | 27° |
| 2026-05-07 12:05 | 5.59857 | -28.16414 | 6975 ft | 154 kts | 27° |
| 2026-05-07 12:05 | 5.60830 | -28.15975 | 6976 ft | 154 kts | 27° |
| 2026-05-07 12:06 | 5.61806 | -28.15535 | 6976 ft | 153 kts | 27° |
| 2026-05-07 12:06 | 5.62782 | -28.15095 | 6976 ft | 154 kts | 27° |
| 2026-05-07 12:06 | 5.63756 | -28.14654 | 6975 ft | 154 kts | 27° |
| 2026-05-07 12:06 | 5.64732 | -28.14216 | 6976 ft | 153 kts | 27° |
| 2026-05-07 12:07 | 5.65705 | -28.13780 | 6974 ft | 154 kts | 27° |
| 2026-05-07 12:07 | 5.66684 | -28.13340 | 6974 ft | 154 kts | 27° |
| 2026-05-07 12:07 | 5.67644 | -28.12908 | 6973 ft | 153 kts | 27° |
| 2026-05-07 12:07 | 5.68619 | -28.12470 | 6973 ft | 154 kts | 27° |
| 2026-05-07 12:08 | 5.69594 | -28.12034 | 6976 ft | 153 kts | 27° |
| 2026-05-07 12:08 | 5.70567 | -28.11597 | 6976 ft | 153 kts | 27° |
| 2026-05-07 12:08 | 5.71539 | -28.11159 | 6975 ft | 153 kts | 27° |
| 2026-05-07 12:08 | 5.72512 | -28.10722 | 6975 ft | 153 kts | 27° |
| 2026-05-07 12:09 | 5.73486 | -28.10285 | 6976 ft | 154 kts | 27° |
| 2026-05-07 12:09 | 5.74460 | -28.09847 | 6975 ft | 153 kts | 27° |
| 2026-05-07 12:09 | 5.75435 | -28.09407 | 6975 ft | 154 kts | 27° |
| 2026-05-07 12:09 | 5.76408 | -28.08972 | 6976 ft | 153 kts | 27° |
| 2026-05-07 12:10 | 5.77380 | -28.08533 | 6972 ft | 153 kts | 28° |
| 2026-05-07 12:10 | 5.78353 | -28.08092 | 6974 ft | 153 kts | 28° |
| 2026-05-07 12:10 | 5.79324 | -28.07654 | 6974 ft | 153 kts | 28° |
| 2026-05-07 12:10 | 5.80298 | -28.07217 | 6971 ft | 153 kts | 27° |
| 2026-05-07 12:11 | 5.81269 | -28.06782 | 6975 ft | 153 kts | 27° |
| 2026-05-07 12:11 | 5.82242 | -28.06349 | 6976 ft | 153 kts | 28° |
| 2026-05-07 12:11 | 5.83212 | -28.05913 | 6976 ft | 153 kts | 28° |
| 2026-05-07 12:11 | 5.84181 | -28.05472 | 6976 ft | 153 kts | 28° |
| 2026-05-07 12:12 | 5.85151 | -28.05034 | 6976 ft | 153 kts | 28° |
| 2026-05-07 12:12 | 5.86122 | -28.04595 | 6976 ft | 153 kts | 28° |
| 2026-05-07 12:12 | 5.87094 | -28.04157 | 6976 ft | 153 kts | 28° |
| 2026-05-07 12:12 | 5.88067 | -28.03720 | 6976 ft | 153 kts | 28° |
| 2026-05-07 12:13 | 5.89041 | -28.03282 | 6973 ft | 153 kts | 28° |
| 2026-05-07 12:13 | 5.90012 | -28.02842 | 6973 ft | 153 kts | 28° |
| 2026-05-07 12:13 | 5.90974 | -28.02409 | 6973 ft | 154 kts | 28° |
| 2026-05-07 12:13 | 5.91950 | -28.01972 | 6974 ft | 153 kts | 28° |
| 2026-05-07 12:14 | 5.92924 | -28.01534 | 6973 ft | 154 kts | 28° |
| 2026-05-07 12:14 | 5.93897 | -28.01097 | 6973 ft | 153 kts | 28° |
| 2026-05-07 12:14 | 5.94871 | -28.00659 | 6973 ft | 153 kts | 28° |
| 2026-05-07 12:14 | 5.95846 | -28.00218 | 6973 ft | 154 kts | 28° |
| 2026-05-07 12:15 | 5.96822 | -27.99779 | 6976 ft | 153 kts | 28° |
| 2026-05-07 12:15 | 5.97796 | -27.99342 | 6976 ft | 154 kts | 28° |
| 2026-05-07 12:15 | 5.98770 | -27.98900 | 6976 ft | 153 kts | 28° |
| 2026-05-07 12:15 | 5.99740 | -27.98462 | 6976 ft | 153 kts | 28° |
| 2026-05-07 12:16 | 6.00716 | -27.98024 | 6975 ft | 154 kts | 28° |
| 2026-05-07 12:16 | 6.01690 | -27.97585 | 6974 ft | 153 kts | 28° |
| 2026-05-07 12:16 | 6.02663 | -27.97148 | 6973 ft | 153 kts | 28° |
| 2026-05-07 12:16 | 6.03637 | -27.96708 | 6974 ft | 153 kts | 28° |
| 2026-05-07 12:17 | 6.04610 | -27.96269 | 6974 ft | 153 kts | 27° |
| 2026-05-07 12:17 | 6.05586 | -27.95837 | 6974 ft | 153 kts | 28° |
| 2026-05-07 12:17 | 6.06564 | -27.95406 | 6973 ft | 153 kts | 28° |
| 2026-05-07 12:17 | 6.07529 | -27.94969 | 6978 ft | 152 kts | 29° |
| 2026-05-07 12:18 | 6.08483 | -27.94535 | 6976 ft | 152 kts | 29° |
| 2026-05-07 12:18 | 6.09450 | -27.94099 | 6976 ft | 152 kts | 29° |
| 2026-05-07 12:18 | 6.10416 | -27.93661 | 6976 ft | 152 kts | 29° |
| 2026-05-07 12:18 | 6.11383 | -27.93224 | 6976 ft | 153 kts | 29° |
| 2026-05-07 12:19 | 6.12349 | -27.92784 | 6979 ft | 152 kts | 28° |
| 2026-05-07 12:19 | 6.13316 | -27.92346 | 6979 ft | 152 kts | 28° |
| 2026-05-07 12:19 | 6.14284 | -27.91912 | 6979 ft | 152 kts | 28° |
| 2026-05-07 12:19 | 6.15254 | -27.91477 | 6979 ft | 153 kts | 28° |
| 2026-05-07 12:20 | 6.16228 | -27.91040 | 6978 ft | 153 kts | 29° |
| 2026-05-07 12:20 | 6.17196 | -27.90603 | 6978 ft | 153 kts | 29° |
| 2026-05-07 12:20 | 6.18162 | -27.90167 | 6979 ft | 152 kts | 29° |
| 2026-05-07 12:20 | 6.19130 | -27.89729 | 6979 ft | 152 kts | 29° |
| 2026-05-07 12:21 | 6.20096 | -27.89292 | 6978 ft | 153 kts | 28° |
| 2026-05-07 12:21 | 6.21066 | -27.88857 | 6979 ft | 153 kts | 29° |
| 2026-05-07 12:21 | 6.22034 | -27.88419 | 6979 ft | 152 kts | 29° |
| 2026-05-07 12:21 | 6.23001 | -27.87983 | 6979 ft | 153 kts | 28° |
| 2026-05-07 12:22 | 6.23973 | -27.87544 | 6976 ft | 153 kts | 28° |
| 2026-05-07 12:22 | 6.24942 | -27.87107 | 6976 ft | 153 kts | 28° |
| 2026-05-07 12:22 | 6.25913 | -27.86670 | 6976 ft | 153 kts | 28° |
| 2026-05-07 12:22 | 6.26885 | -27.86234 | 6976 ft | 153 kts | 28° |
| 2026-05-07 12:23 | 6.27842 | -27.85803 | 6979 ft | 153 kts | 28° |
| 2026-05-07 12:23 | 6.28814 | -27.85366 | 6978 ft | 153 kts | 29° |
| 2026-05-07 12:23 | 6.29797 | -27.84922 | 6978 ft | 153 kts | 29° |
| 2026-05-07 12:23 | 6.30764 | -27.84485 | 6979 ft | 153 kts | 28° |
| 2026-05-07 12:24 | 6.31719 | -27.84053 | 6978 ft | 152 kts | 28° |
| 2026-05-07 12:24 | 6.32688 | -27.83617 | 6978 ft | 153 kts | 28° |
| 2026-05-07 12:24 | 6.33656 | -27.83179 | 6979 ft | 153 kts | 28° |
| 2026-05-07 12:24 | 6.34625 | -27.82742 | 6979 ft | 153 kts | 28° |
| 2026-05-07 12:25 | 6.35595 | -27.82306 | 6976 ft | 153 kts | 28° |
| 2026-05-07 12:25 | 6.36565 | -27.81869 | 6977 ft | 153 kts | 29° |
| 2026-05-07 12:25 | 6.37537 | -27.81432 | 6976 ft | 153 kts | 29° |
| 2026-05-07 12:25 | 6.38506 | -27.80994 | 6977 ft | 153 kts | 29° |
| 2026-05-07 12:26 | 6.39475 | -27.80557 | 6976 ft | 152 kts | 29° |
| 2026-05-07 12:26 | 6.40445 | -27.80120 | 6975 ft | 153 kts | 29° |
| 2026-05-07 12:26 | 6.41412 | -27.79681 | 6975 ft | 152 kts | 29° |
| 2026-05-07 12:26 | 6.42378 | -27.79246 | 6975 ft | 152 kts | 28° |
| 2026-05-07 12:27 | 6.43345 | -27.78810 | 6979 ft | 153 kts | 29° |
| 2026-05-07 12:27 | 6.44312 | -27.78374 | 6979 ft | 152 kts | 28° |
| 2026-05-07 12:27 | 6.45280 | -27.77936 | 6979 ft | 153 kts | 28° |
| 2026-05-07 12:27 | 6.46250 | -27.77497 | 6979 ft | 153 kts | 28° |
| 2026-05-07 12:28 | 6.47219 | -27.77061 | 6978 ft | 153 kts | 28° |
| 2026-05-07 12:28 | 6.48191 | -27.76625 | 6979 ft | 153 kts | 29° |
| 2026-05-07 12:28 | 6.49163 | -27.76184 | 6979 ft | 153 kts | 28° |
| 2026-05-07 12:28 | 6.50123 | -27.75753 | 6979 ft | 153 kts | 29° |
| 2026-05-07 12:29 | 6.51091 | -27.75314 | 6980 ft | 153 kts | 29° |
| 2026-05-07 12:29 | 6.52062 | -27.74875 | 6979 ft | 153 kts | 28° |
| 2026-05-07 12:29 | 6.53032 | -27.74441 | 6978 ft | 152 kts | 29° |
| 2026-05-07 12:29 | 6.53998 | -27.74003 | 6978 ft | 153 kts | 29° |
| 2026-05-07 12:30 | 6.54967 | -27.73565 | 6980 ft | 152 kts | 28° |
| 2026-05-07 12:30 | 6.55935 | -27.73129 | 6978 ft | 153 kts | 28° |
| 2026-05-07 12:30 | 6.56905 | -27.72691 | 6978 ft | 153 kts | 29° |
| 2026-05-07 12:30 | 6.57877 | -27.72254 | 6978 ft | 153 kts | 29° |
| 2026-05-07 12:31 | 6.58847 | -27.71816 | 6979 ft | 153 kts | 29° |
| 2026-05-07 12:31 | 6.59818 | -27.71379 | 6978 ft | 153 kts | 29° |
| 2026-05-07 12:31 | 6.60787 | -27.70938 | 6979 ft | 153 kts | 29° |
| 2026-05-07 12:31 | 6.61753 | -27.70502 | 6978 ft | 152 kts | 29° |
| 2026-05-07 12:32 | 6.62719 | -27.70068 | 6976 ft | 152 kts | 29° |
| 2026-05-07 12:32 | 6.63671 | -27.69635 | 6975 ft | 152 kts | 29° |
| 2026-05-07 12:32 | 6.64636 | -27.69201 | 6978 ft | 152 kts | 29° |
| 2026-05-07 12:32 | 6.65601 | -27.68763 | 6974 ft | 152 kts | 29° |
| 2026-05-07 12:33 | 6.67534 | -27.67893 | 6976 ft | 152 kts | 29° |
| 2026-05-07 12:33 | 6.68500 | -27.67457 | 6976 ft | 153 kts | 29° |
| 2026-05-07 12:33 | 6.69469 | -27.67016 | 6975 ft | 153 kts | 29° |
| 2026-05-07 12:34 | 6.70438 | -27.66579 | 6979 ft | 153 kts | 29° |
| 2026-05-07 12:34 | 6.71406 | -27.66142 | 6979 ft | 153 kts | 29° |
| 2026-05-07 12:34 | 6.72374 | -27.65705 | 6980 ft | 152 kts | 29° |
| 2026-05-07 12:34 | 6.73342 | -27.65270 | 6979 ft | 152 kts | 29° |
| 2026-05-07 12:35 | 6.74311 | -27.64838 | 6978 ft | 152 kts | 29° |
| 2026-05-07 12:35 | 6.75275 | -27.64401 | 6978 ft | 152 kts | 29° |
| 2026-05-07 12:35 | 6.76238 | -27.63963 | 6979 ft | 152 kts | 29° |
| 2026-05-07 12:35 | 6.77203 | -27.63528 | 6979 ft | 152 kts | 30° |
| 2026-05-07 12:36 | 6.78166 | -27.63091 | 6979 ft | 152 kts | 30° |
| 2026-05-07 12:36 | 6.79130 | -27.62653 | 6978 ft | 152 kts | 29° |
| 2026-05-07 12:36 | 6.80095 | -27.62217 | 6978 ft | 152 kts | 29° |
| 2026-05-07 12:36 | 6.81060 | -27.61781 | 6978 ft | 152 kts | 29° |
| 2026-05-07 12:37 | 6.82007 | -27.61353 | 6981 ft | 151 kts | 29° |
| 2026-05-07 12:37 | 6.82970 | -27.60919 | 6982 ft | 152 kts | 30° |
| 2026-05-07 12:37 | 6.83932 | -27.60483 | 6982 ft | 152 kts | 30° |
| 2026-05-07 12:37 | 6.84895 | -27.60048 | 6982 ft | 152 kts | 30° |
| 2026-05-07 12:38 | 6.85858 | -27.59613 | 6977 ft | 152 kts | 30° |
| 2026-05-07 12:38 | 6.86821 | -27.59179 | 6978 ft | 151 kts | 30° |
| 2026-05-07 12:38 | 6.87783 | -27.58742 | 6978 ft | 152 kts | 30° |
| 2026-05-07 12:38 | 6.88747 | -27.58303 | 6979 ft | 152 kts | 29° |
| 2026-05-07 12:39 | 6.89711 | -27.57871 | 6979 ft | 152 kts | 30° |
| 2026-05-07 12:39 | 6.90674 | -27.57437 | 6978 ft | 152 kts | 30° |
| 2026-05-07 12:39 | 6.91635 | -27.56999 | 6979 ft | 152 kts | 30° |
| 2026-05-07 12:39 | 6.92597 | -27.56565 | 6978 ft | 151 kts | 30° |
| 2026-05-07 12:40 | 6.93559 | -27.56130 | 6978 ft | 152 kts | 30° |
| 2026-05-07 12:40 | 6.94520 | -27.55695 | 6978 ft | 152 kts | 30° |
| 2026-05-07 12:40 | 6.95482 | -27.55261 | 6979 ft | 151 kts | 30° |
| 2026-05-07 12:40 | 6.96445 | -27.54827 | 6979 ft | 151 kts | 30° |
| 2026-05-07 12:41 | 6.97407 | -27.54391 | 6982 ft | 152 kts | 30° |
| 2026-05-07 12:41 | 6.98374 | -27.53952 | 6982 ft | 153 kts | 30° |
| 2026-05-07 12:41 | 6.99340 | -27.53514 | 6981 ft | 152 kts | 30° |
| 2026-05-07 12:41 | 7.00303 | -27.53078 | 6981 ft | 152 kts | 29° |
| 2026-05-07 12:42 | 7.01272 | -27.52640 | 6979 ft | 152 kts | 29° |
| 2026-05-07 12:42 | 7.02238 | -27.52204 | 6979 ft | 152 kts | 29° |
| 2026-05-07 12:42 | 7.03204 | -27.51765 | 6979 ft | 152 kts | 29° |
| 2026-05-07 12:42 | 7.04157 | -27.51334 | 6978 ft | 152 kts | 29° |
| 2026-05-07 12:43 | 7.05125 | -27.50899 | 6978 ft | 152 kts | 29° |
| 2026-05-07 12:43 | 7.06089 | -27.50461 | 6978 ft | 152 kts | 29° |
| 2026-05-07 12:43 | 7.07055 | -27.50022 | 6979 ft | 152 kts | 29° |
| 2026-05-07 12:43 | 7.08018 | -27.49588 | 6976 ft | 151 kts | 29° |
| 2026-05-07 12:44 | 7.08982 | -27.49159 | 6977 ft | 152 kts | 30° |
| 2026-05-07 12:44 | 7.09947 | -27.48724 | 6977 ft | 152 kts | 30° |
| 2026-05-07 12:44 | 7.10907 | -27.48287 | 6978 ft | 151 kts | 30° |
| 2026-05-07 12:44 | 7.11865 | -27.47852 | 6980 ft | 151 kts | 30° |
| 2026-05-07 12:45 | 7.12825 | -27.47416 | 6980 ft | 152 kts | 30° |
| 2026-05-07 12:45 | 7.13787 | -27.46979 | 6981 ft | 152 kts | 30° |
| 2026-05-07 12:45 | 7.14423 | -27.46692 | 6983 ft | 151 kts | 30° |
| 2026-05-07 12:45 | 7.15384 | -27.46258 | 6981 ft | 151 kts | 30° |
| 2026-05-07 12:46 | 7.16344 | -27.45823 | 6978 ft | 151 kts | 30° |
| 2026-05-07 12:46 | 7.17304 | -27.45386 | 6980 ft | 151 kts | 30° |
| 2026-05-07 12:46 | 7.18260 | -27.44953 | 6977 ft | 151 kts | 30° |
| 2026-05-07 12:46 | 7.19218 | -27.44522 | 6978 ft | 151 kts | 30° |
| 2026-05-07 12:47 | 7.20175 | -27.44089 | 6978 ft | 151 kts | 30° |
| 2026-05-07 12:47 | 7.21134 | -27.43655 | 6980 ft | 151 kts | 30° |
| 2026-05-07 12:47 | 7.22093 | -27.43220 | 6979 ft | 151 kts | 30° |
| 2026-05-07 12:47 | 7.23052 | -27.42787 | 6979 ft | 151 kts | 30° |
| 2026-05-07 12:48 | 7.24010 | -27.42353 | 6982 ft | 151 kts | 30° |
| 2026-05-07 12:48 | 7.24969 | -27.41918 | 6981 ft | 152 kts | 30° |
| 2026-05-07 12:48 | 7.25928 | -27.41481 | 6981 ft | 151 kts | 30° |
| 2026-05-07 12:48 | 7.26887 | -27.41047 | 6980 ft | 151 kts | 30° |
| 2026-05-07 12:49 | 7.27848 | -27.40614 | 6979 ft | 152 kts | 30° |
| 2026-05-07 12:49 | 7.28811 | -27.40177 | 6980 ft | 151 kts | 30° |
| 2026-05-07 12:49 | 7.29770 | -27.39741 | 6980 ft | 151 kts | 30° |
| 2026-05-07 12:49 | 7.30729 | -27.39306 | 6981 ft | 152 kts | 30° |
| 2026-05-07 12:50 | 7.31692 | -27.38870 | 6983 ft | 152 kts | 30° |
| 2026-05-07 12:50 | 7.32655 | -27.38435 | 6982 ft | 151 kts | 30° |
| 2026-05-07 12:50 | 7.33616 | -27.38000 | 6981 ft | 152 kts | 30° |
| 2026-05-07 12:50 | 7.34579 | -27.37564 | 6981 ft | 152 kts | 30° |
| 2026-05-07 12:51 | 7.35532 | -27.37132 | 6983 ft | 152 kts | 30° |
| 2026-05-07 12:51 | 7.36492 | -27.36695 | 6981 ft | 151 kts | 30° |
| 2026-05-07 12:51 | 7.37454 | -27.36259 | 6980 ft | 152 kts | 30° |
| 2026-05-07 12:51 | 7.38420 | -27.35822 | 6980 ft | 152 kts | 30° |
| 2026-05-07 12:52 | 7.39386 | -27.35386 | 6981 ft | 152 kts | 30° |
| 2026-05-07 12:52 | 7.40347 | -27.34951 | 6983 ft | 152 kts | 30° |
| 2026-05-07 12:52 | 7.41308 | -27.34513 | 6980 ft | 151 kts | 30° |
| 2026-05-07 12:52 | 7.42269 | -27.34077 | 6980 ft | 151 kts | 30° |
| 2026-05-07 12:53 | 7.43232 | -27.33641 | 6981 ft | 152 kts | 30° |
| 2026-05-07 12:53 | 7.44193 | -27.33203 | 6981 ft | 152 kts | 30° |
| 2026-05-07 12:53 | 7.45154 | -27.32769 | 6982 ft | 151 kts | 30° |
| 2026-05-07 12:53 | 7.46117 | -27.32334 | 6981 ft | 152 kts | 30° |
| 2026-05-07 12:54 | 7.47080 | -27.31899 | 6983 ft | 152 kts | 30° |
| 2026-05-07 12:54 | 7.48028 | -27.31469 | 6981 ft | 151 kts | 30° |
| 2026-05-07 12:54 | 7.48987 | -27.31033 | 6981 ft | 151 kts | 30° |
| 2026-05-07 12:54 | 7.49962 | -27.30592 | 6982 ft | 152 kts | 30° |
| 2026-05-07 12:55 | 7.50911 | -27.30162 | 6983 ft | 152 kts | 30° |
| 2026-05-07 12:55 | 7.51873 | -27.29726 | 6983 ft | 151 kts | 30° |
| 2026-05-07 12:55 | 7.52834 | -27.29290 | 6982 ft | 151 kts | 30° |
| 2026-05-07 12:55 | 7.53793 | -27.28854 | 6981 ft | 151 kts | 30° |
| 2026-05-07 12:56 | 7.54754 | -27.28418 | 6986 ft | 151 kts | 30° |
| 2026-05-07 12:56 | 7.55716 | -27.27980 | 6984 ft | 152 kts | 30° |
| 2026-05-07 12:56 | 7.56678 | -27.27545 | 6983 ft | 151 kts | 30° |
| 2026-05-07 12:56 | 7.57641 | -27.27108 | 6984 ft | 152 kts | 30° |
| 2026-05-07 12:57 | 7.58604 | -27.26671 | 6983 ft | 152 kts | 30° |
| 2026-05-07 12:57 | 7.59566 | -27.26234 | 6980 ft | 152 kts | 30° |
| 2026-05-07 12:57 | 7.60527 | -27.25799 | 6983 ft | 151 kts | 30° |
| 2026-05-07 12:57 | 7.61491 | -27.25362 | 6982 ft | 152 kts | 30° |
| 2026-05-07 12:58 | 7.62453 | -27.24925 | 6981 ft | 152 kts | 30° |
| 2026-05-07 12:58 | 7.63417 | -27.24488 | 6980 ft | 152 kts | 30° |
| 2026-05-07 12:58 | 7.64383 | -27.24050 | 6981 ft | 152 kts | 30° |
| 2026-05-07 12:58 | 7.65348 | -27.23611 | 6983 ft | 152 kts | 30° |
| 2026-05-07 12:59 | 7.66309 | -27.23174 | 6981 ft | 152 kts | 30° |
| 2026-05-07 12:59 | 7.67271 | -27.22739 | 6980 ft | 152 kts | 30° |
| 2026-05-07 12:59 | 7.68221 | -27.22306 | 6980 ft | 152 kts | 30° |
| 2026-05-07 12:59 | 7.69195 | -27.21863 | 6982 ft | 152 kts | 30° |
| 2026-05-07 13:00 | 7.70157 | -27.21429 | 6981 ft | 151 kts | 30° |
| 2026-05-07 13:00 | 7.71107 | -27.20998 | 6983 ft | 151 kts | 30° |
| 2026-05-07 13:00 | 7.72069 | -27.20561 | 6983 ft | 152 kts | 30° |
| 2026-05-07 13:00 | 7.73031 | -27.20126 | 6985 ft | 152 kts | 30° |
| 2026-05-07 13:01 | 7.73992 | -27.19690 | 6982 ft | 152 kts | 30° |
| 2026-05-07 13:01 | 7.74957 | -27.19250 | 6983 ft | 152 kts | 30° |
| 2026-05-07 13:01 | 7.75921 | -27.18813 | 6981 ft | 152 kts | 30° |
| 2026-05-07 13:01 | 7.76884 | -27.18375 | 6979 ft | 152 kts | 30° |
| 2026-05-07 13:02 | 7.77846 | -27.17939 | 6980 ft | 151 kts | 30° |
| 2026-05-07 13:02 | 7.78806 | -27.17503 | 6982 ft | 151 kts | 30° |
| 2026-05-07 13:02 | 7.79766 | -27.17066 | 6982 ft | 151 kts | 30° |
| 2026-05-07 13:02 | 7.80729 | -27.16628 | 6980 ft | 151 kts | 30° |
| 2026-05-07 13:03 | 7.81691 | -27.16191 | 6986 ft | 152 kts | 30° |
| 2026-05-07 13:03 | 7.82654 | -27.15753 | 6981 ft | 152 kts | 30° |
| 2026-05-07 13:03 | 7.83617 | -27.15319 | 6978 ft | 152 kts | 30° |
| 2026-05-07 13:03 | 7.84579 | -27.14882 | 6980 ft | 152 kts | 30° |
| 2026-05-07 13:04 | 7.85541 | -27.14446 | 6976 ft | 151 kts | 30° |
| 2026-05-07 13:04 | 7.86500 | -27.14010 | 6979 ft | 151 kts | 30° |
| 2026-05-07 13:04 | 7.87459 | -27.13573 | 6979 ft | 151 kts | 30° |
| 2026-05-07 13:04 | 7.88422 | -27.13136 | 6979 ft | 152 kts | 30° |
| 2026-05-07 13:05 | 7.89388 | -27.12698 | 6978 ft | 152 kts | 30° |
| 2026-05-07 13:05 | 7.90336 | -27.12267 | 6978 ft | 152 kts | 30° |
| 2026-05-07 13:05 | 7.91300 | -27.11829 | 6979 ft | 152 kts | 30° |
| 2026-05-07 13:05 | 7.92262 | -27.11391 | 6977 ft | 151 kts | 30° |
| 2026-05-07 13:06 | 7.93221 | -27.10952 | 6983 ft | 151 kts | 30° |
| 2026-05-07 13:06 | 7.94183 | -27.10514 | 6981 ft | 152 kts | 30° |
| 2026-05-07 13:06 | 7.95145 | -27.10078 | 6982 ft | 151 kts | 30° |
| 2026-05-07 13:06 | 7.96105 | -27.09643 | 6980 ft | 151 kts | 30° |
| 2026-05-07 13:07 | 7.97067 | -27.09205 | 6980 ft | 152 kts | 30° |
| 2026-05-07 13:07 | 7.98029 | -27.08767 | 6984 ft | 152 kts | 30° |
| 2026-05-07 13:07 | 7.98994 | -27.08332 | 6980 ft | 152 kts | 30° |
| 2026-05-07 13:07 | 7.99956 | -27.07893 | 6980 ft | 152 kts | 30° |
| 2026-05-07 13:08 | 8.00919 | -27.07454 | 6979 ft | 152 kts | 30° |
| 2026-05-07 13:08 | 8.01883 | -27.07017 | 6980 ft | 151 kts | 30° |
| 2026-05-07 13:08 | 8.02843 | -27.06580 | 6981 ft | 152 kts | 30° |
| 2026-05-07 13:08 | 8.03807 | -27.06140 | 6983 ft | 152 kts | 30° |
| 2026-05-07 13:09 | 8.04771 | -27.05701 | 6984 ft | 152 kts | 30° |
| 2026-05-07 13:09 | 8.05736 | -27.05264 | 6981 ft | 152 kts | 30° |
| 2026-05-07 13:09 | 8.06687 | -27.04832 | 6982 ft | 152 kts | 30° |
| 2026-05-07 13:09 | 8.07648 | -27.04395 | 6980 ft | 151 kts | 30° |
| 2026-05-07 13:10 | 8.08611 | -27.03957 | 6983 ft | 152 kts | 30° |
| 2026-05-07 13:10 | 8.09574 | -27.03518 | 6981 ft | 152 kts | 30° |
| 2026-05-07 13:10 | 8.10538 | -27.03080 | 6982 ft | 152 kts | 30° |
| 2026-05-07 13:10 | 8.11501 | -27.02642 | 6980 ft | 152 kts | 30° |
| 2026-05-07 13:11 | 8.12468 | -27.02207 | 6981 ft | 152 kts | 30° |
| 2026-05-07 13:11 | 8.13433 | -27.01768 | 6983 ft | 152 kts | 30° |
| 2026-05-07 13:11 | 8.14395 | -27.01327 | 6981 ft | 152 kts | 30° |
| 2026-05-07 13:11 | 8.15361 | -27.00888 | 6981 ft | 152 kts | 30° |
| 2026-05-07 13:12 | 8.16328 | -27.00448 | 6981 ft | 152 kts | 30° |
| 2026-05-07 13:12 | 8.17293 | -27.00009 | 6980 ft | 153 kts | 30° |
| 2026-05-07 13:12 | 8.18262 | -26.99568 | 6980 ft | 152 kts | 30° |
| 2026-05-07 13:12 | 8.19226 | -26.99128 | 6980 ft | 152 kts | 30° |
| 2026-05-07 13:13 | 8.20188 | -26.98690 | 6983 ft | 152 kts | 30° |
| 2026-05-07 13:13 | 8.21152 | -26.98252 | 6983 ft | 152 kts | 30° |
| 2026-05-07 13:13 | 8.22119 | -26.97812 | 6983 ft | 152 kts | 30° |
| 2026-05-07 13:13 | 8.23085 | -26.97373 | 6983 ft | 152 kts | 30° |
| 2026-05-07 13:14 | 8.24048 | -26.96934 | 6986 ft | 152 kts | 30° |
| 2026-05-07 13:14 | 8.25010 | -26.96494 | 6983 ft | 152 kts | 30° |
| 2026-05-07 13:14 | 8.25976 | -26.96054 | 6984 ft | 153 kts | 30° |
| 2026-05-07 13:14 | 8.26943 | -26.95614 | 6983 ft | 152 kts | 30° |
| 2026-05-07 13:15 | 8.27908 | -26.95175 | 6980 ft | 152 kts | 30° |
| 2026-05-07 13:15 | 8.28875 | -26.94736 | 6983 ft | 153 kts | 30° |
| 2026-05-07 13:15 | 8.29831 | -26.94300 | 6980 ft | 153 kts | 30° |
| 2026-05-07 13:15 | 8.30809 | -26.93853 | 6983 ft | 152 kts | 30° |
| 2026-05-07 13:16 | 8.31761 | -26.93419 | 6980 ft | 152 kts | 30° |
| 2026-05-07 13:16 | 8.32730 | -26.92979 | 6980 ft | 153 kts | 30° |
| 2026-05-07 13:16 | 8.33697 | -26.92539 | 6982 ft | 153 kts | 30° |
| 2026-05-07 13:16 | 8.34667 | -26.92096 | 6981 ft | 153 kts | 30° |
| 2026-05-07 13:17 | 8.35635 | -26.91654 | 6983 ft | 153 kts | 30° |
| 2026-05-07 13:17 | 8.36604 | -26.91214 | 6982 ft | 153 kts | 30° |
| 2026-05-07 13:17 | 8.37571 | -26.90776 | 6982 ft | 152 kts | 30° |
| 2026-05-07 13:17 | 8.38537 | -26.90336 | 6982 ft | 152 kts | 30° |
| 2026-05-07 13:18 | 8.39503 | -26.89894 | 6985 ft | 152 kts | 30° |
| 2026-05-07 13:18 | 8.40469 | -26.89454 | 6983 ft | 152 kts | 30° |
| 2026-05-07 13:18 | 8.41433 | -26.89014 | 6983 ft | 152 kts | 30° |
| 2026-05-07 13:18 | 8.42397 | -26.88575 | 6984 ft | 152 kts | 30° |
| 2026-05-07 13:19 | 8.43362 | -26.88135 | 6979 ft | 152 kts | 30° |
| 2026-05-07 13:19 | 8.44328 | -26.87695 | 6981 ft | 152 kts | 30° |
| 2026-05-07 13:19 | 8.45293 | -26.87256 | 6981 ft | 152 kts | 30° |
| 2026-05-07 13:19 | 8.46259 | -26.86818 | 6980 ft | 152 kts | 30° |
| 2026-05-07 13:20 | 8.47226 | -26.86380 | 6982 ft | 152 kts | 30° |
| 2026-05-07 13:20 | 8.48192 | -26.85939 | 6983 ft | 152 kts | 30° |
| 2026-05-07 13:20 | 8.49158 | -26.85497 | 6983 ft | 152 kts | 30° |
| 2026-05-07 13:20 | 8.50125 | -26.85055 | 6983 ft | 152 kts | 30° |
| 2026-05-07 13:21 | 8.51089 | -26.84615 | 6983 ft | 152 kts | 30° |
| 2026-05-07 13:21 | 8.52054 | -26.84174 | 6983 ft | 152 kts | 30° |
| 2026-05-07 13:21 | 8.53022 | -26.83733 | 6981 ft | 153 kts | 30° |
| 2026-05-07 13:21 | 8.53989 | -26.83293 | 6980 ft | 152 kts | 31° |
| 2026-05-07 13:22 | 8.54956 | -26.82852 | 6984 ft | 152 kts | 31° |
| 2026-05-07 13:22 | 8.55908 | -26.82417 | 6984 ft | 152 kts | 31° |
| 2026-05-07 13:22 | 8.56887 | -26.81971 | 6986 ft | 152 kts | 31° |
| 2026-05-07 13:22 | 8.57841 | -26.81535 | 6985 ft | 152 kts | 31° |
| 2026-05-07 13:23 | 8.58806 | -26.81094 | 6980 ft | 152 kts | 31° |
| 2026-05-07 13:23 | 8.59770 | -26.80654 | 6980 ft | 152 kts | 31° |
| 2026-05-07 13:23 | 8.60735 | -26.80215 | 6982 ft | 152 kts | 31° |
| 2026-05-07 13:23 | 8.61700 | -26.79774 | 6982 ft | 152 kts | 31° |
| 2026-05-07 13:24 | 8.62665 | -26.79333 | 6982 ft | 152 kts | 31° |
| 2026-05-07 13:24 | 8.63632 | -26.78892 | 6982 ft | 152 kts | 30° |
| 2026-05-07 13:24 | 8.64598 | -26.78452 | 6981 ft | 153 kts | 31° |
| 2026-05-07 13:24 | 8.65566 | -26.78010 | 6980 ft | 153 kts | 30° |
| 2026-05-07 13:25 | 8.66534 | -26.77568 | 6985 ft | 153 kts | 30° |
| 2026-05-07 13:25 | 8.67503 | -26.77127 | 6982 ft | 153 kts | 31° |
| 2026-05-07 13:25 | 8.68471 | -26.76685 | 6982 ft | 153 kts | 31° |
| 2026-05-07 13:25 | 8.69438 | -26.76244 | 6982 ft | 153 kts | 31° |
| 2026-05-07 13:26 | 8.70405 | -26.75802 | 6983 ft | 153 kts | 31° |
| 2026-05-07 13:26 | 8.71374 | -26.75359 | 6984 ft | 152 kts | 31° |
| 2026-05-07 13:26 | 8.72341 | -26.74919 | 6984 ft | 152 kts | 31° |
| 2026-05-07 13:26 | 8.73305 | -26.74479 | 6983 ft | 152 kts | 31° |
| 2026-05-07 13:27 | 8.74270 | -26.74036 | 6980 ft | 152 kts | 30° |
| 2026-05-07 13:27 | 8.75225 | -26.73600 | 6981 ft | 152 kts | 30° |
| 2026-05-07 13:27 | 8.76203 | -26.73155 | 6981 ft | 152 kts | 30° |
| 2026-05-07 13:27 | 8.77153 | -26.72720 | 6981 ft | 152 kts | 30° |
| 2026-05-07 13:28 | 8.78118 | -26.72280 | 6982 ft | 152 kts | 30° |
| 2026-05-07 13:28 | 8.79085 | -26.71839 | 6983 ft | 152 kts | 30° |
| 2026-05-07 13:28 | 8.80052 | -26.71397 | 6980 ft | 152 kts | 31° |
| 2026-05-07 13:28 | 8.81021 | -26.70953 | 6985 ft | 153 kts | 30° |
| 2026-05-07 13:29 | 8.81991 | -26.70510 | 6980 ft | 153 kts | 30° |
| 2026-05-07 13:29 | 8.82962 | -26.70067 | 6980 ft | 153 kts | 30° |
| 2026-05-07 13:29 | 8.83932 | -26.69623 | 6984 ft | 153 kts | 30° |
| 2026-05-07 13:29 | 8.84904 | -26.69177 | 6981 ft | 153 kts | 30° |
| 2026-05-07 13:30 | 8.85877 | -26.68734 | 6983 ft | 153 kts | 30° |
| 2026-05-07 13:30 | 8.86853 | -26.68291 | 6985 ft | 153 kts | 30° |
| 2026-05-07 13:30 | 8.87825 | -26.67848 | 6983 ft | 153 kts | 30° |
| 2026-05-07 13:30 | 8.88794 | -26.67402 | 6985 ft | 153 kts | 30° |
| 2026-05-07 13:31 | 8.89763 | -26.66960 | 6985 ft | 153 kts | 30° |
| 2026-05-07 13:31 | 8.90733 | -26.66519 | 6984 ft | 153 kts | 30° |
| 2026-05-07 13:31 | 8.91703 | -26.66075 | 6986 ft | 153 kts | 30° |
| 2026-05-07 13:31 | 8.92674 | -26.65629 | 6986 ft | 153 kts | 30° |
| 2026-05-07 13:32 | 8.93316 | -26.65335 | 6981 ft | 153 kts | 30° |
| 2026-05-07 13:32 | 8.94286 | -26.64895 | 6985 ft | 153 kts | 30° |
| 2026-05-07 13:32 | 8.95254 | -26.64454 | 6985 ft | 153 kts | 31° |
| 2026-05-07 13:32 | 8.96537 | -26.63864 | 6986 ft | 153 kts | 30° |
| 2026-05-07 13:33 | 8.97506 | -26.63421 | 6985 ft | 153 kts | 30° |
| 2026-05-07 13:33 | 8.98475 | -26.62978 | 6983 ft | 153 kts | 30° |
| 2026-05-07 13:33 | 8.99130 | -26.62678 | 6987 ft | 153 kts | 30° |
| 2026-05-07 13:33 | 9.00102 | -26.62235 | 6985 ft | 153 kts | 30° |
| 2026-05-07 13:34 | 9.01061 | -26.61798 | 6985 ft | 153 kts | 30° |
| 2026-05-07 13:34 | 9.03000 | -26.60910 | 6985 ft | 153 kts | 30° |
| 2026-05-07 13:34 | 9.03968 | -26.60469 | 6985 ft | 153 kts | 31° |
| 2026-05-07 13:35 | 9.04939 | -26.60027 | 6984 ft | 153 kts | 31° |
| 2026-05-07 13:35 | 9.05907 | -26.59581 | 6985 ft | 153 kts | 31° |
| 2026-05-07 13:35 | 9.06874 | -26.59135 | 6984 ft | 153 kts | 30° |
| 2026-05-07 13:35 | 9.07845 | -26.58691 | 6983 ft | 154 kts | 30° |
| 2026-05-07 13:36 | 9.08819 | -26.58249 | 6988 ft | 153 kts | 31° |
| 2026-05-07 13:36 | 9.09791 | -26.57804 | 6986 ft | 153 kts | 31° |
| 2026-05-07 13:36 | 9.10759 | -26.57359 | 6987 ft | 153 kts | 30° |
| 2026-05-07 13:36 | 9.11728 | -26.56916 | 6986 ft | 153 kts | 30° |
| 2026-05-07 13:37 | 9.12701 | -26.56472 | 6982 ft | 153 kts | 30° |
| 2026-05-07 13:37 | 9.13677 | -26.56025 | 6982 ft | 154 kts | 31° |
| 2026-05-07 13:37 | 9.14648 | -26.55580 | 6984 ft | 153 kts | 31° |
| 2026-05-07 13:37 | 9.15621 | -26.55129 | 6984 ft | 154 kts | 30° |
| 2026-05-07 13:38 | 9.16594 | -26.54683 | 6983 ft | 154 kts | 30° |
| 2026-05-07 13:38 | 9.17555 | -26.54244 | 6982 ft | 154 kts | 30° |
| 2026-05-07 13:38 | 9.18532 | -26.53799 | 6983 ft | 154 kts | 30° |
| 2026-05-07 13:38 | 9.19506 | -26.53355 | 6985 ft | 153 kts | 30° |
| 2026-05-07 13:39 | 9.20477 | -26.52911 | 6982 ft | 153 kts | 30° |
| 2026-05-07 13:39 | 9.21448 | -26.52465 | 6985 ft | 153 kts | 30° |
| 2026-05-07 13:39 | 9.22424 | -26.52019 | 6986 ft | 153 kts | 30° |
| 2026-05-07 13:39 | 9.23399 | -26.51575 | 6985 ft | 153 kts | 30° |
| 2026-05-07 13:40 | 9.24373 | -26.51129 | 6987 ft | 154 kts | 30° |
| 2026-05-07 13:40 | 9.25349 | -26.50681 | 6986 ft | 154 kts | 30° |
| 2026-05-07 13:40 | 9.26327 | -26.50232 | 6986 ft | 154 kts | 30° |
| 2026-05-07 13:40 | 9.27306 | -26.49786 | 6984 ft | 155 kts | 30° |
| 2026-05-07 13:41 | 9.28272 | -26.49344 | 6986 ft | 154 kts | 30° |
| 2026-05-07 13:41 | 9.29247 | -26.48897 | 6985 ft | 154 kts | 30° |
| 2026-05-07 13:41 | 9.30224 | -26.48450 | 6984 ft | 154 kts | 30° |
| 2026-05-07 13:41 | 9.31201 | -26.48004 | 6984 ft | 154 kts | 30° |
| 2026-05-07 13:42 | 9.32174 | -26.47558 | 6983 ft | 154 kts | 30° |
| 2026-05-07 13:42 | 9.33147 | -26.47107 | 6983 ft | 154 kts | 30° |
| 2026-05-07 13:42 | 9.34123 | -26.46661 | 6984 ft | 154 kts | 30° |
| 2026-05-07 13:42 | 9.35097 | -26.46215 | 6985 ft | 154 kts | 30° |
| 2026-05-07 13:43 | 9.36074 | -26.45768 | 6983 ft | 154 kts | 30° |
| 2026-05-07 13:43 | 9.37051 | -26.45320 | 6986 ft | 154 kts | 30° |
| 2026-05-07 13:43 | 9.38029 | -26.44871 | 6983 ft | 154 kts | 30° |
| 2026-05-07 13:43 | 9.39007 | -26.44423 | 6983 ft | 154 kts | 30° |
| 2026-05-07 13:44 | 9.39986 | -26.43976 | 6985 ft | 154 kts | 30° |
| 2026-05-07 13:44 | 9.40964 | -26.43528 | 6984 ft | 154 kts | 30° |
| 2026-05-07 13:44 | 9.41940 | -26.43081 | 6984 ft | 154 kts | 30° |
| 2026-05-07 13:44 | 9.42901 | -26.42639 | 6983 ft | 154 kts | 30° |
| 2026-05-07 13:45 | 9.43879 | -26.42190 | 6983 ft | 154 kts | 30° |
| 2026-05-07 13:45 | 9.44854 | -26.41743 | 6984 ft | 154 kts | 30° |
| 2026-05-07 13:45 | 9.45829 | -26.41297 | 6984 ft | 154 kts | 30° |
| 2026-05-07 13:45 | 9.46802 | -26.40848 | 6985 ft | 153 kts | 30° |
| 2026-05-07 13:46 | 9.47777 | -26.40402 | 6986 ft | 154 kts | 30° |
| 2026-05-07 13:46 | 9.48755 | -26.39956 | 6988 ft | 154 kts | 30° |
| 2026-05-07 13:46 | 9.49731 | -26.39506 | 6986 ft | 154 kts | 30° |
| 2026-05-07 13:46 | 9.50713 | -26.39054 | 6986 ft | 155 kts | 30° |
| 2026-05-07 13:47 | 9.51698 | -26.38600 | 6989 ft | 155 kts | 30° |
| 2026-05-07 13:47 | 9.52682 | -26.38147 | 6989 ft | 155 kts | 30° |
| 2026-05-07 13:47 | 9.53656 | -26.37702 | 6988 ft | 155 kts | 30° |
| 2026-05-07 13:47 | 9.54640 | -26.37253 | 6987 ft | 155 kts | 30° |
| 2026-05-07 13:48 | 9.55623 | -26.36803 | 6982 ft | 155 kts | 30° |
| 2026-05-07 13:48 | 9.56603 | -26.36354 | 6983 ft | 155 kts | 30° |
| 2026-05-07 13:48 | 9.57583 | -26.35904 | 6983 ft | 155 kts | 30° |
| 2026-05-07 13:48 | 9.58564 | -26.35458 | 6984 ft | 155 kts | 30° |
| 2026-05-07 13:49 | 9.59543 | -26.35008 | 6985 ft | 155 kts | 30° |
| 2026-05-07 13:49 | 9.60523 | -26.34554 | 6984 ft | 155 kts | 30° |
| 2026-05-07 13:49 | 9.61506 | -26.34102 | 6983 ft | 155 kts | 30° |
| 2026-05-07 13:49 | 9.62487 | -26.33651 | 6984 ft | 155 kts | 30° |
| 2026-05-07 13:50 | 9.63465 | -26.33201 | 6989 ft | 155 kts | 30° |
| 2026-05-07 13:50 | 9.64452 | -26.32751 | 6988 ft | 155 kts | 30° |
| 2026-05-07 13:50 | 9.65434 | -26.32301 | 6986 ft | 155 kts | 30° |
| 2026-05-07 13:50 | 9.66417 | -26.31851 | 6986 ft | 155 kts | 30° |
| 2026-05-07 13:51 | 9.67388 | -26.31404 | 6984 ft | 155 kts | 30° |
| 2026-05-07 13:51 | 9.68369 | -26.30954 | 6985 ft | 154 kts | 30° |
| 2026-05-07 13:51 | 9.69349 | -26.30504 | 6985 ft | 155 kts | 30° |
| 2026-05-07 13:51 | 9.70328 | -26.30051 | 6987 ft | 155 kts | 30° |
| 2026-05-07 13:52 | 9.71310 | -26.29600 | 6984 ft | 155 kts | 30° |
| 2026-05-07 13:52 | 9.72287 | -26.29153 | 6984 ft | 154 kts | 30° |
| 2026-05-07 13:52 | 9.73265 | -26.28702 | 6984 ft | 155 kts | 30° |
| 2026-05-07 13:52 | 9.74248 | -26.28250 | 6985 ft | 155 kts | 30° |
| 2026-05-07 13:53 | 9.75232 | -26.27799 | 6985 ft | 155 kts | 30° |
| 2026-05-07 13:53 | 9.76215 | -26.27347 | 6983 ft | 155 kts | 30° |
| 2026-05-07 13:53 | 9.77201 | -26.26894 | 6985 ft | 155 kts | 30° |
| 2026-05-07 13:53 | 9.78185 | -26.26442 | 6983 ft | 155 kts | 30° |
| 2026-05-07 13:54 | 9.79168 | -26.25990 | 6983 ft | 155 kts | 30° |
| 2026-05-07 13:54 | 9.80150 | -26.25537 | 6983 ft | 155 kts | 30° |
| 2026-05-07 13:54 | 9.81132 | -26.25085 | 6982 ft | 155 kts | 30° |
| 2026-05-07 13:54 | 9.82115 | -26.24634 | 6984 ft | 155 kts | 30° |
| 2026-05-07 13:55 | 9.83095 | -26.24181 | 6990 ft | 155 kts | 30° |
| 2026-05-07 13:55 | 9.84078 | -26.23731 | 6989 ft | 155 kts | 30° |
| 2026-05-07 13:55 | 9.85063 | -26.23280 | 6987 ft | 155 kts | 30° |
| 2026-05-07 13:55 | 9.86043 | -26.22828 | 6986 ft | 154 kts | 30° |
| 2026-05-07 13:56 | 9.87011 | -26.22387 | 6982 ft | 155 kts | 30° |
| 2026-05-07 13:56 | 9.87994 | -26.21938 | 6985 ft | 155 kts | 30° |
| 2026-05-07 13:56 | 9.88975 | -26.21483 | 6983 ft | 155 kts | 30° |
| 2026-05-07 13:56 | 9.89957 | -26.21031 | 6984 ft | 155 kts | 30° |
| 2026-05-07 13:57 | 9.90939 | -26.20581 | 6988 ft | 155 kts | 30° |
| 2026-05-07 13:57 | 9.91921 | -26.20130 | 6989 ft | 155 kts | 30° |
| 2026-05-07 13:57 | 9.92901 | -26.19677 | 6991 ft | 155 kts | 30° |
| 2026-05-07 13:57 | 9.93884 | -26.19224 | 6988 ft | 155 kts | 30° |
| 2026-05-07 13:58 | 9.94865 | -26.18773 | 6990 ft | 155 kts | 30° |
| 2026-05-07 13:58 | 9.95848 | -26.18323 | 6988 ft | 155 kts | 30° |
| 2026-05-07 13:58 | 9.96832 | -26.17872 | 6991 ft | 155 kts | 30° |
| 2026-05-07 13:58 | 9.97813 | -26.17417 | 6988 ft | 155 kts | 30° |
| 2026-05-07 13:59 | 9.98799 | -26.16966 | 6990 ft | 155 kts | 30° |
| 2026-05-07 13:59 | 9.99784 | -26.16514 | 6989 ft | 155 kts | 30° |
| 2026-05-07 13:59 | 10.00764 | -26.16058 | 6992 ft | 155 kts | 30° |
| 2026-05-07 13:59 | 10.01753 | -26.15604 | 6989 ft | 156 kts | 30° |
| 2026-05-07 14:00 | 10.02741 | -26.15145 | 6989 ft | 156 kts | 30° |
| 2026-05-07 14:00 | 10.03715 | -26.14698 | 6991 ft | 156 kts | 30° |
| 2026-05-07 14:00 | 10.04702 | -26.14247 | 6991 ft | 155 kts | 30° |
| 2026-05-07 14:00 | 10.05689 | -26.13794 | 6991 ft | 156 kts | 30° |
| 2026-05-07 14:01 | 10.06677 | -26.13339 | 6991 ft | 156 kts | 30° |
| 2026-05-07 14:01 | 10.07663 | -26.12880 | 6991 ft | 156 kts | 30° |
| 2026-05-07 14:01 | 10.08651 | -26.12425 | 6991 ft | 155 kts | 30° |
| 2026-05-07 14:01 | 10.09634 | -26.11975 | 6991 ft | 155 kts | 30° |
| 2026-05-07 14:02 | 10.10620 | -26.11523 | 6990 ft | 156 kts | 30° |
| 2026-05-07 14:02 | 10.11605 | -26.11066 | 6990 ft | 155 kts | 30° |
| 2026-05-07 14:02 | 10.12584 | -26.10615 | 6988 ft | 155 kts | 30° |
| 2026-05-07 14:02 | 10.13565 | -26.10163 | 6990 ft | 155 kts | 30° |
| 2026-05-07 14:03 | 10.14551 | -26.09711 | 6990 ft | 156 kts | 30° |
| 2026-05-07 14:03 | 10.15534 | -26.09256 | 6990 ft | 155 kts | 30° |
| 2026-05-07 14:03 | 10.16517 | -26.08802 | 6988 ft | 155 kts | 30° |
| 2026-05-07 14:03 | 10.17501 | -26.08351 | 6991 ft | 155 kts | 30° |
| 2026-05-07 14:04 | 10.18483 | -26.07895 | 6985 ft | 156 kts | 30° |
| 2026-05-07 14:04 | 10.19466 | -26.07434 | 6987 ft | 156 kts | 30° |
| 2026-05-07 14:04 | 10.20460 | -26.06980 | 6987 ft | 156 kts | 29° |
| 2026-05-07 14:04 | 10.21452 | -26.06528 | 6986 ft | 156 kts | 29° |
| 2026-05-07 14:05 | 10.22436 | -26.06076 | 6988 ft | 155 kts | 29° |
| 2026-05-07 14:05 | 10.23421 | -26.05624 | 6988 ft | 156 kts | 29° |
| 2026-05-07 14:05 | 10.24409 | -26.05171 | 6988 ft | 156 kts | 30° |
| 2026-05-07 14:05 | 10.25396 | -26.04715 | 6990 ft | 156 kts | 30° |
| 2026-05-07 14:06 | 10.26384 | -26.04256 | 6990 ft | 156 kts | 30° |
| 2026-05-07 14:06 | 10.27374 | -26.03802 | 6990 ft | 156 kts | 30° |
| 2026-05-07 14:06 | 10.28364 | -26.03347 | 6989 ft | 156 kts | 30° |
| 2026-05-07 14:06 | 10.29354 | -26.02887 | 6989 ft | 156 kts | 30° |
| 2026-05-07 14:07 | 10.30342 | -26.02430 | 6987 ft | 156 kts | 30° |
| 2026-05-07 14:07 | 10.31332 | -26.01976 | 6987 ft | 156 kts | 30° |
| 2026-05-07 14:07 | 10.32324 | -26.01520 | 6987 ft | 157 kts | 30° |
| 2026-05-07 14:07 | 10.33315 | -26.01063 | 6987 ft | 156 kts | 30° |
| 2026-05-07 14:08 | 10.34305 | -26.00604 | 6988 ft | 156 kts | 30° |
| 2026-05-07 14:08 | 10.35297 | -26.00147 | 6988 ft | 156 kts | 30° |
| 2026-05-07 14:08 | 10.36273 | -25.99697 | 6987 ft | 156 kts | 30° |
| 2026-05-07 14:08 | 10.37276 | -25.99233 | 6987 ft | 157 kts | 30° |
| 2026-05-07 14:09 | 10.38259 | -25.98780 | 6987 ft | 157 kts | 30° |
| 2026-05-07 14:09 | 10.39252 | -25.98322 | 6987 ft | 156 kts | 30° |
| 2026-05-07 14:09 | 10.40244 | -25.97864 | 6986 ft | 157 kts | 29° |
| 2026-05-07 14:09 | 10.41238 | -25.97408 | 6987 ft | 157 kts | 30° |
| 2026-05-07 14:10 | 10.42230 | -25.96948 | 6987 ft | 157 kts | 30° |
| 2026-05-07 14:10 | 10.43222 | -25.96487 | 6987 ft | 156 kts | 30° |
| 2026-05-07 14:10 | 10.44213 | -25.96031 | 6987 ft | 156 kts | 30° |
| 2026-05-07 14:10 | 10.45203 | -25.95574 | 6987 ft | 156 kts | 30° |
| 2026-05-07 14:11 | 10.46192 | -25.95116 | 6990 ft | 156 kts | 30° |
| 2026-05-07 14:11 | 10.47183 | -25.94656 | 6990 ft | 156 kts | 30° |
| 2026-05-07 14:11 | 10.48173 | -25.94201 | 6990 ft | 156 kts | 30° |
| 2026-05-07 14:11 | 10.49158 | -25.93748 | 6989 ft | 156 kts | 30° |
| 2026-05-07 14:12 | 10.50145 | -25.93291 | 6991 ft | 156 kts | 30° |
| 2026-05-07 14:12 | 10.51135 | -25.92834 | 6990 ft | 156 kts | 30° |
| 2026-05-07 14:12 | 10.52124 | -25.92378 | 6990 ft | 156 kts | 30° |
| 2026-05-07 14:12 | 10.53113 | -25.91921 | 6985 ft | 156 kts | 30° |
| 2026-05-07 14:13 | 10.54106 | -25.91461 | 6988 ft | 157 kts | 29° |
| 2026-05-07 14:13 | 10.55102 | -25.91000 | 6988 ft | 157 kts | 29° |
| 2026-05-07 14:13 | 10.56108 | -25.90561 | 6980 ft | 158 kts | 28° |
| 2026-05-07 14:13 | 10.57103 | -25.90100 | 6981 ft | 156 kts | 30° |
| 2026-05-07 14:14 | 10.58085 | -25.89628 | 6984 ft | 156 kts | 30° |
| 2026-05-07 14:14 | 10.59052 | -25.89170 | 6986 ft | 155 kts | 30° |
| 2026-05-07 14:14 | 10.60033 | -25.88716 | 6985 ft | 155 kts | 30° |
| 2026-05-07 14:14 | 10.61013 | -25.88259 | 6988 ft | 154 kts | 29° |
| 2026-05-07 14:15 | 10.61997 | -25.87809 | 6987 ft | 155 kts | 29° |
| 2026-05-07 14:15 | 10.62983 | -25.87356 | 6987 ft | 156 kts | 29° |
| 2026-05-07 14:15 | 10.63971 | -25.86897 | 6989 ft | 156 kts | 29° |
| 2026-05-07 14:15 | 10.64962 | -25.86441 | 6987 ft | 156 kts | 29° |
| 2026-05-07 14:16 | 10.65954 | -25.85983 | 6985 ft | 156 kts | 29° |
| 2026-05-07 14:16 | 10.66947 | -25.85527 | 6987 ft | 157 kts | 29° |
| 2026-05-07 14:16 | 10.67941 | -25.85068 | 6985 ft | 157 kts | 29° |
| 2026-05-07 14:16 | 10.68931 | -25.84609 | 6984 ft | 157 kts | 29° |
| 2026-05-07 14:17 | 10.69925 | -25.84150 | 6987 ft | 157 kts | 29° |
| 2026-05-07 14:17 | 10.70917 | -25.83691 | 6986 ft | 156 kts | 29° |
| 2026-05-07 14:17 | 10.71907 | -25.83233 | 6988 ft | 157 kts | 29° |
| 2026-05-07 14:17 | 10.72899 | -25.82774 | 6985 ft | 156 kts | 29° |
| 2026-05-07 14:18 | 10.73889 | -25.82314 | 6987 ft | 157 kts | 29° |
| 2026-05-07 14:18 | 10.74886 | -25.81856 | 6986 ft | 157 kts | 29° |
| 2026-05-07 14:18 | 10.75880 | -25.81396 | 6986 ft | 157 kts | 29° |
| 2026-05-07 14:18 | 10.76874 | -25.80937 | 6986 ft | 157 kts | 29° |
| 2026-05-07 14:19 | 10.77867 | -25.80480 | 6986 ft | 157 kts | 29° |
| 2026-05-07 14:19 | 10.78862 | -25.80018 | 6987 ft | 157 kts | 29° |
| 2026-05-07 14:19 | 10.79857 | -25.79558 | 6987 ft | 157 kts | 29° |
| 2026-05-07 14:19 | 10.80852 | -25.79098 | 6987 ft | 157 kts | 29° |
| 2026-05-07 14:20 | 10.81846 | -25.78639 | 6987 ft | 157 kts | 29° |
| 2026-05-07 14:20 | 10.82503 | -25.78334 | 6987 ft | 157 kts | 29° |
| 2026-05-07 14:20 | 10.83495 | -25.77873 | 6987 ft | 157 kts | 29° |
| 2026-05-07 14:20 | 10.84490 | -25.77413 | 6986 ft | 157 kts | 29° |
| 2026-05-07 14:21 | 10.85486 | -25.76951 | 6986 ft | 157 kts | 29° |
| 2026-05-07 14:21 | 10.86480 | -25.76490 | 6987 ft | 157 kts | 29° |
| 2026-05-07 14:21 | 10.87476 | -25.76029 | 6987 ft | 157 kts | 29° |
| 2026-05-07 14:21 | 10.88470 | -25.75561 | 6986 ft | 158 kts | 29° |
| 2026-05-07 14:22 | 10.89811 | -25.74942 | 6986 ft | 158 kts | 29° |
| 2026-05-07 14:22 | 10.90471 | -25.74635 | 6986 ft | 158 kts | 29° |
| 2026-05-07 14:22 | 10.91470 | -25.74173 | 6986 ft | 157 kts | 29° |
| 2026-05-07 14:22 | 10.92467 | -25.73711 | 6986 ft | 157 kts | 28° |
| 2026-05-07 14:23 | 10.93465 | -25.73251 | 6986 ft | 157 kts | 28° |
| 2026-05-07 14:23 | 10.94462 | -25.72793 | 6986 ft | 157 kts | 29° |
| 2026-05-07 14:23 | 10.95458 | -25.72332 | 6988 ft | 157 kts | 29° |
| 2026-05-07 14:23 | 10.96455 | -25.71868 | 6986 ft | 157 kts | 29° |
| 2026-05-07 14:24 | 10.97449 | -25.71404 | 6987 ft | 157 kts | 28° |
| 2026-05-07 14:24 | 10.98447 | -25.70941 | 6988 ft | 158 kts | 28° |
| 2026-05-07 14:24 | 10.99434 | -25.70487 | 6987 ft | 158 kts | 28° |
| 2026-05-07 14:24 | 11.00431 | -25.70024 | 6988 ft | 157 kts | 28° |
| 2026-05-07 14:25 | 11.01430 | -25.69564 | 6984 ft | 158 kts | 28° |
| 2026-05-07 14:25 | 11.02429 | -25.69103 | 6984 ft | 157 kts | 29° |
| 2026-05-07 14:25 | 11.03428 | -25.68640 | 6984 ft | 158 kts | 29° |
| 2026-05-07 14:25 | 11.04426 | -25.68175 | 6983 ft | 158 kts | 29° |
| 2026-05-07 14:26 | 11.05422 | -25.67713 | 6985 ft | 158 kts | 29° |
| 2026-05-07 14:26 | 11.06422 | -25.67249 | 6985 ft | 158 kts | 29° |
| 2026-05-07 14:26 | 11.07420 | -25.66786 | 6984 ft | 158 kts | 29° |
| 2026-05-07 14:26 | 11.08424 | -25.66321 | 6984 ft | 158 kts | 29° |
| 2026-05-07 14:27 | 11.09424 | -25.65857 | 6982 ft | 158 kts | 29° |
| 2026-05-07 14:27 | 11.10427 | -25.65393 | 6983 ft | 158 kts | 29° |
| 2026-05-07 14:27 | 11.11427 | -25.64929 | 6984 ft | 158 kts | 29° |
| 2026-05-07 14:27 | 11.12427 | -25.64462 | 6984 ft | 158 kts | 29° |
| 2026-05-07 14:28 | 11.13424 | -25.63999 | 6987 ft | 157 kts | 28° |
| 2026-05-07 14:28 | 11.14422 | -25.63536 | 6987 ft | 158 kts | 28° |
| 2026-05-07 14:28 | 11.15421 | -25.63072 | 6987 ft | 157 kts | 28° |
| 2026-05-07 14:28 | 11.16418 | -25.62610 | 6987 ft | 158 kts | 29° |
| 2026-05-07 14:29 | 11.17416 | -25.62145 | 6985 ft | 158 kts | 28° |
| 2026-05-07 14:29 | 11.18415 | -25.61683 | 6985 ft | 158 kts | 28° |
| 2026-05-07 14:29 | 11.19414 | -25.61217 | 6984 ft | 158 kts | 28° |
| 2026-05-07 14:29 | 11.20411 | -25.60755 | 6984 ft | 157 kts | 28° |
| 2026-05-07 14:30 | 11.21408 | -25.60294 | 6984 ft | 158 kts | 28° |
| 2026-05-07 14:30 | 11.22409 | -25.59830 | 6982 ft | 158 kts | 28° |
| 2026-05-07 14:30 | 11.23411 | -25.59364 | 6984 ft | 158 kts | 28° |
| 2026-05-07 14:30 | 11.24416 | -25.58898 | 6984 ft | 159 kts | 28° |
| 2026-05-07 14:31 | 11.25420 | -25.58432 | 6986 ft | 159 kts | 28° |
| 2026-05-07 14:31 | 11.26423 | -25.57962 | 6984 ft | 159 kts | 28° |
| 2026-05-07 14:31 | 11.27416 | -25.57502 | 6984 ft | 159 kts | 28° |
| 2026-05-07 14:31 | 11.28423 | -25.57034 | 6985 ft | 159 kts | 28° |
| 2026-05-07 14:32 | 11.29432 | -25.56567 | 6983 ft | 159 kts | 28° |
| 2026-05-07 14:32 | 11.30439 | -25.56100 | 6981 ft | 159 kts | 28° |
| 2026-05-07 14:32 | 11.31448 | -25.55633 | 6981 ft | 159 kts | 28° |
| 2026-05-07 14:32 | 11.32451 | -25.55165 | 6981 ft | 158 kts | 28° |
| 2026-05-07 14:33 | 11.33452 | -25.54700 | 6984 ft | 158 kts | 28° |
| 2026-05-07 14:33 | 11.34452 | -25.54235 | 6984 ft | 158 kts | 28° |
| 2026-05-07 14:33 | 11.35451 | -25.53768 | 6985 ft | 158 kts | 28° |
| 2026-05-07 14:33 | 11.36454 | -25.53303 | 6984 ft | 158 kts | 28° |
| 2026-05-07 14:34 | 11.37455 | -25.52835 | 6982 ft | 158 kts | 28° |
| 2026-05-07 14:34 | 11.38446 | -25.52377 | 6984 ft | 158 kts | 28° |
| 2026-05-07 14:34 | 11.39447 | -25.51913 | 6984 ft | 158 kts | 28° |
| 2026-05-07 14:34 | 11.40449 | -25.51448 | 6984 ft | 158 kts | 28° |
| 2026-05-07 14:35 | 11.41450 | -25.50983 | 6986 ft | 159 kts | 28° |
| 2026-05-07 14:35 | 11.42454 | -25.50516 | 6985 ft | 158 kts | 28° |
| 2026-05-07 14:35 | 11.43457 | -25.50048 | 6984 ft | 159 kts | 28° |
| 2026-05-07 14:35 | 11.44464 | -25.49582 | 6984 ft | 159 kts | 28° |
| 2026-05-07 14:36 | 11.45472 | -25.49115 | 6981 ft | 159 kts | 28° |
| 2026-05-07 14:36 | 11.46478 | -25.48648 | 6981 ft | 159 kts | 28° |
| 2026-05-07 14:36 | 11.47485 | -25.48179 | 6981 ft | 159 kts | 28° |
| 2026-05-07 14:36 | 11.48490 | -25.47708 | 6981 ft | 159 kts | 28° |
| 2026-05-07 14:37 | 11.49495 | -25.47242 | 6982 ft | 159 kts | 28° |
| 2026-05-07 14:37 | 11.51509 | -25.46303 | 6982 ft | 159 kts | 28° |
| 2026-05-07 14:37 | 11.52515 | -25.45834 | 6981 ft | 159 kts | 28° |
| 2026-05-07 14:38 | 11.53520 | -25.45367 | 6982 ft | 159 kts | 28° |
| 2026-05-07 14:38 | 11.54525 | -25.44898 | 6981 ft | 159 kts | 28° |
| 2026-05-07 14:38 | 11.55530 | -25.44433 | 6981 ft | 158 kts | 28° |
| 2026-05-07 14:38 | 11.56531 | -25.43962 | 6981 ft | 159 kts | 28° |
| 2026-05-07 14:39 | 11.57535 | -25.43496 | 6982 ft | 159 kts | 28° |
| 2026-05-07 14:39 | 11.58542 | -25.43025 | 6982 ft | 159 kts | 28° |
| 2026-05-07 14:39 | 11.59535 | -25.42562 | 6981 ft | 159 kts | 28° |
| 2026-05-07 14:39 | 11.60554 | -25.42090 | 6981 ft | 159 kts | 28° |
| 2026-05-07 14:40 | 11.61547 | -25.41631 | 6981 ft | 158 kts | 28° |
| 2026-05-07 14:40 | 11.62553 | -25.41167 | 6981 ft | 159 kts | 28° |
| 2026-05-07 14:40 | 11.63558 | -25.40697 | 6981 ft | 159 kts | 28° |
| 2026-05-07 14:40 | 11.64560 | -25.40227 | 6981 ft | 159 kts | 28° |
| 2026-05-07 14:41 | 11.65570 | -25.39756 | 6983 ft | 159 kts | 28° |
| 2026-05-07 14:41 | 11.66576 | -25.39292 | 6982 ft | 159 kts | 28° |
| 2026-05-07 14:41 | 11.67584 | -25.38818 | 6979 ft | 160 kts | 28° |
| 2026-05-07 14:41 | 11.68595 | -25.38348 | 6978 ft | 159 kts | 28° |
| 2026-05-07 14:42 | 11.69603 | -25.37876 | 6977 ft | 159 kts | 28° |
| 2026-05-07 14:42 | 11.70607 | -25.37403 | 6978 ft | 159 kts | 28° |
| 2026-05-07 14:42 | 11.71611 | -25.36936 | 6981 ft | 159 kts | 28° |
| 2026-05-07 14:42 | 11.72619 | -25.36469 | 6981 ft | 159 kts | 28° |
| 2026-05-07 14:43 | 11.73623 | -25.35998 | 6979 ft | 159 kts | 28° |
| 2026-05-07 14:43 | 11.74630 | -25.35531 | 6979 ft | 159 kts | 28° |
| 2026-05-07 14:43 | 11.75637 | -25.35067 | 6979 ft | 159 kts | 28° |
| 2026-05-07 14:43 | 11.76645 | -25.34601 | 6978 ft | 159 kts | 28° |
| 2026-05-07 14:44 | 11.77650 | -25.34129 | 6983 ft | 159 kts | 28° |
| 2026-05-07 14:44 | 11.78655 | -25.33660 | 6982 ft | 159 kts | 28° |
| 2026-05-07 14:44 | 11.79658 | -25.33187 | 6981 ft | 159 kts | 28° |
| 2026-05-07 14:44 | 11.80662 | -25.32713 | 6981 ft | 159 kts | 28° |
| 2026-05-07 14:45 | 11.81668 | -25.32243 | 6980 ft | 159 kts | 28° |
| 2026-05-07 14:45 | 11.82663 | -25.31783 | 6982 ft | 159 kts | 28° |
| 2026-05-07 14:45 | 11.83669 | -25.31312 | 6982 ft | 159 kts | 28° |
| 2026-05-07 14:45 | 11.84679 | -25.30842 | 6982 ft | 159 kts | 28° |
| 2026-05-07 14:46 | 11.85685 | -25.30369 | 6979 ft | 159 kts | 28° |
| 2026-05-07 14:46 | 11.86700 | -25.29903 | 6979 ft | 159 kts | 28° |
| 2026-05-07 14:46 | 11.87713 | -25.29439 | 6979 ft | 160 kts | 28° |
| 2026-05-07 14:46 | 11.88725 | -25.28966 | 6979 ft | 159 kts | 28° |
| 2026-05-07 14:47 | 11.89735 | -25.28498 | 6979 ft | 159 kts | 28° |
| 2026-05-07 14:47 | 11.90740 | -25.28023 | 6978 ft | 159 kts | 28° |
| 2026-05-07 14:47 | 11.91737 | -25.27557 | 6976 ft | 159 kts | 28° |
| 2026-05-07 14:47 | 11.92745 | -25.27082 | 6978 ft | 160 kts | 28° |
| 2026-05-07 14:48 | 11.93754 | -25.26607 | 6978 ft | 160 kts | 28° |
| 2026-05-07 14:48 | 11.94764 | -25.26130 | 6979 ft | 159 kts | 28° |
| 2026-05-07 14:48 | 11.95774 | -25.25658 | 6979 ft | 160 kts | 28° |
| 2026-05-07 14:48 | 11.96788 | -25.25192 | 6979 ft | 160 kts | 28° |
| 2026-05-07 14:49 | 11.97804 | -25.24722 | 6979 ft | 160 kts | 27° |
| 2026-05-07 14:49 | 11.98818 | -25.24249 | 6978 ft | 160 kts | 28° |
| 2026-05-07 14:49 | 11.99832 | -25.23776 | 6979 ft | 160 kts | 28° |
| 2026-05-07 14:49 | 12.00843 | -25.23301 | 6979 ft | 160 kts | 28° |
| 2026-05-07 14:50 | 12.01849 | -25.22815 | 6978 ft | 160 kts | 29° |
| 2026-05-07 14:50 | 12.02860 | -25.22339 | 6978 ft | 160 kts | 27° |
| 2026-05-07 14:50 | 12.03880 | -25.21880 | 6978 ft | 160 kts | 27° |
| 2026-05-07 14:50 | 12.04898 | -25.21420 | 6978 ft | 160 kts | 28° |
| 2026-05-07 14:51 | 12.05909 | -25.20945 | 6979 ft | 160 kts | 28° |
| 2026-05-07 14:51 | 12.06905 | -25.20466 | 6978 ft | 160 kts | 28° |
| 2026-05-07 14:51 | 12.07918 | -25.19994 | 6979 ft | 160 kts | 28° |
| 2026-05-07 14:51 | 12.08933 | -25.19522 | 6979 ft | 160 kts | 28° |
| 2026-05-07 14:52 | 12.09944 | -25.19040 | 6981 ft | 160 kts | 29° |
| 2026-05-07 14:52 | 12.10958 | -25.18560 | 6979 ft | 160 kts | 27° |
| 2026-05-07 14:52 | 12.11975 | -25.18091 | 6979 ft | 161 kts | 27° |
| 2026-05-07 14:52 | 12.12990 | -25.17620 | 6981 ft | 160 kts | 28° |
| 2026-05-07 14:53 | 12.14006 | -25.17151 | 6977 ft | 160 kts | 28° |
| 2026-05-07 14:53 | 12.15018 | -25.16681 | 6977 ft | 160 kts | 28° |
| 2026-05-07 14:53 | 12.16028 | -25.16207 | 6978 ft | 159 kts | 28° |
| 2026-05-07 14:53 | 12.17035 | -25.15728 | 6978 ft | 159 kts | 28° |
| 2026-05-07 14:54 | 12.18048 | -25.15261 | 6979 ft | 159 kts | 27° |
| 2026-05-07 14:54 | 12.19056 | -25.14785 | 6978 ft | 160 kts | 28° |
| 2026-05-07 14:54 | 12.20067 | -25.14313 | 6978 ft | 159 kts | 28° |
| 2026-05-07 14:54 | 12.21078 | -25.13838 | 6979 ft | 160 kts | 28° |
| 2026-05-07 14:55 | 12.22074 | -25.13365 | 6983 ft | 161 kts | 28° |
| 2026-05-07 14:55 | 12.23085 | -25.12886 | 6982 ft | 160 kts | 28° |
| 2026-05-07 14:55 | 12.24101 | -25.12414 | 6981 ft | 160 kts | 27° |
| 2026-05-07 14:55 | 12.25117 | -25.11947 | 6981 ft | 160 kts | 27° |
| 2026-05-07 14:56 | 12.26135 | -25.11479 | 6978 ft | 160 kts | 27° |
| 2026-05-07 14:56 | 12.27148 | -25.11002 | 6980 ft | 160 kts | 28° |
| 2026-05-07 14:56 | 12.28156 | -25.10518 | 6980 ft | 160 kts | 28° |
| 2026-05-07 14:56 | 12.29157 | -25.10017 | 6980 ft | 160 kts | 30° |
| 2026-05-07 14:57 | 12.30171 | -25.09558 | 6977 ft | 160 kts | 27° |
| 2026-05-07 14:57 | 12.31184 | -25.09085 | 6978 ft | 160 kts | 29° |
| 2026-05-07 14:57 | 12.32197 | -25.08606 | 6979 ft | 161 kts | 27° |
| 2026-05-07 14:57 | 12.33225 | -25.08154 | 6979 ft | 161 kts | 27° |
| 2026-05-07 14:58 | 12.34248 | -25.07695 | 6980 ft | 160 kts | 28° |
| 2026-05-07 14:58 | 12.35260 | -25.07220 | 6979 ft | 160 kts | 28° |
| 2026-05-07 14:58 | 12.36268 | -25.06737 | 6979 ft | 160 kts | 27° |
| 2026-05-07 14:58 | 12.37285 | -25.06263 | 6979 ft | 160 kts | 28° |
| 2026-05-07 14:59 | 12.38295 | -25.05787 | 6978 ft | 160 kts | 28° |
| 2026-05-07 14:59 | 12.39305 | -25.05307 | 6978 ft | 160 kts | 28° |
| 2026-05-07 14:59 | 12.40317 | -25.04840 | 6978 ft | 160 kts | 28° |
| 2026-05-07 14:59 | 12.41327 | -25.04362 | 6979 ft | 160 kts | 30° |
| 2026-05-07 15:00 | 12.42322 | -25.03884 | 6980 ft | 161 kts | 29° |
| 2026-05-07 15:00 | 12.43332 | -25.03393 | 6981 ft | 161 kts | 29° |
| 2026-05-07 15:00 | 12.44347 | -25.02920 | 6980 ft | 160 kts | 27° |
| 2026-05-07 15:00 | 12.45369 | -25.02463 | 6983 ft | 160 kts | 27° |
| 2026-05-07 15:01 | 12.46394 | -25.02003 | 6981 ft | 161 kts | 28° |
| 2026-05-07 15:01 | 12.47408 | -25.01512 | 6977 ft | 162 kts | 29° |
| 2026-05-07 15:01 | 12.48426 | -25.01028 | 6978 ft | 162 kts | 27° |
| 2026-05-07 15:01 | 12.49449 | -25.00548 | 6979 ft | 161 kts | 26° |
| 2026-05-07 15:02 | 12.50472 | -25.00066 | 6978 ft | 162 kts | 29° |
| 2026-05-07 15:02 | 12.51491 | -24.99576 | 6978 ft | 162 kts | 28° |
| 2026-05-07 15:02 | 12.52505 | -24.99085 | 6979 ft | 161 kts | 29° |
| 2026-05-07 15:02 | 12.53528 | -24.98605 | 6978 ft | 161 kts | 26° |
| 2026-05-07 15:03 | 12.54561 | -24.98148 | 6979 ft | 161 kts | 28° |
| 2026-05-07 15:03 | 12.55578 | -24.97666 | 6979 ft | 161 kts | 28° |
| 2026-05-07 15:03 | 12.56598 | -24.97199 | 6979 ft | 161 kts | 26° |
| 2026-05-07 15:03 | 12.57622 | -24.96732 | 6978 ft | 161 kts | 27° |
| 2026-05-07 15:04 | 12.58627 | -24.96259 | 6982 ft | 161 kts | 29° |
| 2026-05-07 15:04 | 12.59651 | -24.95758 | 6982 ft | 161 kts | 29° |
| 2026-05-07 15:04 | 12.60643 | -24.95265 | 6981 ft | 161 kts | 28° |
| 2026-05-07 15:04 | 12.61668 | -24.94788 | 6981 ft | 163 kts | 26° |
| 2026-05-07 15:05 | 12.62704 | -24.94315 | 6978 ft | 163 kts | 26° |
| 2026-05-07 15:05 | 12.63742 | -24.93843 | 6979 ft | 163 kts | 27° |
| 2026-05-07 15:05 | 12.64770 | -24.93354 | 6979 ft | 163 kts | 28° |
| 2026-05-07 15:05 | 12.65791 | -24.92851 | 6979 ft | 163 kts | 27° |
| 2026-05-07 15:06 | 12.66819 | -24.92366 | 6978 ft | 163 kts | 27° |
| 2026-05-07 15:06 | 12.67854 | -24.91893 | 6979 ft | 162 kts | 27° |
| 2026-05-07 15:06 | 12.68879 | -24.91407 | 6978 ft | 162 kts | 27° |
| 2026-05-07 15:06 | 12.69904 | -24.90929 | 6979 ft | 163 kts | 27° |
| 2026-05-07 15:07 | 12.70937 | -24.90453 | 6980 ft | 163 kts | 27° |
| 2026-05-07 15:07 | 12.71969 | -24.89968 | 6979 ft | 163 kts | 27° |
| 2026-05-07 15:07 | 12.73005 | -24.89493 | 6979 ft | 163 kts | 27° |
| 2026-05-07 15:07 | 12.74035 | -24.89007 | 6979 ft | 163 kts | 27° |
| 2026-05-07 15:08 | 12.74722 | -24.88697 | 6979 ft | 163 kts | 26° |
| 2026-05-07 15:08 | 12.75753 | -24.88209 | 6978 ft | 163 kts | 28° |
| 2026-05-07 15:08 | 12.76776 | -24.87712 | 6978 ft | 163 kts | 28° |
| 2026-05-07 15:08 | 12.77799 | -24.87215 | 6979 ft | 163 kts | 27° |
| 2026-05-07 15:09 | 12.78831 | -24.86730 | 6979 ft | 163 kts | 26° |
| 2026-05-07 15:09 | 12.79871 | -24.86258 | 6979 ft | 164 kts | 28° |
| 2026-05-07 15:09 | 12.80900 | -24.85769 | 6979 ft | 163 kts | 27° |
| 2026-05-07 15:09 | 12.81934 | -24.85297 | 6979 ft | 163 kts | 27° |
| 2026-05-07 15:10 | 12.82962 | -24.84807 | 6979 ft | 163 kts | 26° |
| 2026-05-07 15:10 | 12.83999 | -24.84329 | 6979 ft | 164 kts | 28° |
| 2026-05-07 15:10 | 12.85026 | -24.83829 | 6978 ft | 163 kts | 28° |
| 2026-05-07 15:10 | 12.86046 | -24.83321 | 6978 ft | 162 kts | 28° |
| 2026-05-07 15:11 | 12.87075 | -24.82836 | 6976 ft | 163 kts | 26° |
| 2026-05-07 15:11 | 12.88121 | -24.82378 | 6976 ft | 163 kts | 27° |
| 2026-05-07 15:11 | 12.89150 | -24.81896 | 6976 ft | 163 kts | 27° |
| 2026-05-07 15:11 | 12.90179 | -24.81417 | 6976 ft | 162 kts | 27° |
| 2026-05-07 15:12 | 12.91203 | -24.80929 | 6976 ft | 162 kts | 27° |
| 2026-05-07 15:12 | 12.92232 | -24.80442 | 6977 ft | 163 kts | 28° |
| 2026-05-07 15:12 | 12.93257 | -24.79944 | 6976 ft | 163 kts | 27° |
| 2026-05-07 15:12 | 12.94268 | -24.79455 | 6976 ft | 163 kts | 28° |
| 2026-05-07 15:13 | 12.95293 | -24.78962 | 6980 ft | 163 kts | 28° |
| 2026-05-07 15:13 | 12.96318 | -24.78471 | 6982 ft | 163 kts | 26° |
| 2026-05-07 15:13 | 12.97357 | -24.78007 | 6981 ft | 163 kts | 26° |
| 2026-05-07 15:13 | 12.98391 | -24.77535 | 6981 ft | 162 kts | 26° |
| 2026-05-07 15:14 | 12.99418 | -24.77043 | 6981 ft | 163 kts | 27° |
| 2026-05-07 15:14 | 13.00449 | -24.76556 | 6980 ft | 163 kts | 27° |
| 2026-05-07 15:14 | 13.01482 | -24.76075 | 6978 ft | 163 kts | 26° |
| 2026-05-07 15:14 | 13.02517 | -24.75600 | 6978 ft | 163 kts | 26° |
| 2026-05-07 15:15 | 13.03544 | -24.75115 | 6977 ft | 163 kts | 27° |
| 2026-05-07 15:15 | 13.04577 | -24.74636 | 6978 ft | 164 kts | 26° |
| 2026-05-07 15:15 | 13.05610 | -24.74149 | 6978 ft | 163 kts | 27° |
| 2026-05-07 15:15 | 13.06635 | -24.73654 | 6979 ft | 163 kts | 27° |
| 2026-05-07 15:16 | 13.07661 | -24.73163 | 6979 ft | 163 kts | 26° |
| 2026-05-07 15:16 | 13.08689 | -24.72679 | 6978 ft | 163 kts | 27° |
| 2026-05-07 15:16 | 13.09721 | -24.72194 | 6978 ft | 162 kts | 27° |
| 2026-05-07 15:16 | 13.10751 | -24.71706 | 6979 ft | 162 kts | 26° |
| 2026-05-07 15:17 | 13.11776 | -24.71218 | 6978 ft | 163 kts | 26° |
| 2026-05-07 15:17 | 13.12809 | -24.70735 | 6976 ft | 164 kts | 26° |
| 2026-05-07 15:17 | 13.13843 | -24.70249 | 6976 ft | 163 kts | 27° |
| 2026-05-07 15:17 | 13.14874 | -24.69755 | 6976 ft | 163 kts | 26° |
| 2026-05-07 15:18 | 13.15909 | -24.69272 | 6979 ft | 164 kts | 26° |
| 2026-05-07 15:18 | 13.16948 | -24.68794 | 6979 ft | 164 kts | 25° |
| 2026-05-07 15:18 | 13.17990 | -24.68309 | 6979 ft | 164 kts | 27° |
| 2026-05-07 15:18 | 13.19017 | -24.67803 | 6978 ft | 164 kts | 27° |
| 2026-05-07 15:19 | 13.20046 | -24.67306 | 6978 ft | 164 kts | 26° |
| 2026-05-07 15:19 | 13.21065 | -24.66821 | 6979 ft | 164 kts | 26° |
| 2026-05-07 15:19 | 13.22103 | -24.66332 | 6979 ft | 163 kts | 26° |
| 2026-05-07 15:19 | 13.23136 | -24.65847 | 6978 ft | 163 kts | 26° |
| 2026-05-07 15:20 | 13.24168 | -24.65362 | 6976 ft | 164 kts | 26° |
| 2026-05-07 15:20 | 13.25210 | -24.64891 | 6976 ft | 164 kts | 26° |
| 2026-05-07 15:20 | 13.26251 | -24.64410 | 6976 ft | 164 kts | 26° |
| 2026-05-07 15:20 | 13.27285 | -24.63918 | 6977 ft | 163 kts | 27° |
| 2026-05-07 15:21 | 13.28303 | -24.63404 | 6976 ft | 163 kts | 27° |
| 2026-05-07 15:21 | 13.29336 | -24.62917 | 6975 ft | 163 kts | 26° |
| 2026-05-07 15:21 | 13.30375 | -24.62440 | 6976 ft | 163 kts | 26° |
| 2026-05-07 15:21 | 13.31414 | -24.61963 | 6976 ft | 163 kts | 26° |
| 2026-05-07 15:22 | 13.32451 | -24.61484 | 6976 ft | 164 kts | 26° |
| 2026-05-07 15:22 | 13.33487 | -24.60991 | 6977 ft | 164 kts | 26° |
| 2026-05-07 15:22 | 13.34524 | -24.60498 | 6976 ft | 164 kts | 27° |
| 2026-05-07 15:22 | 13.35557 | -24.60003 | 6976 ft | 164 kts | 26° |
| 2026-05-07 15:23 | 13.36582 | -24.59503 | 6976 ft | 163 kts | 26° |
| 2026-05-07 15:23 | 13.37618 | -24.59016 | 6973 ft | 164 kts | 26° |
| 2026-05-07 15:23 | 13.38658 | -24.58529 | 6973 ft | 165 kts | 27° |
| 2026-05-07 15:23 | 13.39694 | -24.58038 | 6973 ft | 164 kts | 26° |
| 2026-05-07 15:24 | 13.40733 | -24.57559 | 6975 ft | 164 kts | 26° |
| 2026-05-07 15:24 | 13.41752 | -24.57069 | 6974 ft | 164 kts | 27° |
| 2026-05-07 15:24 | 13.42786 | -24.56571 | 6973 ft | 164 kts | 27° |
| 2026-05-07 15:24 | 13.43819 | -24.56073 | 6974 ft | 164 kts | 27° |
| 2026-05-07 15:25 | 13.44851 | -24.55580 | 6974 ft | 163 kts | 26° |
| 2026-05-07 15:25 | 13.45890 | -24.55094 | 6976 ft | 164 kts | 26° |
| 2026-05-07 15:25 | 13.46933 | -24.54620 | 6975 ft | 164 kts | 26° |
| 2026-05-07 15:25 | 13.47964 | -24.54127 | 6975 ft | 164 kts | 27° |
| 2026-05-07 15:26 | 13.48988 | -24.53626 | 6973 ft | 163 kts | 26° |
| 2026-05-07 15:26 | 13.50022 | -24.53139 | 6973 ft | 163 kts | 26° |
| 2026-05-07 15:26 | 13.51065 | -24.52663 | 6973 ft | 164 kts | 26° |
| 2026-05-07 15:26 | 13.52102 | -24.52178 | 6974 ft | 164 kts | 26° |
| 2026-05-07 15:27 | 13.53130 | -24.51678 | 6975 ft | 163 kts | 26° |
| 2026-05-07 15:27 | 13.54166 | -24.51194 | 6976 ft | 163 kts | 26° |
| 2026-05-07 15:27 | 13.55185 | -24.50704 | 6976 ft | 164 kts | 27° |
| 2026-05-07 15:27 | 13.56236 | -24.50215 | 6976 ft | 164 kts | 25° |
| 2026-05-07 15:28 | 13.57254 | -24.49730 | 6975 ft | 163 kts | 26° |
| 2026-05-07 15:28 | 13.58285 | -24.49236 | 6976 ft | 164 kts | 27° |
| 2026-05-07 15:28 | 13.59319 | -24.48744 | 6976 ft | 164 kts | 26° |
| 2026-05-07 15:28 | 13.60356 | -24.48259 | 6976 ft | 164 kts | 26° |
| 2026-05-07 15:29 | 13.61387 | -24.47764 | 6974 ft | 163 kts | 26° |
| 2026-05-07 15:29 | 13.62420 | -24.47274 | 6973 ft | 163 kts | 27° |
| 2026-05-07 15:29 | 13.63454 | -24.46780 | 6974 ft | 164 kts | 26° |
| 2026-05-07 15:29 | 13.64488 | -24.46285 | 6970 ft | 164 kts | 26° |
| 2026-05-07 15:30 | 13.65519 | -24.45789 | 6975 ft | 163 kts | 26° |
| 2026-05-07 15:30 | 13.66556 | -24.45307 | 6976 ft | 164 kts | 25° |
| 2026-05-07 15:30 | 13.67596 | -24.44820 | 6975 ft | 164 kts | 25° |
| 2026-05-07 15:30 | 13.68635 | -24.44336 | 6976 ft | 164 kts | 25° |
| 2026-05-07 15:31 | 13.69672 | -24.43850 | 6976 ft | 163 kts | 25° |
| 2026-05-07 15:31 | 13.70707 | -24.43361 | 6976 ft | 164 kts | 25° |
| 2026-05-07 15:31 | 13.71741 | -24.42865 | 6976 ft | 165 kts | 26° |
| 2026-05-07 15:31 | 13.72764 | -24.42374 | 6976 ft | 164 kts | 26° |
| 2026-05-07 15:32 | 13.73797 | -24.41879 | 6975 ft | 163 kts | 25° |
| 2026-05-07 15:32 | 13.74835 | -24.41392 | 6973 ft | 164 kts | 25° |
| 2026-05-07 15:32 | 13.75871 | -24.40900 | 6973 ft | 164 kts | 26° |
| 2026-05-07 15:32 | 13.76907 | -24.40407 | 6973 ft | 164 kts | 26° |
| 2026-05-07 15:33 | 13.77939 | -24.39911 | 6971 ft | 163 kts | 26° |
| 2026-05-07 15:33 | 13.78973 | -24.39418 | 6976 ft | 164 kts | 25° |
| 2026-05-07 15:33 | 13.80010 | -24.38929 | 6976 ft | 164 kts | 25° |
| 2026-05-07 15:33 | 13.81048 | -24.38443 | 6974 ft | 165 kts | 25° |
| 2026-05-07 15:34 | 13.82096 | -24.37958 | 6974 ft | 165 kts | 25° |
| 2026-05-07 15:34 | 13.83137 | -24.37460 | 6973 ft | 165 kts | 26° |
| 2026-05-07 15:34 | 13.84184 | -24.36965 | 6973 ft | 167 kts | 26° |
| 2026-05-07 15:34 | 13.85234 | -24.36467 | 6974 ft | 165 kts | 26° |
| 2026-05-07 15:35 | 13.86282 | -24.35976 | 6974 ft | 165 kts | 26° |
| 2026-05-07 15:35 | 13.87320 | -24.35474 | 6973 ft | 165 kts | 26° |
| 2026-05-07 15:35 | 13.88356 | -24.34966 | 6974 ft | 165 kts | 26° |
| 2026-05-07 15:35 | 13.89400 | -24.34469 | 6973 ft | 165 kts | 27° |
| 2026-05-07 15:36 | 13.90366 | -24.33839 | 6975 ft | 164 kts | 39° |
| 2026-05-07 15:36 | 13.91260 | -24.33108 | 6973 ft | 165 kts | 40° |
| 2026-05-07 15:36 | 13.92159 | -24.32376 | 6978 ft | 165 kts | 40° |
| 2026-05-07 15:36 | 13.93053 | -24.31639 | 6978 ft | 165 kts | 40° |
| 2026-05-07 15:37 | 13.93932 | -24.30905 | 6974 ft | 164 kts | 40° |
| 2026-05-07 15:37 | 13.94821 | -24.30170 | 6975 ft | 164 kts | 40° |
| 2026-05-07 15:37 | 13.95718 | -24.29437 | 6976 ft | 165 kts | 40° |
| 2026-05-07 15:37 | 13.96615 | -24.28702 | 6976 ft | 165 kts | 40° |
| 2026-05-07 15:38 | 13.97504 | -24.27966 | 6977 ft | 164 kts | 40° |
| 2026-05-07 15:38 | 13.98393 | -24.27226 | 6976 ft | 164 kts | 40° |
| 2026-05-07 15:38 | 13.99283 | -24.26489 | 6976 ft | 165 kts | 40° |
| 2026-05-07 15:38 | 14.00177 | -24.25748 | 6976 ft | 165 kts | 39° |
| 2026-05-07 15:39 | 14.01076 | -24.25015 | 6976 ft | 164 kts | 39° |
| 2026-05-07 15:39 | 14.01976 | -24.24283 | 6976 ft | 165 kts | 39° |
| 2026-05-07 15:39 | 14.02875 | -24.23541 | 6976 ft | 166 kts | 39° |
| 2026-05-07 15:39 | 14.03772 | -24.22802 | 6976 ft | 165 kts | 39° |
| 2026-05-07 15:40 | 14.04665 | -24.22065 | 6973 ft | 164 kts | 39° |
| 2026-05-07 15:40 | 14.05557 | -24.21321 | 6973 ft | 165 kts | 40° |
| 2026-05-07 15:40 | 14.06440 | -24.20582 | 6973 ft | 165 kts | 39° |
| 2026-05-07 15:40 | 14.07352 | -24.19839 | 6973 ft | 165 kts | 39° |
| 2026-05-07 15:41 | 14.08237 | -24.19116 | 6976 ft | 164 kts | 39° |
| 2026-05-07 15:41 | 14.09138 | -24.18384 | 6976 ft | 165 kts | 39° |
| 2026-05-07 15:41 | 14.10042 | -24.17645 | 6976 ft | 166 kts | 39° |
| 2026-05-07 15:41 | 14.10937 | -24.16904 | 6976 ft | 165 kts | 39° |
| 2026-05-07 15:42 | 14.11829 | -24.16166 | 6976 ft | 165 kts | 39° |
| 2026-05-07 15:42 | 14.12731 | -24.15432 | 6976 ft | 166 kts | 38° |
| 2026-05-07 15:42 | 14.13638 | -24.14698 | 6976 ft | 165 kts | 39° |
| 2026-05-07 15:42 | 14.14531 | -24.13952 | 6976 ft | 165 kts | 40° |
| 2026-05-07 15:43 | 14.15414 | -24.13206 | 6973 ft | 165 kts | 39° |
| 2026-05-07 15:43 | 14.16309 | -24.12466 | 6973 ft | 166 kts | 39° |
| 2026-05-07 15:43 | 14.17214 | -24.11727 | 6973 ft | 165 kts | 39° |
| 2026-05-07 15:43 | 14.18115 | -24.10989 | 6974 ft | 165 kts | 39° |
| 2026-05-07 15:44 | 14.19012 | -24.10251 | 6973 ft | 165 kts | 39° |
| 2026-05-07 15:44 | 14.19908 | -24.09507 | 6973 ft | 165 kts | 40° |
| 2026-05-07 15:44 | 14.20806 | -24.08763 | 6973 ft | 165 kts | 39° |
| 2026-05-07 15:44 | 14.21705 | -24.08030 | 6973 ft | 164 kts | 39° |
| 2026-05-07 15:45 | 14.22599 | -24.07294 | 6974 ft | 165 kts | 39° |
| 2026-05-07 15:45 | 14.23495 | -24.06551 | 6973 ft | 166 kts | 40° |
| 2026-05-07 15:45 | 14.24385 | -24.05817 | 6973 ft | 165 kts | 39° |
| 2026-05-07 15:45 | 14.25279 | -24.05072 | 6974 ft | 165 kts | 40° |
| 2026-05-07 15:46 | 14.27078 | -24.03593 | 6973 ft | 167 kts | 39° |
| 2026-05-07 15:46 | 14.27984 | -24.02851 | 6973 ft | 166 kts | 40° |
| 2026-05-07 15:46 | 14.28882 | -24.02106 | 6973 ft | 166 kts | 39° |
| 2026-05-07 15:47 | 14.29784 | -24.01366 | 6972 ft | 165 kts | 40° |
| 2026-05-07 15:47 | 14.30692 | -24.00633 | 6973 ft | 166 kts | 40° |
| 2026-05-07 15:47 | 14.31583 | -23.99877 | 6970 ft | 165 kts | 40° |
| 2026-05-07 15:47 | 14.32476 | -23.99135 | 6970 ft | 164 kts | 40° |
| 2026-05-07 15:48 | 14.33371 | -23.98390 | 6972 ft | 166 kts | 39° |
| 2026-05-07 15:48 | 14.34272 | -23.97642 | 6971 ft | 167 kts | 40° |
| 2026-05-07 15:48 | 14.35172 | -23.96893 | 6970 ft | 166 kts | 40° |
| 2026-05-07 15:48 | 14.36066 | -23.96139 | 6970 ft | 165 kts | 39° |
| 2026-05-07 15:49 | 14.36963 | -23.95390 | 6968 ft | 166 kts | 38° |
| 2026-05-07 15:49 | 14.37878 | -23.94649 | 6967 ft | 167 kts | 38° |
| 2026-05-07 15:49 | 14.38779 | -23.93917 | 6968 ft | 167 kts | 38° |
| 2026-05-07 15:49 | 14.39679 | -23.93169 | 6968 ft | 166 kts | 39° |
| 2026-05-07 15:50 | 14.40588 | -23.92431 | 6968 ft | 166 kts | 38° |
| 2026-05-07 15:50 | 14.41499 | -23.91684 | 6967 ft | 167 kts | 39° |
| 2026-05-07 15:50 | 14.42400 | -23.90935 | 6968 ft | 166 kts | 39° |
| 2026-05-07 15:50 | 14.43298 | -23.90192 | 6968 ft | 166 kts | 39° |
| 2026-05-07 15:51 | 14.44199 | -23.89440 | 6971 ft | 167 kts | 39° |
| 2026-05-07 15:51 | 14.45104 | -23.88688 | 6970 ft | 167 kts | 39° |
| 2026-05-07 15:51 | 14.46011 | -23.87943 | 6970 ft | 167 kts | 38° |
| 2026-05-07 15:51 | 14.46913 | -23.87203 | 6959 ft | 166 kts | 39° |
| 2026-05-07 15:52 | 14.47812 | -23.86452 | 6959 ft | 167 kts | 39° |
| 2026-05-07 15:52 | 14.48720 | -23.85703 | 6959 ft | 166 kts | 38° |
| 2026-05-07 15:52 | 14.49629 | -23.84967 | 6960 ft | 166 kts | 38° |
| 2026-05-07 15:52 | 14.50528 | -23.84216 | 6960 ft | 167 kts | 39° |
| 2026-05-07 15:53 | 14.51420 | -23.83474 | 6960 ft | 167 kts | 39° |
| 2026-05-07 15:53 | 14.52325 | -23.82718 | 6960 ft | 166 kts | 39° |
| 2026-05-07 15:53 | 14.53223 | -23.81969 | 6960 ft | 165 kts | 38° |
| 2026-05-07 15:53 | 14.54125 | -23.81228 | 6960 ft | 166 kts | 39° |
| 2026-05-07 15:54 | 14.55026 | -23.80474 | 6961 ft | 167 kts | 39° |
| 2026-05-07 15:54 | 14.55933 | -23.79728 | 6960 ft | 167 kts | 39° |
| 2026-05-07 15:54 | 14.56836 | -23.78982 | 6960 ft | 165 kts | 38° |
| 2026-05-07 15:54 | 14.57736 | -23.78239 | 6959 ft | 166 kts | 39° |
| 2026-05-07 15:55 | 14.58639 | -23.77491 | 6960 ft | 167 kts | 39° |
| 2026-05-07 15:55 | 14.59540 | -23.76738 | 6960 ft | 166 kts | 39° |
| 2026-05-07 15:55 | 14.60442 | -23.75988 | 6960 ft | 166 kts | 39° |
| 2026-05-07 15:55 | 14.61341 | -23.75236 | 6959 ft | 166 kts | 39° |
| 2026-05-07 15:56 | 14.62248 | -23.74486 | 6950 ft | 168 kts | 38° |
| 2026-05-07 15:56 | 14.63160 | -23.73743 | 6951 ft | 167 kts | 38° |
| 2026-05-07 15:56 | 14.64063 | -23.73000 | 6948 ft | 166 kts | 39° |
| 2026-05-07 15:56 | 14.64961 | -23.72253 | 6949 ft | 166 kts | 38° |
| 2026-05-07 15:57 | 14.65564 | -23.71763 | 6954 ft | 167 kts | 38° |
| 2026-05-07 15:57 | 14.66469 | -23.71008 | 6952 ft | 167 kts | 39° |
| 2026-05-07 15:57 | 14.67376 | -23.70260 | 6952 ft | 166 kts | 39° |
| 2026-05-07 15:57 | 14.68272 | -23.69503 | 6951 ft | 167 kts | 39° |
| 2026-05-07 15:58 | 14.69166 | -23.68731 | 6950 ft | 168 kts | 39° |
| 2026-05-07 15:58 | 14.70075 | -23.67986 | 6949 ft | 167 kts | 38° |
| 2026-05-07 15:58 | 14.70985 | -23.67244 | 6948 ft | 166 kts | 38° |
| 2026-05-07 15:58 | 14.71882 | -23.66486 | 6949 ft | 167 kts | 38° |
| 2026-05-07 15:59 | 14.72794 | -23.65726 | 6949 ft | 169 kts | 37° |
| 2026-05-07 15:59 | 14.73707 | -23.64977 | 6949 ft | 167 kts | 37° |
| 2026-05-07 15:59 | 14.74623 | -23.64246 | 6949 ft | 166 kts | 37° |
| 2026-05-07 15:59 | 14.75530 | -23.63499 | 6949 ft | 167 kts | 37° |
| 2026-05-07 16:00 | 14.76444 | -23.62745 | 6949 ft | 169 kts | 37° |
| 2026-05-07 16:00 | 14.77356 | -23.61981 | 6960 ft | 169 kts | 39° |
| 2026-05-07 16:00 | 14.78242 | -23.61224 | 6962 ft | 168 kts | 38° |
| 2026-05-07 16:00 | 14.79164 | -23.60458 | 6962 ft | 168 kts | 37° |
| 2026-05-07 16:01 | 14.80062 | -23.59708 | 6964 ft | 168 kts | 38° |
| 2026-05-07 16:01 | 14.80960 | -23.58944 | 6964 ft | 167 kts | 38° |
| 2026-05-07 16:01 | 14.81859 | -23.58190 | 6965 ft | 167 kts | 38° |
| 2026-05-07 16:01 | 14.82765 | -23.57439 | 6966 ft | 168 kts | 38° |
| 2026-05-07 16:02 | 14.83680 | -23.56680 | 6967 ft | 167 kts | 37° |
| 2026-05-07 16:02 | 14.84595 | -23.55937 | 6968 ft | 166 kts | 37° |
| 2026-05-07 16:02 | 14.85507 | -23.55203 | 6969 ft | 167 kts | 37° |
| 2026-05-07 16:02 | 14.86413 | -23.54450 | 6970 ft | 167 kts | 38° |
| 2026-05-07 16:03 | 14.87318 | -23.53689 | 6971 ft | 167 kts | 38° |
| 2026-05-07 16:03 | 14.88221 | -23.52931 | 6971 ft | 166 kts | 38° |
| 2026-05-07 16:03 | 14.89128 | -23.52187 | 6971 ft | 168 kts | 37° |
| 2026-05-07 16:03 | 14.90035 | -23.51431 | 6971 ft | 168 kts | 38° |
| 2026-05-07 16:04 | 14.90941 | -23.50670 | 6970 ft | 167 kts | 38° |
| 2026-05-07 16:04 | 14.91839 | -23.49906 | 6971 ft | 167 kts | 38° |
| 2026-05-07 16:04 | 14.92750 | -23.49160 | 6972 ft | 169 kts | 37° |
| 2026-05-07 16:04 | 14.93681 | -23.48399 | 6975 ft | 173 kts | 31° |
| 2026-05-07 16:05 | 14.94794 | -23.47944 | 6975 ft | 173 kts | 14° |
| 2026-05-07 16:05 | 14.95935 | -23.47534 | 6975 ft | 173 kts | 21° |
| 2026-05-07 16:05 | 14.97050 | -23.47040 | 6975 ft | 175 kts | 21° |
| 2026-05-07 16:05 | 14.98199 | -23.46599 | 6975 ft | 178 kts | 18° |
| 2026-05-07 16:06 | 14.99375 | -23.46206 | 6974 ft | 177 kts | 17° |
| 2026-05-07 16:06 | 15.00527 | -23.45803 | 6971 ft | 172 kts | 16° |
| 2026-05-07 16:06 | 15.01661 | -23.45431 | 6968 ft | 170 kts | 15° |
| 2026-05-07 16:06 | 15.02785 | -23.45062 | 6967 ft | 169 kts | 16° |
| 2026-05-07 16:07 | 15.03897 | -23.44689 | 6966 ft | 167 kts | 16° |
| 2026-05-07 16:07 | 15.04982 | -23.44315 | 6967 ft | 166 kts | 17° |
| 2026-05-07 16:07 | 15.06079 | -23.43929 | 6966 ft | 167 kts | 18° |
| 2026-05-07 16:07 | 15.07172 | -23.43527 | 6953 ft | 167 kts | 17° |
| 2026-05-07 16:08 | 15.08261 | -23.43127 | 6951 ft | 165 kts | 17° |
| 2026-05-07 16:08 | 15.09352 | -23.42760 | 6953 ft | 164 kts | 15° |
| 2026-05-07 16:08 | 15.10437 | -23.42380 | 6952 ft | 165 kts | 16° |
| 2026-05-07 16:08 | 15.11530 | -23.41999 | 6951 ft | 166 kts | 16° |
| 2026-05-07 16:09 | 15.12623 | -23.41601 | 6952 ft | 166 kts | 17° |
| 2026-05-07 16:09 | 15.13718 | -23.41223 | 6951 ft | 165 kts | 15° |
| 2026-05-07 16:09 | 15.14808 | -23.40844 | 6951 ft | 166 kts | 17° |
| 2026-05-07 16:09 | 15.15899 | -23.40448 | 6951 ft | 167 kts | 15° |
| 2026-05-07 16:10 | 15.16996 | -23.40056 | 6953 ft | 166 kts | 16° |
| 2026-05-07 16:10 | 15.18089 | -23.39662 | 6953 ft | 166 kts | 16° |
| 2026-05-07 16:10 | 15.19179 | -23.39274 | 6954 ft | 166 kts | 16° |
| 2026-05-07 16:10 | 15.20265 | -23.38881 | 6960 ft | 166 kts | 16° |
| 2026-05-07 16:11 | 15.21361 | -23.38500 | 6961 ft | 165 kts | 14° |
| 2026-05-07 16:11 | 15.22457 | -23.38141 | 6960 ft | 164 kts | 15° |
| 2026-05-07 16:11 | 15.23530 | -23.37773 | 6959 ft | 166 kts | 15° |
| 2026-05-07 16:11 | 15.24624 | -23.37403 | 6959 ft | 165 kts | 15° |
| 2026-05-07 16:12 | 15.25710 | -23.37004 | 6956 ft | 166 kts | 16° |
| 2026-05-07 16:12 | 15.26800 | -23.36614 | 6957 ft | 166 kts | 17° |
| 2026-05-07 16:12 | 15.27881 | -23.36211 | 6957 ft | 166 kts | 17° |
| 2026-05-07 16:12 | 15.28974 | -23.35820 | 6957 ft | 167 kts | 15° |
| 2026-05-07 16:13 | 15.30077 | -23.35440 | 6959 ft | 167 kts | 15° |
| 2026-05-07 16:13 | 15.31180 | -23.35084 | 6957 ft | 166 kts | 14° |
| 2026-05-07 16:13 | 15.32274 | -23.34716 | 6958 ft | 165 kts | 17° |
| 2026-05-07 16:13 | 15.33352 | -23.34291 | 6959 ft | 166 kts | 18° |
| 2026-05-07 16:14 | 15.34444 | -23.33882 | 6965 ft | 167 kts | 15° |
| 2026-05-07 16:14 | 15.35572 | -23.33629 | 6965 ft | 165 kts | 5° |
| 2026-05-07 16:14 | 15.36709 | -23.33521 | 6965 ft | 164 kts | 360° |
| 2026-05-07 16:14 | 15.37846 | -23.33488 | 6964 ft | 163 kts | 358° |
| 2026-05-07 16:15 | 15.38983 | -23.33472 | 6959 ft | 163 kts | 356° |
| 2026-05-07 16:15 | 15.40119 | -23.33456 | 6967 ft | 163 kts | 356° |
| 2026-05-07 16:15 | 15.41249 | -23.33431 | 6963 ft | 162 kts | 359° |
| 2026-05-07 16:15 | 15.42379 | -23.33384 | 6962 ft | 162 kts | 359° |
| 2026-05-07 16:16 | 15.43509 | -23.33320 | 6962 ft | 163 kts | 359° |
| 2026-05-07 16:16 | 15.44640 | -23.33256 | 6962 ft | 163 kts | 359° |
| 2026-05-07 16:16 | 15.45772 | -23.33195 | 6962 ft | 163 kts | 359° |
| 2026-05-07 16:16 | 15.46906 | -23.33137 | 6962 ft | 163 kts | 359° |
| 2026-05-07 16:17 | 15.48039 | -23.33090 | 6965 ft | 163 kts | 359° |
| 2026-05-07 16:17 | 15.49172 | -23.33030 | 6965 ft | 163 kts | 359° |
| 2026-05-07 16:17 | 15.50305 | -23.32963 | 6965 ft | 163 kts | 359° |
| 2026-05-07 16:17 | 15.51434 | -23.32897 | 6965 ft | 163 kts | 359° |
| 2026-05-07 16:18 | 15.52565 | -23.32840 | 6965 ft | 163 kts | 359° |
| 2026-05-07 16:18 | 15.53696 | -23.32765 | 6965 ft | 162 kts | 0° |
| 2026-05-07 16:18 | 15.54828 | -23.32684 | 6964 ft | 163 kts | 360° |
| 2026-05-07 16:18 | 15.55958 | -23.32628 | 6964 ft | 162 kts | 358° |
| 2026-05-07 16:19 | 15.57085 | -23.32587 | 6962 ft | 162 kts | 358° |
| 2026-05-07 16:19 | 15.58210 | -23.32538 | 6962 ft | 163 kts | 359° |
| 2026-05-07 16:19 | 15.59316 | -23.32391 | 6962 ft | 163 kts | 12° |
| 2026-05-07 16:19 | 15.60350 | -23.31883 | 6967 ft | 166 kts | 24° |
| 2026-05-07 16:20 | 15.61406 | -23.31405 | 6969 ft | 166 kts | 18° |
| 2026-05-07 16:20 | 15.62481 | -23.30974 | 6969 ft | 165 kts | 18° |
| 2026-05-07 16:20 | 15.63551 | -23.30524 | 6968 ft | 166 kts | 19° |
| 2026-05-07 16:20 | 15.64628 | -23.30060 | 6968 ft | 167 kts | 19° |
| 2026-05-07 16:21 | 15.65700 | -23.29601 | 6970 ft | 166 kts | 19° |
| 2026-05-07 16:21 | 15.66767 | -23.29138 | 6970 ft | 166 kts | 20° |
| 2026-05-07 16:21 | 15.67830 | -23.28668 | 6970 ft | 166 kts | 19° |
| 2026-05-07 16:21 | 15.68895 | -23.28194 | 6970 ft | 166 kts | 19° |
| 2026-05-07 16:22 | 15.69958 | -23.27725 | 6967 ft | 166 kts | 20° |
| 2026-05-07 16:22 | 15.71014 | -23.27259 | 6967 ft | 165 kts | 20° |
| 2026-05-07 16:22 | 15.72069 | -23.26784 | 6968 ft | 166 kts | 20° |
| 2026-05-07 16:22 | 15.73133 | -23.26312 | 6968 ft | 167 kts | 19° |
| 2026-05-07 16:23 | 15.74204 | -23.25850 | 6970 ft | 166 kts | 19° |
| 2026-05-07 16:23 | 15.75274 | -23.25391 | 6970 ft | 167 kts | 19° |
| 2026-05-07 16:23 | 15.76341 | -23.24920 | 6970 ft | 167 kts | 19° |
| 2026-05-07 16:23 | 15.77412 | -23.24438 | 6970 ft | 168 kts | 19° |
| 2026-05-07 16:24 | 15.78478 | -23.23959 | 6970 ft | 167 kts | 20° |
| 2026-05-07 16:24 | 15.79543 | -23.23487 | 6968 ft | 166 kts | 19° |
| 2026-05-07 16:24 | 15.80599 | -23.23033 | 6968 ft | 167 kts | 18° |
| 2026-05-07 16:24 | 15.81668 | -23.22563 | 6968 ft | 167 kts | 19° |
| 2026-05-07 16:25 | 15.82738 | -23.22099 | 6968 ft | 167 kts | 19° |
| 2026-05-07 16:25 | 15.83804 | -23.21630 | 6968 ft | 166 kts | 19° |
| 2026-05-07 16:25 | 15.84868 | -23.21155 | 6968 ft | 166 kts | 20° |
| 2026-05-07 16:25 | 15.85933 | -23.20669 | 6968 ft | 167 kts | 19° |
| 2026-05-07 16:26 | 15.86999 | -23.20201 | 6968 ft | 166 kts | 19° |
| 2026-05-07 16:26 | 15.88070 | -23.19742 | 6973 ft | 166 kts | 19° |
| 2026-05-07 16:26 | 15.89138 | -23.19275 | 6974 ft | 167 kts | 18° |
| 2026-05-07 16:26 | 15.89848 | -23.18960 | 6973 ft | 168 kts | 20° |
| 2026-05-07 16:27 | 15.91283 | -23.18332 | 6973 ft | 167 kts | 18° |
| 2026-05-07 16:27 | 15.92354 | -23.17866 | 6973 ft | 167 kts | 20° |
| 2026-05-07 16:27 | 15.93425 | -23.17385 | 6973 ft | 167 kts | 19° |
| 2026-05-07 16:27 | 15.94493 | -23.16907 | 6972 ft | 168 kts | 20° |
| 2026-05-07 16:28 | 15.95564 | -23.16428 | 6971 ft | 168 kts | 19° |
| 2026-05-07 16:28 | 15.96635 | -23.15966 | 6971 ft | 167 kts | 19° |
| 2026-05-07 16:28 | 15.97701 | -23.15481 | 6970 ft | 167 kts | 20° |
| 2026-05-07 16:28 | 15.98772 | -23.15004 | 6971 ft | 168 kts | 19° |
| 2026-05-07 16:29 | 15.99831 | -23.14535 | 6973 ft | 167 kts | 18° |
| 2026-05-07 16:29 | 16.00903 | -23.14073 | 6972 ft | 166 kts | 19° |
| 2026-05-07 16:29 | 16.01945 | -23.13613 | 6955 ft | 158 kts | 18° |
| 2026-05-07 16:29 | 16.02971 | -23.13161 | 6728 ft | 163 kts | 19° |
| 2026-05-07 16:30 | 16.04010 | -23.12696 | 6574 ft | 161 kts | 19° |
| 2026-05-07 16:30 | 16.05029 | -23.12234 | 6424 ft | 160 kts | 19° |
| 2026-05-07 16:30 | 16.06062 | -23.11793 | 6244 ft | 160 kts | 18° |
| 2026-05-07 16:30 | 16.07084 | -23.11351 | 6089 ft | 159 kts | 19° |
| 2026-05-07 16:31 | 16.08093 | -23.10893 | 5925 ft | 159 kts | 19° |
| 2026-05-07 16:31 | 16.09108 | -23.10433 | 5769 ft | 158 kts | 18° |
| 2026-05-07 16:31 | 16.10118 | -23.09995 | 5619 ft | 157 kts | 18° |
| 2026-05-07 16:31 | 16.11122 | -23.09557 | 5468 ft | 156 kts | 18° |
| 2026-05-07 16:32 | 16.12122 | -23.09120 | 5322 ft | 156 kts | 18° |
| 2026-05-07 16:32 | 16.13116 | -23.08681 | 5177 ft | 155 kts | 19° |
| 2026-05-07 16:32 | 16.14107 | -23.08239 | 5037 ft | 154 kts | 19° |
| 2026-05-07 16:32 | 16.15090 | -23.07802 | 4902 ft | 153 kts | 19° |
| 2026-05-07 16:33 | 16.16066 | -23.07365 | 4766 ft | 152 kts | 19° |
| 2026-05-07 16:33 | 16.17041 | -23.06933 | 4633 ft | 152 kts | 18° |
| 2026-05-07 16:33 | 16.17999 | -23.06509 | 4511 ft | 151 kts | 18° |
| 2026-05-07 16:33 | 16.18963 | -23.06078 | 4387 ft | 151 kts | 19° |
| 2026-05-07 16:34 | 16.19926 | -23.05658 | 4262 ft | 149 kts | 18° |
| 2026-05-07 16:34 | 16.20881 | -23.05247 | 4155 ft | 148 kts | 19° |
| 2026-05-07 16:34 | 16.21820 | -23.04817 | 4027 ft | 147 kts | 20° |
| 2026-05-07 16:34 | 16.22757 | -23.04395 | 3916 ft | 146 kts | 18° |
| 2026-05-07 16:35 | 16.23693 | -23.03998 | 3798 ft | 145 kts | 19° |
| 2026-05-07 16:35 | 16.24620 | -23.03591 | 3689 ft | 144 kts | 20° |
| 2026-05-07 16:35 | 16.25547 | -23.03187 | 3582 ft | 144 kts | 19° |
| 2026-05-07 16:35 | 16.26464 | -23.02777 | 3482 ft | 143 kts | 20° |
| 2026-05-07 16:36 | 16.27375 | -23.02364 | 3357 ft | 142 kts | 20° |
| 2026-05-07 16:36 | 16.28282 | -23.01960 | 3245 ft | 141 kts | 20° |
| 2026-05-07 16:36 | 16.29183 | -23.01566 | 3128 ft | 141 kts | 20° |
| 2026-05-07 16:36 | 16.30080 | -23.01168 | 3000 ft | 139 kts | 21° |
| 2026-05-07 16:37 | 16.30963 | -23.00776 | 2898 ft | 137 kts | 20° |
| 2026-05-07 16:37 | 16.31832 | -23.00396 | 2779 ft | 134 kts | 21° |
| 2026-05-07 16:37 | 16.32694 | -23.00015 | 2668 ft | 134 kts | 21° |
| 2026-05-07 16:37 | 16.33551 | -22.99644 | 2562 ft | 135 kts | 22° |
| 2026-05-07 16:38 | 16.34409 | -22.99256 | 2533 ft | 133 kts | 22° |
| 2026-05-07 16:38 | 16.35252 | -22.98874 | 2499 ft | 133 kts | 23° |
| 2026-05-07 16:38 | 16.36102 | -22.98488 | 2492 ft | 133 kts | 23° |
| 2026-05-07 16:38 | 16.36951 | -22.98112 | 2478 ft | 133 kts | 22° |
| 2026-05-07 16:39 | 16.37804 | -22.97726 | 2478 ft | 133 kts | 22° |
| 2026-05-07 16:39 | 16.38644 | -22.97350 | 2499 ft | 131 kts | 22° |
| 2026-05-07 16:39 | 16.39482 | -22.96977 | 2504 ft | 132 kts | 21° |
| 2026-05-07 16:39 | 16.40330 | -22.96609 | 2532 ft | 130 kts | 21° |
| 2026-05-07 16:40 | 16.41178 | -22.96244 | 2526 ft | 134 kts | 21° |
| 2026-05-07 16:40 | 16.42027 | -22.95863 | 2533 ft | 129 kts | 23° |
| 2026-05-07 16:40 | 16.42850 | -22.95492 | 2538 ft | 130 kts | 22° |
| 2026-05-07 16:40 | 16.43686 | -22.95137 | 2535 ft | 129 kts | 22° |
| 2026-05-07 16:41 | 16.44515 | -22.94780 | 2547 ft | 130 kts | 17° |
| 2026-05-07 16:41 | 16.45412 | -22.94707 | 2530 ft | 130 kts | 359° |
| 2026-05-07 16:41 | 16.46313 | -22.94717 | 2375 ft | 132 kts | 2° |
| 2026-05-07 16:41 | 16.47228 | -22.94716 | 2285 ft | 130 kts | 1° |
| 2026-05-07 16:42 | 16.48131 | -22.94733 | 2191 ft | 129 kts | 1° |
| 2026-05-07 16:42 | 16.49044 | -22.94745 | 2070 ft | 131 kts | 3° |
| 2026-05-07 16:42 | 16.49934 | -22.94727 | 2007 ft | 131 kts | 3° |
| 2026-05-07 16:42 | 16.50839 | -22.94714 | 2016 ft | 123 kts | 1° |
| 2026-05-07 16:43 | 16.51614 | -22.94736 | 2045 ft | 104 kts | 2° |
| 2026-05-07 16:43 | 16.52307 | -22.94744 | 2032 ft | 96 kts | 3° |
| 2026-05-07 16:43 | 16.52969 | -22.94750 | 2090 ft | 96 kts | 3° |
| 2026-05-07 16:43 | 16.53628 | -22.94759 | 2160 ft | 92 kts | 3° |
| 2026-05-07 16:44 | 16.54309 | -22.94758 | 2096 ft | 100 kts | 3° |
| 2026-05-07 16:44 | 16.54996 | -22.94744 | 2036 ft | 99 kts | 2° |
| 2026-05-07 16:44 | 16.55662 | -22.94773 | 2046 ft | 92 kts | 0° |
| 2026-05-07 16:44 | 16.56320 | -22.94790 | 2053 ft | 95 kts | 4° |
| 2026-05-07 16:45 | 16.56970 | -22.94782 | 2066 ft | 95 kts | 4° |
| 2026-05-07 16:45 | 16.57649 | -22.94771 | 2068 ft | 98 kts | 2° |
| 2026-05-07 16:45 | 16.58315 | -22.94792 | 2058 ft | 95 kts | 1° |
| 2026-05-07 16:45 | 16.58986 | -22.94792 | 2046 ft | 95 kts | 3° |
| 2026-05-07 16:46 | 16.59646 | -22.94791 | 2032 ft | 97 kts | 359° |
| 2026-05-07 16:46 | 16.60323 | -22.94801 | 2022 ft | 96 kts | 0° |
| 2026-05-07 16:46 | 16.60994 | -22.94822 | 1998 ft | 95 kts | 2° |
| 2026-05-07 16:46 | 16.61435 | -22.94811 | 1982 ft | 93 kts | 2° |
| 2026-05-07 16:47 | 16.62088 | -22.94801 | 1963 ft | 97 kts | 359° |
| 2026-05-07 16:47 | 16.62767 | -22.94826 | 1947 ft | 99 kts | 359° |
| 2026-05-07 16:47 | 16.63443 | -22.94839 | 1898 ft | 92 kts | 2° |
| 2026-05-07 16:47 | 16.64042 | -22.94829 | 1763 ft | 86 kts | 3° |
| 2026-05-07 16:48 | 16.64636 | -22.94822 | 1623 ft | 85 kts | 1° |
| 2026-05-07 16:48 | 16.65201 | -22.94832 | 1508 ft | 77 kts | 0° |
| 2026-05-07 16:48 | 16.65735 | -22.94840 | 1429 ft | 74 kts | 360° |
| 2026-05-07 16:48 | 16.66258 | -22.94858 | 1333 ft | 75 kts | 1° |
| 2026-05-07 16:49 | 16.66792 | -22.94876 | 1246 ft | 77 kts | 0° |
| 2026-05-07 16:49 | 16.67316 | -22.94897 | 1187 ft | 75 kts | 3° |
| 2026-05-07 16:49 | 16.67830 | -22.94886 | 1123 ft | 74 kts | 2° |
| 2026-05-07 16:49 | 16.68340 | -22.94877 | 1031 ft | 73 kts | 2° |
| 2026-05-07 16:50 | 16.68842 | -22.94881 | 925 ft | 72 kts | 2° |
| 2026-05-07 16:50 | 16.69350 | -22.94890 | 823 ft | 74 kts | 6° |
| 2026-05-07 16:50 | 16.69858 | -22.94881 | 690 ft | 73 kts | 7° |
| 2026-05-07 16:50 | 16.70369 | -22.94871 | 609 ft | 70 kts | 7° |
| 2026-05-07 16:51 | 16.70831 | -22.94877 | 518 ft | 63 kts | 5° |
| 2026-05-07 16:51 | 16.71278 | -22.94885 | 435 ft | 66 kts | 5° |
| 2026-05-07 16:51 | 16.71735 | -22.94886 | 350 ft | 63 kts | 9° |
| 2026-05-07 16:51 | 16.72173 | -22.94885 | 255 ft | 64 kts | 9° |
| 2026-05-07 16:52 | 16.72629 | -22.94888 | 168 ft | 66 kts | 8° |
| 2026-05-07 16:52 | 16.73026 | -22.94895 | 147 ft | 42 kts | 357° |
| 2026-05-07 16:52 | 16.73248 | -22.94893 | 146 ft | 24 kts | 1° |
| 2026-05-07 16:52 | 16.73371 | -22.94904 | 147 ft | 15 kts | 358° |
| 2026-05-07 16:53 | 16.73506 | -22.94899 | 147 ft | 23 kts | 3° |
| 2026-05-07 16:53 | 16.73674 | -22.94898 | 145 ft | 25 kts | 360° |
| 2026-05-07 16:53 | 16.73845 | -22.94897 | 145 ft | 21 kts | 360° |
| 2026-05-07 16:53 | 16.73994 | -22.94899 | 144 ft | 22 kts | 0° |
| 2026-05-07 16:54 | 16.74143 | -22.94899 | 143 ft | 19 kts | 359° |
| 2026-05-07 16:54 | 16.74232 | -22.94857 | 144 ft | 12 kts | 63° |
| 2026-05-07 16:54 | 16.74273 | -22.94785 | 144 ft | 12 kts | 56° |
| 2026-05-07 16:54 | 16.74289 | -22.94710 | 145 ft | 12 kts | 140° |
| 2026-05-07 16:55 | 16.74182 | -22.94697 | 145 ft | 20 kts | 179° |
| 2026-05-07 16:55 | 16.74015 | -22.94694 | 144 ft | 28 kts | 183° |
| 2026-05-07 16:55 | 16.73808 | -22.94695 | 145 ft | 29 kts | 179° |
| 2026-05-07 16:55 | 16.73629 | -22.94657 | 145 ft | 21 kts | 137° |
| 2026-05-07 16:56 | 16.73565 | -22.94598 | 145 ft | 12 kts | 176° |
| 2026-05-07 16:56 | 16.73471 | -22.94595 | 145 ft | 14 kts | 179° |
| 2026-05-07 16:56 | 16.73245 | -22.94594 | 145 ft | 14 kts | 178° |
| 2026-05-07 16:57 | 16.73165 | -22.94583 | 145 ft | 7 kts | 98° |
| 2026-05-07 16:57 | 16.73166 | -22.94544 | 145 ft | 4 kts | 90° |
| 2026-05-07 16:57 | 16.73166 | -22.94520 | 145 ft | 4 kts | 89° |
| 2026-05-07 16:57 | 16.73166 | -22.94505 | 145 ft | 0 kts | 90° |
| 2026-05-07 16:58 | 16.73166 | -22.94495 | 145 ft | 1 kts | 90° |
| 2026-05-07 16:58 | 16.73166 | -22.94493 | 145 ft | 0 kts | 90° |
| 2026-05-07 16:58 | 16.73166 | -22.94472 | 145 ft | 4 kts | 90° |
| 2026-05-07 16:58 | 16.73166 | -22.94458 | 145 ft | 0 kts | 89° |